<?xml version='1.0' encoding='UTF-8'?><gpx version="1.1" creator="JPX - https://github.com/jenetics/jpx" xmlns="http://www.topografix.com/GPX/1/1"><trk><trkseg><trkpt lat="-36.7100461" lon="174.556459"><ele>45.0</ele><time>2026-03-24T03:20:57.732Z</time></trkpt><trkpt lat="-36.7100847" lon="174.5565305"><ele>45.0</ele><time>2026-03-24T03:21:12.732Z</time></trkpt><trkpt lat="-36.7100821" lon="174.5566138"><ele>45.0</ele><time>2026-03-24T03:21:14.731Z</time></trkpt><trkpt lat="-36.7100699" lon="174.5567084"><ele>45.0</ele><time>2026-03-24T03:21:16.731Z</time></trkpt><trkpt lat="-36.7100488" lon="174.5567944"><ele>45.0</ele><time>2026-03-24T03:21:18.731Z</time></trkpt><trkpt lat="-36.7100308" lon="174.5568797"><ele>45.0</ele><time>2026-03-24T03:21:20.731Z</time></trkpt><trkpt lat="-36.7100158" lon="174.5569569"><ele>45.0</ele><time>2026-03-24T03:21:22.732Z</time></trkpt><trkpt lat="-36.709997" lon="174.5570681"><ele>46.666666666666664</ele><time>2026-03-24T03:21:25.731Z</time></trkpt><trkpt lat="-36.7099783" lon="174.5571448"><ele>48.33333333333333</ele><time>2026-03-24T03:21:28.731Z</time></trkpt><trkpt lat="-36.7099687" lon="174.5572281"><ele>50.0</ele><time>2026-03-24T03:21:42.731Z</time></trkpt><trkpt lat="-36.7099801" lon="174.557317"><ele>51.666666666666664</ele><time>2026-03-24T03:21:47.732Z</time></trkpt><trkpt lat="-36.7099717" lon="174.5574224"><ele>53.33333333333333</ele><time>2026-03-24T03:21:50.731Z</time></trkpt><trkpt lat="-36.709955" lon="174.5575141"><ele>55.0</ele><time>2026-03-24T03:21:52.731Z</time></trkpt><trkpt lat="-36.7099435" lon="174.5576435"><ele>55.0</ele><time>2026-03-24T03:21:54.731Z</time></trkpt><trkpt lat="-36.7099305" lon="174.5577744"><ele>55.0</ele><time>2026-03-24T03:21:56.733Z</time></trkpt><trkpt lat="-36.7099339" lon="174.5579207"><ele>55.0</ele><time>2026-03-24T03:21:58.732Z</time></trkpt><trkpt lat="-36.7099404" lon="174.5579989"><ele>55.0</ele><time>2026-03-24T03:21:59.731Z</time></trkpt><trkpt lat="-36.7099631" lon="174.558148"><ele>55.0</ele><time>2026-03-24T03:22:01.73Z</time></trkpt><trkpt lat="-36.7099868" lon="174.5582211"><ele>56.5</ele><time>2026-03-24T03:22:02.73Z</time></trkpt><trkpt lat="-36.7100378" lon="174.5583482"><ele>58.0</ele><time>2026-03-24T03:22:04.73Z</time></trkpt><trkpt lat="-36.7100933" lon="174.5584761"><ele>59.5</ele><time>2026-03-24T03:22:06.731Z</time></trkpt><trkpt lat="-36.7101555" lon="174.5585972"><ele>61.0</ele><time>2026-03-24T03:22:08.731Z</time></trkpt><trkpt lat="-36.7102274" lon="174.5587129"><ele>63.666666666666664</ele><time>2026-03-24T03:22:10.731Z</time></trkpt><trkpt lat="-36.7103033" lon="174.5588302"><ele>66.33333333333333</ele><time>2026-03-24T03:22:12.73Z</time></trkpt><trkpt lat="-36.7103409" lon="174.5588974"><ele>69.0</ele><time>2026-03-24T03:22:13.731Z</time></trkpt><trkpt lat="-36.7103711" lon="174.5589695"><ele>71.66666666666667</ele><time>2026-03-24T03:22:14.731Z</time></trkpt><trkpt lat="-36.7104147" lon="174.559042"><ele>74.33333333333334</ele><time>2026-03-24T03:22:15.731Z</time></trkpt><trkpt lat="-36.7104585" lon="174.559104"><ele>77.0</ele><time>2026-03-24T03:22:16.73Z</time></trkpt><trkpt lat="-36.7105075" lon="174.5591636"><ele>77.0</ele><time>2026-03-24T03:22:17.731Z</time></trkpt><trkpt lat="-36.7105667" lon="174.5592969"><ele>77.0</ele><time>2026-03-24T03:22:19.731Z</time></trkpt><trkpt lat="-36.7106338" lon="174.5594155"><ele>77.0</ele><time>2026-03-24T03:22:21.73Z</time></trkpt><trkpt lat="-36.710661" lon="174.5594867"><ele>77.0</ele><time>2026-03-24T03:22:22.732Z</time></trkpt><trkpt lat="-36.7107384" lon="174.5596051"><ele>77.0</ele><time>2026-03-24T03:22:24.73Z</time></trkpt><trkpt lat="-36.7108038" lon="174.5597424"><ele>73.75</ele><time>2026-03-24T03:22:26.73Z</time></trkpt><trkpt lat="-36.7108755" lon="174.5598679"><ele>70.5</ele><time>2026-03-24T03:22:28.73Z</time></trkpt><trkpt lat="-36.7109453" lon="174.559985"><ele>67.25</ele><time>2026-03-24T03:22:30.732Z</time></trkpt><trkpt lat="-36.711011" lon="174.5600953"><ele>64.0</ele><time>2026-03-24T03:22:32.732Z</time></trkpt><trkpt lat="-36.7110717" lon="174.5602185"><ele>66.4</ele><time>2026-03-24T03:22:34.732Z</time></trkpt><trkpt lat="-36.7111383" lon="174.560331"><ele>68.80000000000001</ele><time>2026-03-24T03:22:36.731Z</time></trkpt><trkpt lat="-36.7112015" lon="174.5604528"><ele>71.19999999999999</ele><time>2026-03-24T03:22:38.731Z</time></trkpt><trkpt lat="-36.711242" lon="174.5605138"><ele>73.6</ele><time>2026-03-24T03:22:39.731Z</time></trkpt><trkpt lat="-36.7113052" lon="174.5606417"><ele>76.0</ele><time>2026-03-24T03:22:41.733Z</time></trkpt><trkpt lat="-36.7113854" lon="174.5607688"><ele>76.0</ele><time>2026-03-24T03:22:43.73Z</time></trkpt><trkpt lat="-36.7114267" lon="174.5608305"><ele>76.0</ele><time>2026-03-24T03:22:44.731Z</time></trkpt><trkpt lat="-36.7114999" lon="174.5609439"><ele>76.0</ele><time>2026-03-24T03:22:46.73Z</time></trkpt><trkpt lat="-36.7115408" lon="174.5610085"><ele>76.0</ele><time>2026-03-24T03:22:47.731Z</time></trkpt><trkpt lat="-36.7115807" lon="174.5610748"><ele>76.0</ele><time>2026-03-24T03:22:48.731Z</time></trkpt><trkpt lat="-36.7116528" lon="174.5612056"><ele>76.0</ele><time>2026-03-24T03:22:50.73Z</time></trkpt><trkpt lat="-36.7117292" lon="174.5613226"><ele>74.6</ele><time>2026-03-24T03:22:52.731Z</time></trkpt><trkpt lat="-36.7117964" lon="174.5614495"><ele>73.19999999999999</ele><time>2026-03-24T03:22:54.73Z</time></trkpt><trkpt lat="-36.7118745" lon="174.5615703"><ele>71.80000000000001</ele><time>2026-03-24T03:22:56.732Z</time></trkpt><trkpt lat="-36.7119056" lon="174.5616422"><ele>70.4</ele><time>2026-03-24T03:22:57.731Z</time></trkpt><trkpt lat="-36.711971" lon="174.5617617"><ele>69.0</ele><time>2026-03-24T03:22:59.732Z</time></trkpt><trkpt lat="-36.7120397" lon="174.5618828"><ele>70.5</ele><time>2026-03-24T03:23:01.73Z</time></trkpt><trkpt lat="-36.7121133" lon="174.5620113"><ele>72.0</ele><time>2026-03-24T03:23:03.731Z</time></trkpt><trkpt lat="-36.7121508" lon="174.5620747"><ele>73.5</ele><time>2026-03-24T03:23:04.731Z</time></trkpt><trkpt lat="-36.7121913" lon="174.5621378"><ele>75.0</ele><time>2026-03-24T03:23:05.731Z</time></trkpt><trkpt lat="-36.7122331" lon="174.5622035"><ele>76.5</ele><time>2026-03-24T03:23:06.73Z</time></trkpt><trkpt lat="-36.7122734" lon="174.5622678"><ele>78.0</ele><time>2026-03-24T03:23:07.731Z</time></trkpt><trkpt lat="-36.7123186" lon="174.562332"><ele>78.0</ele><time>2026-03-24T03:23:08.73Z</time></trkpt><trkpt lat="-36.7123643" lon="174.5623941"><ele>78.0</ele><time>2026-03-24T03:23:09.731Z</time></trkpt><trkpt lat="-36.7124084" lon="174.5624588"><ele>78.0</ele><time>2026-03-24T03:23:10.731Z</time></trkpt><trkpt lat="-36.7124483" lon="174.5625297"><ele>78.0</ele><time>2026-03-24T03:23:11.731Z</time></trkpt><trkpt lat="-36.7124988" lon="174.5625858"><ele>78.0</ele><time>2026-03-24T03:23:12.73Z</time></trkpt><trkpt lat="-36.7125391" lon="174.5626533"><ele>78.0</ele><time>2026-03-24T03:23:13.731Z</time></trkpt><trkpt lat="-36.7125839" lon="174.5627241"><ele>78.0</ele><time>2026-03-24T03:23:14.731Z</time></trkpt><trkpt lat="-36.7126207" lon="174.5627897"><ele>78.0</ele><time>2026-03-24T03:23:15.731Z</time></trkpt><trkpt lat="-36.7126657" lon="174.5628599"><ele>78.0</ele><time>2026-03-24T03:23:16.73Z</time></trkpt><trkpt lat="-36.7127135" lon="174.5629142"><ele>78.0</ele><time>2026-03-24T03:23:17.73Z</time></trkpt><trkpt lat="-36.7127592" lon="174.5629747"><ele>78.0</ele><time>2026-03-24T03:23:18.73Z</time></trkpt><trkpt lat="-36.7128338" lon="174.5631041"><ele>78.0</ele><time>2026-03-24T03:23:20.731Z</time></trkpt><trkpt lat="-36.7128683" lon="174.5631816"><ele>78.0</ele><time>2026-03-24T03:23:21.73Z</time></trkpt><trkpt lat="-36.7129082" lon="174.5632507"><ele>77.66666666666667</ele><time>2026-03-24T03:23:22.731Z</time></trkpt><trkpt lat="-36.7129483" lon="174.56332"><ele>77.33333333333333</ele><time>2026-03-24T03:23:23.731Z</time></trkpt><trkpt lat="-36.7129935" lon="174.5633875"><ele>77.0</ele><time>2026-03-24T03:23:24.731Z</time></trkpt><trkpt lat="-36.7130686" lon="174.5635085"><ele>76.66666666666666</ele><time>2026-03-24T03:23:26.73Z</time></trkpt><trkpt lat="-36.7131087" lon="174.5635727"><ele>76.33333333333333</ele><time>2026-03-24T03:23:27.731Z</time></trkpt><trkpt lat="-36.7131825" lon="174.5636897"><ele>76.0</ele><time>2026-03-24T03:23:29.73Z</time></trkpt><trkpt lat="-36.7132582" lon="174.5638081"><ele>76.0</ele><time>2026-03-24T03:23:31.731Z</time></trkpt><trkpt lat="-36.7133002" lon="174.5638677"><ele>76.0</ele><time>2026-03-24T03:23:32.731Z</time></trkpt><trkpt lat="-36.7133417" lon="174.563927"><ele>76.0</ele><time>2026-03-24T03:23:33.73Z</time></trkpt><trkpt lat="-36.7133783" lon="174.5639925"><ele>76.0</ele><time>2026-03-24T03:23:34.732Z</time></trkpt><trkpt lat="-36.7134529" lon="174.564098"><ele>76.0</ele><time>2026-03-24T03:23:36.732Z</time></trkpt><trkpt lat="-36.7135187" lon="174.5641951"><ele>76.0</ele><time>2026-03-24T03:23:38.73Z</time></trkpt><trkpt lat="-36.713531" lon="174.5642935"><ele>76.0</ele><time>2026-03-24T03:23:40.731Z</time></trkpt><trkpt lat="-36.7134687" lon="174.5643639"><ele>76.0</ele><time>2026-03-24T03:23:42.732Z</time></trkpt><trkpt lat="-36.7133791" lon="174.5644341"><ele>76.0</ele><time>2026-03-24T03:23:44.732Z</time></trkpt><trkpt lat="-36.7132773" lon="174.5644875"><ele>76.0</ele><time>2026-03-24T03:23:46.73Z</time></trkpt><trkpt lat="-36.7131731" lon="174.5645472"><ele>76.0</ele><time>2026-03-24T03:23:48.731Z</time></trkpt><trkpt lat="-36.7131026" lon="174.5645705"><ele>75.16666666666666</ele><time>2026-03-24T03:23:49.73Z</time></trkpt><trkpt lat="-36.7129867" lon="174.5646194"><ele>74.33333333333333</ele><time>2026-03-24T03:23:51.731Z</time></trkpt><trkpt lat="-36.7129239" lon="174.564638"><ele>73.5</ele><time>2026-03-24T03:23:52.731Z</time></trkpt><trkpt lat="-36.7128575" lon="174.5646619"><ele>72.66666666666667</ele><time>2026-03-24T03:23:53.731Z</time></trkpt><trkpt lat="-36.7127892" lon="174.5646858"><ele>71.83333333333334</ele><time>2026-03-24T03:23:54.73Z</time></trkpt><trkpt lat="-36.7127166" lon="174.5647107"><ele>71.0</ele><time>2026-03-24T03:23:55.732Z</time></trkpt><trkpt lat="-36.7126421" lon="174.5647388"><ele>70.83333333333334</ele><time>2026-03-24T03:23:56.731Z</time></trkpt><trkpt lat="-36.7125627" lon="174.5647657"><ele>70.66666666666667</ele><time>2026-03-24T03:23:57.73Z</time></trkpt><trkpt lat="-36.7124869" lon="174.5648"><ele>70.5</ele><time>2026-03-24T03:23:58.73Z</time></trkpt><trkpt lat="-36.7124137" lon="174.5648344"><ele>70.33333333333333</ele><time>2026-03-24T03:23:59.731Z</time></trkpt><trkpt lat="-36.712337" lon="174.5648719"><ele>70.16666666666666</ele><time>2026-03-24T03:24:00.731Z</time></trkpt><trkpt lat="-36.7122585" lon="174.5648997"><ele>70.0</ele><time>2026-03-24T03:24:01.732Z</time></trkpt><trkpt lat="-36.7121809" lon="174.564927"><ele>70.0</ele><time>2026-03-24T03:24:02.73Z</time></trkpt><trkpt lat="-36.7121132" lon="174.5649577"><ele>70.0</ele><time>2026-03-24T03:24:03.732Z</time></trkpt><trkpt lat="-36.7120482" lon="174.5649831"><ele>70.0</ele><time>2026-03-24T03:24:04.73Z</time></trkpt><trkpt lat="-36.7119839" lon="174.5650067"><ele>70.0</ele><time>2026-03-24T03:24:05.731Z</time></trkpt><trkpt lat="-36.7118733" lon="174.5650439"><ele>70.0</ele><time>2026-03-24T03:24:07.73Z</time></trkpt><trkpt lat="-36.7117669" lon="174.5650946"><ele>70.0</ele><time>2026-03-24T03:24:09.731Z</time></trkpt><trkpt lat="-36.7116694" lon="174.5651424"><ele>69.83333333333333</ele><time>2026-03-24T03:24:11.731Z</time></trkpt><trkpt lat="-36.7116083" lon="174.5651648"><ele>69.66666666666666</ele><time>2026-03-24T03:24:12.731Z</time></trkpt><trkpt lat="-36.7114997" lon="174.5651974"><ele>69.5</ele><time>2026-03-24T03:24:14.73Z</time></trkpt><trkpt lat="-36.7114369" lon="174.5652246"><ele>69.33333333333333</ele><time>2026-03-24T03:24:15.73Z</time></trkpt><trkpt lat="-36.7113289" lon="174.5652697"><ele>69.16666666666667</ele><time>2026-03-24T03:24:17.731Z</time></trkpt><trkpt lat="-36.7112684" lon="174.5652981"><ele>69.0</ele><time>2026-03-24T03:24:18.73Z</time></trkpt><trkpt lat="-36.7111572" lon="174.5653604"><ele>67.83333333333333</ele><time>2026-03-24T03:24:20.731Z</time></trkpt><trkpt lat="-36.711099" lon="174.5653954"><ele>66.66666666666667</ele><time>2026-03-24T03:24:21.732Z</time></trkpt><trkpt lat="-36.7109919" lon="174.5654653"><ele>65.5</ele><time>2026-03-24T03:24:23.73Z</time></trkpt><trkpt lat="-36.7109332" lon="174.5655076"><ele>64.33333333333334</ele><time>2026-03-24T03:24:24.73Z</time></trkpt><trkpt lat="-36.7108329" lon="174.5655719"><ele>63.16666666666667</ele><time>2026-03-24T03:24:26.731Z</time></trkpt><trkpt lat="-36.7107712" lon="174.5655939"><ele>62.0</ele><time>2026-03-24T03:24:27.731Z</time></trkpt><trkpt lat="-36.7106716" lon="174.56564"><ele>61.0</ele><time>2026-03-24T03:24:29.73Z</time></trkpt><trkpt lat="-36.710568" lon="174.565681"><ele>60.0</ele><time>2026-03-24T03:24:31.73Z</time></trkpt><trkpt lat="-36.7104914" lon="174.5657412"><ele>59.0</ele><time>2026-03-24T03:24:33.73Z</time></trkpt><trkpt lat="-36.7104351" lon="174.5658409"><ele>58.0</ele><time>2026-03-24T03:24:35.731Z</time></trkpt><trkpt lat="-36.7103709" lon="174.565949"><ele>57.0</ele><time>2026-03-24T03:24:37.731Z</time></trkpt><trkpt lat="-36.7103231" lon="174.566051"><ele>57.0</ele><time>2026-03-24T03:24:39.731Z</time></trkpt><trkpt lat="-36.7102505" lon="174.5661581"><ele>57.0</ele><time>2026-03-24T03:24:41.73Z</time></trkpt><trkpt lat="-36.7101866" lon="174.5662145"><ele>57.0</ele><time>2026-03-24T03:24:43.73Z</time></trkpt><trkpt lat="-36.7101204" lon="174.5661977"><ele>57.0</ele><time>2026-03-24T03:24:45.732Z</time></trkpt><trkpt lat="-36.7100362" lon="174.5661985"><ele>57.0</ele><time>2026-03-24T03:24:47.732Z</time></trkpt><trkpt lat="-36.7099569" lon="174.5662352"><ele>57.0</ele><time>2026-03-24T03:24:49.732Z</time></trkpt><trkpt lat="-36.7098729" lon="174.566313"><ele>57.0</ele><time>2026-03-24T03:24:51.731Z</time></trkpt><trkpt lat="-36.7097801" lon="174.5663886"><ele>57.0</ele><time>2026-03-24T03:24:53.731Z</time></trkpt><trkpt lat="-36.7097203" lon="174.5664443"><ele>57.0</ele><time>2026-03-24T03:24:56.731Z</time></trkpt><trkpt lat="-36.70976" lon="174.5665249"><ele>57.0</ele><time>2026-03-24T03:24:59.73Z</time></trkpt><trkpt lat="-36.7098001" lon="174.5666328"><ele>57.0</ele><time>2026-03-24T03:25:01.73Z</time></trkpt><trkpt lat="-36.7098325" lon="174.5667419"><ele>57.0</ele><time>2026-03-24T03:25:03.73Z</time></trkpt><trkpt lat="-36.7098766" lon="174.5668434"><ele>57.0</ele><time>2026-03-24T03:25:05.731Z</time></trkpt><trkpt lat="-36.7099161" lon="174.5669362"><ele>57.0</ele><time>2026-03-24T03:25:07.73Z</time></trkpt><trkpt lat="-36.7099436" lon="174.5670281"><ele>57.0</ele><time>2026-03-24T03:25:09.731Z</time></trkpt><trkpt lat="-36.7099484" lon="174.5671465"><ele>57.0</ele><time>2026-03-24T03:25:11.731Z</time></trkpt><trkpt lat="-36.7099496" lon="174.5672592"><ele>57.0</ele><time>2026-03-24T03:25:13.731Z</time></trkpt><trkpt lat="-36.7099569" lon="174.5673501"><ele>58.0</ele><time>2026-03-24T03:25:15.73Z</time></trkpt><trkpt lat="-36.7100149" lon="174.5674348"><ele>59.0</ele><time>2026-03-24T03:25:17.73Z</time></trkpt><trkpt lat="-36.7100658" lon="174.5674872"><ele>60.0</ele><time>2026-03-24T03:25:21.73Z</time></trkpt><trkpt lat="-36.7100959" lon="174.5675573"><ele>61.0</ele><time>2026-03-24T03:25:30.73Z</time></trkpt><trkpt lat="-36.7101023" lon="174.5676429"><ele>62.0</ele><time>2026-03-24T03:25:33.73Z</time></trkpt><trkpt lat="-36.7100901" lon="174.5677384"><ele>63.0</ele><time>2026-03-24T03:25:35.73Z</time></trkpt><trkpt lat="-36.7101219" lon="174.5678495"><ele>62.599999999999994</ele><time>2026-03-24T03:25:37.731Z</time></trkpt><trkpt lat="-36.7101706" lon="174.5679456"><ele>62.199999999999996</ele><time>2026-03-24T03:25:39.731Z</time></trkpt><trkpt lat="-36.7102084" lon="174.5680447"><ele>61.8</ele><time>2026-03-24T03:25:41.73Z</time></trkpt><trkpt lat="-36.7102605" lon="174.5681629"><ele>61.4</ele><time>2026-03-24T03:25:43.731Z</time></trkpt><trkpt lat="-36.7102937" lon="174.5682981"><ele>61.0</ele><time>2026-03-24T03:25:45.73Z</time></trkpt><trkpt lat="-36.7103336" lon="174.5684157"><ele>61.0</ele><time>2026-03-24T03:25:47.731Z</time></trkpt><trkpt lat="-36.7103689" lon="174.5685364"><ele>60.99999999999999</ele><time>2026-03-24T03:25:49.731Z</time></trkpt><trkpt lat="-36.7103818" lon="174.5686676"><ele>60.99999999999999</ele><time>2026-03-24T03:25:51.731Z</time></trkpt><trkpt lat="-36.710407" lon="174.568773"><ele>61.0</ele><time>2026-03-24T03:25:53.731Z</time></trkpt><trkpt lat="-36.7104508" lon="174.5688803"><ele>61.0</ele><time>2026-03-24T03:25:55.731Z</time></trkpt><trkpt lat="-36.710514" lon="174.5689636"><ele>61.166666666666664</ele><time>2026-03-24T03:25:57.73Z</time></trkpt><trkpt lat="-36.710582" lon="174.5690292"><ele>61.33333333333333</ele><time>2026-03-24T03:25:59.731Z</time></trkpt><trkpt lat="-36.7106372" lon="174.5690888"><ele>61.5</ele><time>2026-03-24T03:26:01.731Z</time></trkpt><trkpt lat="-36.7106966" lon="174.5691445"><ele>61.66666666666667</ele><time>2026-03-24T03:26:03.73Z</time></trkpt><trkpt lat="-36.7107582" lon="174.5692213"><ele>61.833333333333336</ele><time>2026-03-24T03:26:05.731Z</time></trkpt><trkpt lat="-36.7108023" lon="174.5693119"><ele>62.0</ele><time>2026-03-24T03:26:07.73Z</time></trkpt><trkpt lat="-36.7108326" lon="174.5694454"><ele>62.75</ele><time>2026-03-24T03:26:09.73Z</time></trkpt><trkpt lat="-36.7108604" lon="174.5695854"><ele>63.5</ele><time>2026-03-24T03:26:11.73Z</time></trkpt><trkpt lat="-36.7108515" lon="174.5697378"><ele>64.25</ele><time>2026-03-24T03:26:13.73Z</time></trkpt><trkpt lat="-36.7108333" lon="174.5698774"><ele>65.0</ele><time>2026-03-24T03:26:15.73Z</time></trkpt><trkpt lat="-36.7108713" lon="174.5699983"><ele>65.0</ele><time>2026-03-24T03:26:17.73Z</time></trkpt><trkpt lat="-36.7109202" lon="174.5701157"><ele>65.0</ele><time>2026-03-24T03:26:19.73Z</time></trkpt><trkpt lat="-36.7109424" lon="174.5702539"><ele>65.0</ele><time>2026-03-24T03:26:21.731Z</time></trkpt><trkpt lat="-36.710974" lon="174.5703901"><ele>65.0</ele><time>2026-03-24T03:26:23.73Z</time></trkpt><trkpt lat="-36.7110047" lon="174.5705014"><ele>65.0</ele><time>2026-03-24T03:26:25.73Z</time></trkpt><trkpt lat="-36.7110239" lon="174.5705937"><ele>66.33333333333334</ele><time>2026-03-24T03:26:28.731Z</time></trkpt><trkpt lat="-36.7109714" lon="174.5706785"><ele>67.66666666666667</ele><time>2026-03-24T03:26:31.731Z</time></trkpt><trkpt lat="-36.7108998" lon="174.5707508"><ele>69.0</ele><time>2026-03-24T03:26:34.731Z</time></trkpt><trkpt lat="-36.7108307" lon="174.5707667"><ele>70.33333333333333</ele><time>2026-03-24T03:26:36.731Z</time></trkpt><trkpt lat="-36.7107691" lon="174.5707894"><ele>71.66666666666666</ele><time>2026-03-24T03:26:38.73Z</time></trkpt><trkpt lat="-36.710688" lon="174.5708359"><ele>73.0</ele><time>2026-03-24T03:26:41.73Z</time></trkpt><trkpt lat="-36.7106276" lon="174.570872"><ele>73.0</ele><time>2026-03-24T03:26:44.73Z</time></trkpt><trkpt lat="-36.7105512" lon="174.5708955"><ele>73.0</ele><time>2026-03-24T03:26:50.731Z</time></trkpt><trkpt lat="-36.710495" lon="174.5708495"><ele>73.0</ele><time>2026-03-24T03:26:53.73Z</time></trkpt><trkpt lat="-36.7104325" lon="174.5707869"><ele>73.0</ele><time>2026-03-24T03:26:57.732Z</time></trkpt><trkpt lat="-36.7103705" lon="174.5707651"><ele>73.0</ele><time>2026-03-24T03:27:02.731Z</time></trkpt><trkpt lat="-36.7103684" lon="174.5708589"><ele>73.0</ele><time>2026-03-24T03:27:06.731Z</time></trkpt><trkpt lat="-36.7103801" lon="174.5709402"><ele>73.0</ele><time>2026-03-24T03:27:10.732Z</time></trkpt><trkpt lat="-36.7103665" lon="174.5710378"><ele>73.0</ele><time>2026-03-24T03:27:15.73Z</time></trkpt><trkpt lat="-36.7103596" lon="174.5711273"><ele>73.0</ele><time>2026-03-24T03:27:19.73Z</time></trkpt><trkpt lat="-36.7103617" lon="174.571225"><ele>73.0</ele><time>2026-03-24T03:27:22.73Z</time></trkpt><trkpt lat="-36.710343" lon="174.5713134"><ele>73.0</ele><time>2026-03-24T03:27:25.73Z</time></trkpt><trkpt lat="-36.7103471" lon="174.5714062"><ele>73.0</ele><time>2026-03-24T03:27:28.73Z</time></trkpt><trkpt lat="-36.7103232" lon="174.5714937"><ele>73.0</ele><time>2026-03-24T03:27:31.73Z</time></trkpt><trkpt lat="-36.7102801" lon="174.5714155"><ele>73.0</ele><time>2026-03-24T03:27:38.731Z</time></trkpt><trkpt lat="-36.7102375" lon="174.571332"><ele>76.14285714285714</ele><time>2026-03-24T03:27:44.73Z</time></trkpt><trkpt lat="-36.7101977" lon="174.5712517"><ele>79.28571428571429</ele><time>2026-03-24T03:27:47.732Z</time></trkpt><trkpt lat="-36.7101688" lon="174.5711782"><ele>82.42857142857143</ele><time>2026-03-24T03:27:51.731Z</time></trkpt><trkpt lat="-36.710107" lon="174.5711368"><ele>85.57142857142857</ele><time>2026-03-24T03:27:54.73Z</time></trkpt><trkpt lat="-36.7100613" lon="174.5710673"><ele>88.71428571428572</ele><time>2026-03-24T03:27:57.73Z</time></trkpt><trkpt lat="-36.710018" lon="174.5710085"><ele>91.85714285714286</ele><time>2026-03-24T03:28:00.731Z</time></trkpt><trkpt lat="-36.7099711" lon="174.5709258"><ele>95.0</ele><time>2026-03-24T03:28:03.731Z</time></trkpt><trkpt lat="-36.7099218" lon="174.5708403"><ele>95.0</ele><time>2026-03-24T03:28:07.731Z</time></trkpt><trkpt lat="-36.709903" lon="174.5707516"><ele>95.0</ele><time>2026-03-24T03:28:10.73Z</time></trkpt><trkpt lat="-36.7098795" lon="174.5706759"><ele>95.0</ele><time>2026-03-24T03:28:14.73Z</time></trkpt><trkpt lat="-36.7098666" lon="174.5705967"><ele>95.0</ele><time>2026-03-24T03:28:17.73Z</time></trkpt><trkpt lat="-36.7098136" lon="174.570535"><ele>95.0</ele><time>2026-03-24T03:28:21.731Z</time></trkpt><trkpt lat="-36.7097364" lon="174.5705133"><ele>95.0</ele><time>2026-03-24T03:28:25.731Z</time></trkpt><trkpt lat="-36.7096658" lon="174.5705057"><ele>95.0</ele><time>2026-03-24T03:28:28.729Z</time></trkpt><trkpt lat="-36.7095829" lon="174.5704854"><ele>95.0</ele><time>2026-03-24T03:28:31.73Z</time></trkpt><trkpt lat="-36.7095194" lon="174.5704609"><ele>95.0</ele><time>2026-03-24T03:28:34.73Z</time></trkpt><trkpt lat="-36.7094502" lon="174.5704268"><ele>95.0</ele><time>2026-03-24T03:28:38.73Z</time></trkpt><trkpt lat="-36.7093985" lon="174.5703802"><ele>95.0</ele><time>2026-03-24T03:28:41.731Z</time></trkpt><trkpt lat="-36.7093282" lon="174.5704116"><ele>95.0</ele><time>2026-03-24T03:28:45.729Z</time></trkpt><trkpt lat="-36.7093719" lon="174.5704841"><ele>95.0</ele><time>2026-03-24T03:28:50.73Z</time></trkpt><trkpt lat="-36.7094405" lon="174.5705214"><ele>95.0</ele><time>2026-03-24T03:28:53.73Z</time></trkpt><trkpt lat="-36.7093863" lon="174.570569"><ele>95.0</ele><time>2026-03-24T03:28:59.73Z</time></trkpt><trkpt lat="-36.7093205" lon="174.5705322"><ele>95.0</ele><time>2026-03-24T03:29:02.731Z</time></trkpt><trkpt lat="-36.7092757" lon="174.5706062"><ele>95.0</ele><time>2026-03-24T03:29:10.73Z</time></trkpt><trkpt lat="-36.7093193" lon="174.5706655"><ele>95.0</ele><time>2026-03-24T03:29:14.73Z</time></trkpt><trkpt lat="-36.7093651" lon="174.570733"><ele>95.0</ele><time>2026-03-24T03:29:18.73Z</time></trkpt><trkpt lat="-36.7094218" lon="174.5708027"><ele>95.0</ele><time>2026-03-24T03:29:21.73Z</time></trkpt><trkpt lat="-36.7094813" lon="174.5708514"><ele>95.0</ele><time>2026-03-24T03:29:24.73Z</time></trkpt><trkpt lat="-36.7095343" lon="174.5709167"><ele>95.0</ele><time>2026-03-24T03:29:28.731Z</time></trkpt><trkpt lat="-36.7095175" lon="174.5710042"><ele>95.0</ele><time>2026-03-24T03:29:32.729Z</time></trkpt><trkpt lat="-36.7094969" lon="174.5710973"><ele>95.0</ele><time>2026-03-24T03:29:36.729Z</time></trkpt><trkpt lat="-36.709424" lon="174.5711276"><ele>95.0</ele><time>2026-03-24T03:29:41.73Z</time></trkpt><trkpt lat="-36.7093497" lon="174.5711112"><ele>95.0</ele><time>2026-03-24T03:29:45.731Z</time></trkpt><trkpt lat="-36.7092688" lon="174.5710844"><ele>95.0</ele><time>2026-03-24T03:29:49.73Z</time></trkpt><trkpt lat="-36.7092026" lon="174.5710753"><ele>97.14285714285714</ele><time>2026-03-24T03:29:53.731Z</time></trkpt><trkpt lat="-36.7091474" lon="174.5710278"><ele>99.28571428571429</ele><time>2026-03-24T03:29:56.73Z</time></trkpt><trkpt lat="-36.7091139" lon="174.5709511"><ele>101.42857142857142</ele><time>2026-03-24T03:30:00.73Z</time></trkpt><trkpt lat="-36.7090625" lon="174.5708746"><ele>103.57142857142857</ele><time>2026-03-24T03:30:04.73Z</time></trkpt><trkpt lat="-36.7090153" lon="174.5708198"><ele>105.71428571428571</ele><time>2026-03-24T03:30:07.732Z</time></trkpt><trkpt lat="-36.7089599" lon="174.5707566"><ele>107.85714285714285</ele><time>2026-03-24T03:30:10.73Z</time></trkpt><trkpt lat="-36.7089015" lon="174.5706978"><ele>110.0</ele><time>2026-03-24T03:30:13.73Z</time></trkpt><trkpt lat="-36.7088641" lon="174.5706296"><ele>109.99999999999999</ele><time>2026-03-24T03:30:16.73Z</time></trkpt><trkpt lat="-36.7088087" lon="174.5705864"><ele>110.0</ele><time>2026-03-24T03:30:19.73Z</time></trkpt><trkpt lat="-36.7087415" lon="174.5705497"><ele>110.0</ele><time>2026-03-24T03:30:22.73Z</time></trkpt><trkpt lat="-36.708693" lon="174.5704728"><ele>110.0</ele><time>2026-03-24T03:30:25.729Z</time></trkpt><trkpt lat="-36.708658" lon="174.5704017"><ele>110.0</ele><time>2026-03-24T03:30:28.731Z</time></trkpt><trkpt lat="-36.7086463" lon="174.570322"><ele>109.99999999999999</ele><time>2026-03-24T03:30:31.73Z</time></trkpt><trkpt lat="-36.7086307" lon="174.570232"><ele>110.0</ele><time>2026-03-24T03:30:34.73Z</time></trkpt><trkpt lat="-36.7086023" lon="174.5701353"><ele>109.49999999999999</ele><time>2026-03-24T03:30:39.73Z</time></trkpt><trkpt lat="-36.7086083" lon="174.5700446"><ele>109.0</ele><time>2026-03-24T03:30:43.73Z</time></trkpt><trkpt lat="-36.7085768" lon="174.5699684"><ele>108.5</ele><time>2026-03-24T03:30:45.73Z</time></trkpt><trkpt lat="-36.7085847" lon="174.5698602"><ele>108.0</ele><time>2026-03-24T03:30:48.73Z</time></trkpt><trkpt lat="-36.7086281" lon="174.569781"><ele>107.49999999999999</ele><time>2026-03-24T03:30:51.731Z</time></trkpt><trkpt lat="-36.7086182" lon="174.5696717"><ele>107.0</ele><time>2026-03-24T03:30:58.731Z</time></trkpt><trkpt lat="-36.7085843" lon="174.5695933"><ele>108.16666666666666</ele><time>2026-03-24T03:31:04.731Z</time></trkpt><trkpt lat="-36.7086045" lon="174.5694986"><ele>109.33333333333333</ele><time>2026-03-24T03:31:07.73Z</time></trkpt><trkpt lat="-36.7086457" lon="174.5694251"><ele>110.5</ele><time>2026-03-24T03:31:10.73Z</time></trkpt><trkpt lat="-36.7087087" lon="174.5693575"><ele>111.66666666666666</ele><time>2026-03-24T03:31:14.73Z</time></trkpt><trkpt lat="-36.7087752" lon="174.5692947"><ele>112.83333333333333</ele><time>2026-03-24T03:31:18.73Z</time></trkpt><trkpt lat="-36.7088394" lon="174.5692554"><ele>114.0</ele><time>2026-03-24T03:31:21.729Z</time></trkpt><trkpt lat="-36.7089063" lon="174.5692049"><ele>114.0</ele><time>2026-03-24T03:31:25.731Z</time></trkpt><trkpt lat="-36.7089554" lon="174.5691396"><ele>114.0</ele><time>2026-03-24T03:31:28.73Z</time></trkpt><trkpt lat="-36.7089812" lon="174.5690464"><ele>114.0</ele><time>2026-03-24T03:31:32.731Z</time></trkpt><trkpt lat="-36.7090103" lon="174.5689531"><ele>114.0</ele><time>2026-03-24T03:31:35.73Z</time></trkpt><trkpt lat="-36.7089852" lon="174.5688499"><ele>114.0</ele><time>2026-03-24T03:31:39.729Z</time></trkpt><trkpt lat="-36.708941" lon="174.5687744"><ele>114.0</ele><time>2026-03-24T03:31:42.729Z</time></trkpt><trkpt lat="-36.7088996" lon="174.5686888"><ele>114.0</ele><time>2026-03-24T03:31:46.73Z</time></trkpt><trkpt lat="-36.7088355" lon="174.5686476"><ele>113.99999999999999</ele><time>2026-03-24T03:31:50.729Z</time></trkpt><trkpt lat="-36.7087856" lon="174.5687254"><ele>114.0</ele><time>2026-03-24T03:31:55.73Z</time></trkpt><trkpt lat="-36.7087748" lon="174.5688057"><ele>114.0</ele><time>2026-03-24T03:31:59.73Z</time></trkpt><trkpt lat="-36.7087262" lon="174.568893"><ele>113.99999999999999</ele><time>2026-03-24T03:32:03.73Z</time></trkpt><trkpt lat="-36.7086831" lon="174.5689671"><ele>114.0</ele><time>2026-03-24T03:32:06.731Z</time></trkpt><trkpt lat="-36.7086427" lon="174.5690356"><ele>114.0</ele><time>2026-03-24T03:32:09.729Z</time></trkpt><trkpt lat="-36.7086003" lon="174.56911"><ele>116.14285714285714</ele><time>2026-03-24T03:32:12.731Z</time></trkpt><trkpt lat="-36.7085462" lon="174.5691635"><ele>118.28571428571428</ele><time>2026-03-24T03:32:15.73Z</time></trkpt><trkpt lat="-36.7085037" lon="174.5692225"><ele>120.42857142857142</ele><time>2026-03-24T03:32:18.73Z</time></trkpt><trkpt lat="-36.708449" lon="174.5692796"><ele>122.57142857142856</ele><time>2026-03-24T03:32:21.73Z</time></trkpt><trkpt lat="-36.708392" lon="174.5693193"><ele>124.71428571428571</ele><time>2026-03-24T03:32:24.731Z</time></trkpt><trkpt lat="-36.7083327" lon="174.5692653"><ele>126.85714285714283</ele><time>2026-03-24T03:32:28.73Z</time></trkpt><trkpt lat="-36.7082939" lon="174.5691939"><ele>129.0</ele><time>2026-03-24T03:32:31.731Z</time></trkpt><trkpt lat="-36.7082451" lon="174.569143"><ele>129.0</ele><time>2026-03-24T03:32:34.731Z</time></trkpt><trkpt lat="-36.7081745" lon="174.5691064"><ele>129.0</ele><time>2026-03-24T03:32:37.73Z</time></trkpt><trkpt lat="-36.7080974" lon="174.5690794"><ele>129.0</ele><time>2026-03-24T03:32:40.729Z</time></trkpt><trkpt lat="-36.7080208" lon="174.5690755"><ele>129.0</ele><time>2026-03-24T03:32:42.73Z</time></trkpt><trkpt lat="-36.7079088" lon="174.5691014"><ele>129.0</ele><time>2026-03-24T03:32:44.731Z</time></trkpt><trkpt lat="-36.7077844" lon="174.5691126"><ele>130.2</ele><time>2026-03-24T03:32:46.729Z</time></trkpt><trkpt lat="-36.70766" lon="174.5690839"><ele>131.4</ele><time>2026-03-24T03:32:48.73Z</time></trkpt><trkpt lat="-36.7075516" lon="174.5690571"><ele>132.6</ele><time>2026-03-24T03:32:50.73Z</time></trkpt><trkpt lat="-36.7074542" lon="174.568999"><ele>133.8</ele><time>2026-03-24T03:32:52.73Z</time></trkpt><trkpt lat="-36.7073734" lon="174.5689448"><ele>135.0</ele><time>2026-03-24T03:32:54.732Z</time></trkpt><trkpt lat="-36.7073116" lon="174.5688909"><ele>135.0</ele><time>2026-03-24T03:32:56.729Z</time></trkpt><trkpt lat="-36.7072522" lon="174.5688402"><ele>135.0</ele><time>2026-03-24T03:32:58.729Z</time></trkpt><trkpt lat="-36.7071954" lon="174.5688021"><ele>135.0</ele><time>2026-03-24T03:33:00.729Z</time></trkpt><trkpt lat="-36.7071132" lon="174.5687624"><ele>135.0</ele><time>2026-03-24T03:33:02.729Z</time></trkpt><trkpt lat="-36.7070468" lon="174.5687211"><ele>135.0</ele><time>2026-03-24T03:33:03.73Z</time></trkpt><trkpt lat="-36.7069669" lon="174.5686863"><ele>135.0</ele><time>2026-03-24T03:33:05.731Z</time></trkpt><trkpt lat="-36.706898" lon="174.5686417"><ele>133.6</ele><time>2026-03-24T03:33:07.73Z</time></trkpt><trkpt lat="-36.7068097" lon="174.5685956"><ele>132.2</ele><time>2026-03-24T03:33:09.73Z</time></trkpt><trkpt lat="-36.7067173" lon="174.5685971"><ele>130.8</ele><time>2026-03-24T03:33:11.73Z</time></trkpt><trkpt lat="-36.7066415" lon="174.5686502"><ele>129.4</ele><time>2026-03-24T03:33:13.729Z</time></trkpt><trkpt lat="-36.7065702" lon="174.5687148"><ele>128.0</ele><time>2026-03-24T03:33:15.73Z</time></trkpt><trkpt lat="-36.7064958" lon="174.5687798"><ele>131.0</ele><time>2026-03-24T03:33:17.73Z</time></trkpt><trkpt lat="-36.706415" lon="174.5688494"><ele>134.0</ele><time>2026-03-24T03:33:19.73Z</time></trkpt><trkpt lat="-36.706355" lon="174.5689264"><ele>137.0</ele><time>2026-03-24T03:33:21.729Z</time></trkpt><trkpt lat="-36.7063016" lon="174.56899"><ele>140.0</ele><time>2026-03-24T03:33:23.731Z</time></trkpt><trkpt lat="-36.7062381" lon="174.5690664"><ele>143.0</ele><time>2026-03-24T03:33:25.73Z</time></trkpt><trkpt lat="-36.7061809" lon="174.56915"><ele>146.0</ele><time>2026-03-24T03:33:27.729Z</time></trkpt><trkpt lat="-36.7061213" lon="174.5692348"><ele>146.5</ele><time>2026-03-24T03:33:29.729Z</time></trkpt><trkpt lat="-36.7060765" lon="174.5693181"><ele>147.0</ele><time>2026-03-24T03:33:31.73Z</time></trkpt><trkpt lat="-36.7060018" lon="174.5693872"><ele>147.5</ele><time>2026-03-24T03:33:33.731Z</time></trkpt><trkpt lat="-36.7059133" lon="174.5694276"><ele>148.0</ele><time>2026-03-24T03:33:35.73Z</time></trkpt><trkpt lat="-36.705828" lon="174.5694676"><ele>148.5</ele><time>2026-03-24T03:33:37.73Z</time></trkpt><trkpt lat="-36.7057626" lon="174.5695062"><ele>149.0</ele><time>2026-03-24T03:33:39.73Z</time></trkpt><trkpt lat="-36.7056984" lon="174.5695395"><ele>149.0</ele><time>2026-03-24T03:33:41.73Z</time></trkpt><trkpt lat="-36.7056661" lon="174.5696347"><ele>149.0</ele><time>2026-03-24T03:33:44.732Z</time></trkpt><trkpt lat="-36.7056648" lon="174.5697491"><ele>149.0</ele><time>2026-03-24T03:33:47.73Z</time></trkpt><trkpt lat="-36.7056762" lon="174.5698495"><ele>149.0</ele><time>2026-03-24T03:33:50.73Z</time></trkpt><trkpt lat="-36.7056817" lon="174.5699411"><ele>149.0</ele><time>2026-03-24T03:33:52.729Z</time></trkpt><trkpt lat="-36.7056891" lon="174.5700282"><ele>149.0</ele><time>2026-03-24T03:33:54.731Z</time></trkpt><trkpt lat="-36.7056883" lon="174.5701189"><ele>149.0</ele><time>2026-03-24T03:33:56.729Z</time></trkpt><trkpt lat="-36.705684" lon="174.570209"><ele>149.0</ele><time>2026-03-24T03:33:58.729Z</time></trkpt><trkpt lat="-36.7056711" lon="174.5703136"><ele>149.0</ele><time>2026-03-24T03:34:00.729Z</time></trkpt><trkpt lat="-36.7056662" lon="174.5704123"><ele>149.0</ele><time>2026-03-24T03:34:02.731Z</time></trkpt><trkpt lat="-36.7056399" lon="174.5705023"><ele>149.0</ele><time>2026-03-24T03:34:04.729Z</time></trkpt><trkpt lat="-36.7056285" lon="174.570593"><ele>149.0</ele><time>2026-03-24T03:34:06.729Z</time></trkpt><trkpt lat="-36.705611" lon="174.5706734"><ele>148.6</ele><time>2026-03-24T03:34:08.73Z</time></trkpt><trkpt lat="-36.7055823" lon="174.5707667"><ele>148.2</ele><time>2026-03-24T03:34:11.73Z</time></trkpt><trkpt lat="-36.70548" lon="174.5708152"><ele>147.79999999999998</ele><time>2026-03-24T03:34:14.73Z</time></trkpt><trkpt lat="-36.7053946" lon="174.5708421"><ele>147.4</ele><time>2026-03-24T03:34:16.729Z</time></trkpt><trkpt lat="-36.7053177" lon="174.570875"><ele>147.0</ele><time>2026-03-24T03:34:18.729Z</time></trkpt><trkpt lat="-36.7052313" lon="174.5709111"><ele>145.4</ele><time>2026-03-24T03:34:20.731Z</time></trkpt><trkpt lat="-36.7051353" lon="174.5709544"><ele>143.79999999999998</ele><time>2026-03-24T03:34:22.731Z</time></trkpt><trkpt lat="-36.7050475" lon="174.5710084"><ele>142.2</ele><time>2026-03-24T03:34:24.73Z</time></trkpt><trkpt lat="-36.704959" lon="174.5710397"><ele>140.6</ele><time>2026-03-24T03:34:26.729Z</time></trkpt><trkpt lat="-36.7048566" lon="174.5710446"><ele>139.0</ele><time>2026-03-24T03:34:28.731Z</time></trkpt><trkpt lat="-36.7047751" lon="174.571071"><ele>139.0</ele><time>2026-03-24T03:34:30.729Z</time></trkpt><trkpt lat="-36.7046951" lon="174.5710783"><ele>139.0</ele><time>2026-03-24T03:34:33.731Z</time></trkpt><trkpt lat="-36.704617" lon="174.5711145"><ele>139.0</ele><time>2026-03-24T03:34:36.73Z</time></trkpt><trkpt lat="-36.704553" lon="174.5711445"><ele>139.0</ele><time>2026-03-24T03:34:38.73Z</time></trkpt><trkpt lat="-36.7044812" lon="174.5711749"><ele>139.0</ele><time>2026-03-24T03:34:40.729Z</time></trkpt><trkpt lat="-36.7043887" lon="174.5712037"><ele>139.0</ele><time>2026-03-24T03:34:42.731Z</time></trkpt><trkpt lat="-36.7042951" lon="174.5712406"><ele>139.2</ele><time>2026-03-24T03:34:44.73Z</time></trkpt><trkpt lat="-36.7042004" lon="174.5712858"><ele>139.4</ele><time>2026-03-24T03:34:46.73Z</time></trkpt><trkpt lat="-36.7041256" lon="174.571318"><ele>139.6</ele><time>2026-03-24T03:34:47.729Z</time></trkpt><trkpt lat="-36.704068" lon="174.5713571"><ele>139.8</ele><time>2026-03-24T03:34:48.73Z</time></trkpt><trkpt lat="-36.7039395" lon="174.5714023"><ele>140.0</ele><time>2026-03-24T03:34:50.73Z</time></trkpt><trkpt lat="-36.7038385" lon="174.5714753"><ele>140.0</ele><time>2026-03-24T03:34:52.731Z</time></trkpt><trkpt lat="-36.7037576" lon="174.5715037"><ele>140.0</ele><time>2026-03-24T03:34:53.729Z</time></trkpt><trkpt lat="-36.7036174" lon="174.5715412"><ele>140.0</ele><time>2026-03-24T03:34:55.729Z</time></trkpt><trkpt lat="-36.7035533" lon="174.5715648"><ele>140.0</ele><time>2026-03-24T03:34:56.731Z</time></trkpt><trkpt lat="-36.7034839" lon="174.5716071"><ele>140.0</ele><time>2026-03-24T03:34:57.729Z</time></trkpt><trkpt lat="-36.7034047" lon="174.5716105"><ele>139.2</ele><time>2026-03-24T03:34:58.73Z</time></trkpt><trkpt lat="-36.7033243" lon="174.5716343"><ele>138.4</ele><time>2026-03-24T03:34:59.731Z</time></trkpt><trkpt lat="-36.703215" lon="174.5716755"><ele>137.6</ele><time>2026-03-24T03:35:01.729Z</time></trkpt><trkpt lat="-36.7031241" lon="174.5717107"><ele>136.8</ele><time>2026-03-24T03:35:03.73Z</time></trkpt><trkpt lat="-36.7030267" lon="174.5717219"><ele>136.0</ele><time>2026-03-24T03:35:05.73Z</time></trkpt><trkpt lat="-36.7029343" lon="174.5717281"><ele>136.0</ele><time>2026-03-24T03:35:07.731Z</time></trkpt><trkpt lat="-36.7028552" lon="174.5717681"><ele>136.0</ele><time>2026-03-24T03:35:09.73Z</time></trkpt><trkpt lat="-36.702769" lon="174.5718089"><ele>136.0</ele><time>2026-03-24T03:35:11.729Z</time></trkpt><trkpt lat="-36.7026856" lon="174.5718519"><ele>136.0</ele><time>2026-03-24T03:35:13.729Z</time></trkpt><trkpt lat="-36.7026164" lon="174.5719018"><ele>136.0</ele><time>2026-03-24T03:35:15.731Z</time></trkpt><trkpt lat="-36.7025528" lon="174.5719396"><ele>136.0</ele><time>2026-03-24T03:35:17.731Z</time></trkpt><trkpt lat="-36.7024876" lon="174.5719723"><ele>135.66666666666669</ele><time>2026-03-24T03:35:19.729Z</time></trkpt><trkpt lat="-36.7024144" lon="174.5720133"><ele>135.33333333333334</ele><time>2026-03-24T03:35:22.73Z</time></trkpt><trkpt lat="-36.7023474" lon="174.5720246"><ele>135.0</ele><time>2026-03-24T03:35:25.73Z</time></trkpt><trkpt lat="-36.7022899" lon="174.5719656"><ele>134.66666666666666</ele><time>2026-03-24T03:35:28.73Z</time></trkpt><trkpt lat="-36.7022432" lon="174.5719113"><ele>134.33333333333331</ele><time>2026-03-24T03:35:30.73Z</time></trkpt><trkpt lat="-36.7022066" lon="174.5718295"><ele>134.0</ele><time>2026-03-24T03:35:33.73Z</time></trkpt><trkpt lat="-36.7022137" lon="174.5717173"><ele>134.0</ele><time>2026-03-24T03:35:36.73Z</time></trkpt><trkpt lat="-36.7022555" lon="174.5716411"><ele>134.0</ele><time>2026-03-24T03:35:39.73Z</time></trkpt><trkpt lat="-36.7022913" lon="174.5715684"><ele>134.0</ele><time>2026-03-24T03:35:41.732Z</time></trkpt><trkpt lat="-36.7023043" lon="174.5714679"><ele>134.0</ele><time>2026-03-24T03:35:43.73Z</time></trkpt><trkpt lat="-36.7022748" lon="174.5713303"><ele>134.0</ele><time>2026-03-24T03:35:45.729Z</time></trkpt><trkpt lat="-36.7022575" lon="174.5712473"><ele>134.0</ele><time>2026-03-24T03:35:47.73Z</time></trkpt><trkpt lat="-36.7021847" lon="174.5712669"><ele>134.0</ele><time>2026-03-24T03:35:49.73Z</time></trkpt><trkpt lat="-36.7021051" lon="174.5713016"><ele>134.0</ele><time>2026-03-24T03:35:51.731Z</time></trkpt><trkpt lat="-36.7020408" lon="174.571368"><ele>134.0</ele><time>2026-03-24T03:35:53.731Z</time></trkpt><trkpt lat="-36.7019852" lon="174.5714257"><ele>134.0</ele><time>2026-03-24T03:35:56.729Z</time></trkpt><trkpt lat="-36.7018891" lon="174.5714094"><ele>134.0</ele><time>2026-03-24T03:35:59.73Z</time></trkpt><trkpt lat="-36.701811" lon="174.5713509"><ele>134.0</ele><time>2026-03-24T03:36:00.729Z</time></trkpt><trkpt lat="-36.7017222" lon="174.5713244"><ele>132.5</ele><time>2026-03-24T03:36:02.731Z</time></trkpt><trkpt lat="-36.701654" lon="174.5712856"><ele>131.0</ele><time>2026-03-24T03:36:04.73Z</time></trkpt><trkpt lat="-36.7016001" lon="174.5712066"><ele>129.5</ele><time>2026-03-24T03:36:06.73Z</time></trkpt><trkpt lat="-36.7015176" lon="174.5711974"><ele>128.0</ele><time>2026-03-24T03:36:08.73Z</time></trkpt><trkpt lat="-36.701431" lon="174.5711601"><ele>126.49999999999999</ele><time>2026-03-24T03:36:11.729Z</time></trkpt><trkpt lat="-36.7013557" lon="174.5710895"><ele>125.0</ele><time>2026-03-24T03:36:14.73Z</time></trkpt><trkpt lat="-36.7012976" lon="174.5710441"><ele>123.85714285714286</ele><time>2026-03-24T03:36:16.73Z</time></trkpt><trkpt lat="-36.7012276" lon="174.5710487"><ele>122.71428571428572</ele><time>2026-03-24T03:36:29.729Z</time></trkpt><trkpt lat="-36.7011718" lon="174.5710932"><ele>121.57142857142858</ele><time>2026-03-24T03:36:34.729Z</time></trkpt><trkpt lat="-36.7011154" lon="174.5711342"><ele>120.42857142857143</ele><time>2026-03-24T03:36:37.729Z</time></trkpt><trkpt lat="-36.7010312" lon="174.5711594"><ele>119.2857142857143</ele><time>2026-03-24T03:36:40.731Z</time></trkpt><trkpt lat="-36.7009668" lon="174.5711591"><ele>118.14285714285715</ele><time>2026-03-24T03:36:42.731Z</time></trkpt><trkpt lat="-36.7009005" lon="174.5711436"><ele>117.0</ele><time>2026-03-24T03:36:44.731Z</time></trkpt><trkpt lat="-36.7008293" lon="174.5711255"><ele>116.33333333333333</ele><time>2026-03-24T03:36:46.73Z</time></trkpt><trkpt lat="-36.7007467" lon="174.571113"><ele>115.66666666666666</ele><time>2026-03-24T03:36:48.731Z</time></trkpt><trkpt lat="-36.7006942" lon="174.5711667"><ele>115.0</ele><time>2026-03-24T03:36:50.729Z</time></trkpt><trkpt lat="-36.7006293" lon="174.5712"><ele>114.33333333333333</ele><time>2026-03-24T03:36:52.731Z</time></trkpt><trkpt lat="-36.7005556" lon="174.5711689"><ele>113.66666666666666</ele><time>2026-03-24T03:36:54.73Z</time></trkpt><trkpt lat="-36.7004775" lon="174.571153"><ele>113.0</ele><time>2026-03-24T03:36:56.729Z</time></trkpt><trkpt lat="-36.7003932" lon="174.5711796"><ele>111.0</ele><time>2026-03-24T03:36:58.73Z</time></trkpt><trkpt lat="-36.7003179" lon="174.5711704"><ele>109.00000000000001</ele><time>2026-03-24T03:36:59.73Z</time></trkpt><trkpt lat="-36.700206" lon="174.5711433"><ele>107.0</ele><time>2026-03-24T03:37:01.73Z</time></trkpt><trkpt lat="-36.7001357" lon="174.5711282"><ele>105.0</ele><time>2026-03-24T03:37:02.729Z</time></trkpt><trkpt lat="-36.7000001" lon="174.5711238"><ele>103.0</ele><time>2026-03-24T03:37:04.729Z</time></trkpt><trkpt lat="-36.6999326" lon="174.5711171"><ele>101.71428571428571</ele><time>2026-03-24T03:37:05.73Z</time></trkpt><trkpt lat="-36.699868" lon="174.5711191"><ele>100.42857142857143</ele><time>2026-03-24T03:37:06.73Z</time></trkpt><trkpt lat="-36.6997974" lon="174.5711787"><ele>99.14285714285714</ele><time>2026-03-24T03:37:08.73Z</time></trkpt><trkpt lat="-36.6997528" lon="174.5712549"><ele>97.85714285714286</ele><time>2026-03-24T03:37:10.729Z</time></trkpt><trkpt lat="-36.699704" lon="174.5713255"><ele>96.57142857142857</ele><time>2026-03-24T03:37:12.731Z</time></trkpt><trkpt lat="-36.6996736" lon="174.5713954"><ele>95.28571428571428</ele><time>2026-03-24T03:37:14.729Z</time></trkpt><trkpt lat="-36.6996823" lon="174.57149"><ele>94.0</ele><time>2026-03-24T03:37:18.73Z</time></trkpt><trkpt lat="-36.6997386" lon="174.5715505"><ele>94.0</ele><time>2026-03-24T03:37:22.729Z</time></trkpt><trkpt lat="-36.6998134" lon="174.5715924"><ele>94.0</ele><time>2026-03-24T03:37:25.729Z</time></trkpt><trkpt lat="-36.6998535" lon="174.5716809"><ele>94.0</ele><time>2026-03-24T03:37:28.73Z</time></trkpt><trkpt lat="-36.6998414" lon="174.5717718"><ele>94.0</ele><time>2026-03-24T03:37:31.731Z</time></trkpt><trkpt lat="-36.6998277" lon="174.5718497"><ele>94.0</ele><time>2026-03-24T03:37:34.73Z</time></trkpt><trkpt lat="-36.699851" lon="174.5719454"><ele>94.0</ele><time>2026-03-24T03:37:39.729Z</time></trkpt><trkpt lat="-36.6998426" lon="174.5720498"><ele>93.66666666666666</ele><time>2026-03-24T03:37:42.729Z</time></trkpt><trkpt lat="-36.6998263" lon="174.5721356"><ele>93.33333333333333</ele><time>2026-03-24T03:37:44.73Z</time></trkpt><trkpt lat="-36.6998057" lon="174.5722491"><ele>93.0</ele><time>2026-03-24T03:37:47.73Z</time></trkpt><trkpt lat="-36.6997752" lon="174.5723363"><ele>92.66666666666667</ele><time>2026-03-24T03:37:49.73Z</time></trkpt><trkpt lat="-36.6997494" lon="174.5724336"><ele>92.33333333333334</ele><time>2026-03-24T03:37:51.73Z</time></trkpt><trkpt lat="-36.6997091" lon="174.5725018"><ele>92.0</ele><time>2026-03-24T03:37:53.73Z</time></trkpt><trkpt lat="-36.6996938" lon="174.5726163"><ele>92.0</ele><time>2026-03-24T03:37:56.729Z</time></trkpt><trkpt lat="-36.6996805" lon="174.5727262"><ele>92.0</ele><time>2026-03-24T03:37:59.73Z</time></trkpt><trkpt lat="-36.6996917" lon="174.5728278"><ele>92.0</ele><time>2026-03-24T03:38:02.73Z</time></trkpt><trkpt lat="-36.6997067" lon="174.5729252"><ele>92.0</ele><time>2026-03-24T03:38:05.73Z</time></trkpt><trkpt lat="-36.6997088" lon="174.5730188"><ele>92.0</ele><time>2026-03-24T03:38:08.729Z</time></trkpt><trkpt lat="-36.6997534" lon="174.5730956"><ele>92.0</ele><time>2026-03-24T03:38:11.73Z</time></trkpt><trkpt lat="-36.6997903" lon="174.5731848"><ele>91.0</ele><time>2026-03-24T03:38:14.729Z</time></trkpt><trkpt lat="-36.6998058" lon="174.5733022"><ele>90.0</ele><time>2026-03-24T03:38:17.729Z</time></trkpt><trkpt lat="-36.699786" lon="174.5733819"><ele>89.0</ele><time>2026-03-24T03:38:19.729Z</time></trkpt><trkpt lat="-36.6997473" lon="174.5734458"><ele>88.0</ele><time>2026-03-24T03:38:21.729Z</time></trkpt><trkpt lat="-36.6996735" lon="174.573496"><ele>87.0</ele><time>2026-03-24T03:38:25.73Z</time></trkpt><trkpt lat="-36.6996043" lon="174.5735441"><ele>86.0</ele><time>2026-03-24T03:38:28.729Z</time></trkpt><trkpt lat="-36.6995194" lon="174.5735632"><ele>86.00000000000001</ele><time>2026-03-24T03:38:31.731Z</time></trkpt><trkpt lat="-36.6994317" lon="174.5735933"><ele>86.0</ele><time>2026-03-24T03:38:34.73Z</time></trkpt><trkpt lat="-36.6993618" lon="174.5736138"><ele>86.0</ele><time>2026-03-24T03:38:36.729Z</time></trkpt><trkpt lat="-36.6992809" lon="174.5736103"><ele>86.0</ele><time>2026-03-24T03:38:39.731Z</time></trkpt><trkpt lat="-36.6992124" lon="174.5735703"><ele>86.0</ele><time>2026-03-24T03:38:42.729Z</time></trkpt><trkpt lat="-36.6991735" lon="174.5735078"><ele>86.00000000000001</ele><time>2026-03-24T03:38:44.73Z</time></trkpt><trkpt lat="-36.6991559" lon="174.5734295"><ele>86.0</ele><time>2026-03-24T03:38:46.729Z</time></trkpt><trkpt lat="-36.6991476" lon="174.5733501"><ele>83.33333333333334</ele><time>2026-03-24T03:38:48.729Z</time></trkpt><trkpt lat="-36.6991472" lon="174.5732631"><ele>80.66666666666667</ele><time>2026-03-24T03:38:50.73Z</time></trkpt><trkpt lat="-36.6991295" lon="174.5731634"><ele>78.0</ele><time>2026-03-24T03:38:52.729Z</time></trkpt><trkpt lat="-36.6991087" lon="174.5730874"><ele>75.33333333333333</ele><time>2026-03-24T03:38:53.729Z</time></trkpt><trkpt lat="-36.6990764" lon="174.5729835"><ele>72.66666666666666</ele><time>2026-03-24T03:38:55.73Z</time></trkpt><trkpt lat="-36.699037" lon="174.5728634"><ele>70.0</ele><time>2026-03-24T03:38:57.731Z</time></trkpt><trkpt lat="-36.6989828" lon="174.5727448"><ele>70.0</ele><time>2026-03-24T03:38:59.729Z</time></trkpt><trkpt lat="-36.698934" lon="174.5726335"><ele>70.0</ele><time>2026-03-24T03:39:01.729Z</time></trkpt><trkpt lat="-36.698872" lon="174.5725182"><ele>70.0</ele><time>2026-03-24T03:39:03.729Z</time></trkpt><trkpt lat="-36.698796" lon="174.5724102"><ele>70.0</ele><time>2026-03-24T03:39:05.73Z</time></trkpt><trkpt lat="-36.6987322" lon="174.5723111"><ele>70.0</ele><time>2026-03-24T03:39:07.729Z</time></trkpt><trkpt lat="-36.69866" lon="174.5722183"><ele>69.8</ele><time>2026-03-24T03:39:09.73Z</time></trkpt><trkpt lat="-36.6985708" lon="174.5721342"><ele>69.6</ele><time>2026-03-24T03:39:11.73Z</time></trkpt><trkpt lat="-36.6984648" lon="174.5720742"><ele>69.4</ele><time>2026-03-24T03:39:13.73Z</time></trkpt><trkpt lat="-36.6983368" lon="174.5720033"><ele>69.2</ele><time>2026-03-24T03:39:15.73Z</time></trkpt><trkpt lat="-36.6982712" lon="174.5719743"><ele>69.0</ele><time>2026-03-24T03:39:16.729Z</time></trkpt><trkpt lat="-36.6982103" lon="174.571939"><ele>69.42857142857143</ele><time>2026-03-24T03:39:17.729Z</time></trkpt><trkpt lat="-36.6981412" lon="174.5718989"><ele>69.85714285714286</ele><time>2026-03-24T03:39:18.731Z</time></trkpt><trkpt lat="-36.6980771" lon="174.5718614"><ele>70.28571428571429</ele><time>2026-03-24T03:39:19.732Z</time></trkpt><trkpt lat="-36.6980099" lon="174.5718379"><ele>70.71428571428572</ele><time>2026-03-24T03:39:20.729Z</time></trkpt><trkpt lat="-36.6979481" lon="174.5717954"><ele>71.14285714285714</ele><time>2026-03-24T03:39:21.729Z</time></trkpt><trkpt lat="-36.697886" lon="174.57177"><ele>71.57142857142858</ele><time>2026-03-24T03:39:22.731Z</time></trkpt><trkpt lat="-36.6978164" lon="174.5717522"><ele>72.0</ele><time>2026-03-24T03:39:23.73Z</time></trkpt><trkpt lat="-36.6977518" lon="174.57173"><ele>71.0</ele><time>2026-03-24T03:39:24.73Z</time></trkpt><trkpt lat="-36.6976806" lon="174.571685"><ele>70.0</ele><time>2026-03-24T03:39:25.731Z</time></trkpt><trkpt lat="-36.6976129" lon="174.5716541"><ele>69.0</ele><time>2026-03-24T03:39:26.73Z</time></trkpt><trkpt lat="-36.6975497" lon="174.5716412"><ele>68.0</ele><time>2026-03-24T03:39:27.73Z</time></trkpt><trkpt lat="-36.6974824" lon="174.5716105"><ele>67.0</ele><time>2026-03-24T03:39:28.729Z</time></trkpt><trkpt lat="-36.6974142" lon="174.5715734"><ele>66.0</ele><time>2026-03-24T03:39:29.729Z</time></trkpt><trkpt lat="-36.6973309" lon="174.5715334"><ele>66.0</ele><time>2026-03-24T03:39:30.729Z</time></trkpt><trkpt lat="-36.6972684" lon="174.5714759"><ele>66.0</ele><time>2026-03-24T03:39:31.729Z</time></trkpt><trkpt lat="-36.6972132" lon="174.5714308"><ele>66.0</ele><time>2026-03-24T03:39:32.73Z</time></trkpt><trkpt lat="-36.6971633" lon="174.5713469"><ele>66.0</ele><time>2026-03-24T03:39:33.73Z</time></trkpt><trkpt lat="-36.697107" lon="174.5712719"><ele>66.0</ele><time>2026-03-24T03:39:34.729Z</time></trkpt><trkpt lat="-36.6970722" lon="174.5712024"><ele>66.0</ele><time>2026-03-24T03:39:35.729Z</time></trkpt><trkpt lat="-36.697009" lon="174.5710576"><ele>66.14285714285714</ele><time>2026-03-24T03:39:37.73Z</time></trkpt><trkpt lat="-36.6969614" lon="174.5709853"><ele>66.28571428571429</ele><time>2026-03-24T03:39:38.729Z</time></trkpt><trkpt lat="-36.6969119" lon="174.5709156"><ele>66.42857142857143</ele><time>2026-03-24T03:39:39.729Z</time></trkpt><trkpt lat="-36.6968695" lon="174.570847"><ele>66.57142857142857</ele><time>2026-03-24T03:39:40.73Z</time></trkpt><trkpt lat="-36.6968356" lon="174.5707736"><ele>66.71428571428571</ele><time>2026-03-24T03:39:41.729Z</time></trkpt><trkpt lat="-36.6967924" lon="174.5707152"><ele>66.85714285714286</ele><time>2026-03-24T03:39:42.729Z</time></trkpt><trkpt lat="-36.6967474" lon="174.5706469"><ele>67.0</ele><time>2026-03-24T03:39:43.729Z</time></trkpt><trkpt lat="-36.6967009" lon="174.5705772"><ele>66.57142857142857</ele><time>2026-03-24T03:39:44.729Z</time></trkpt><trkpt lat="-36.6966652" lon="174.5705098"><ele>66.14285714285714</ele><time>2026-03-24T03:39:45.73Z</time></trkpt><trkpt lat="-36.6966222" lon="174.570427"><ele>65.71428571428571</ele><time>2026-03-24T03:39:46.729Z</time></trkpt><trkpt lat="-36.6965857" lon="174.5703558"><ele>65.28571428571428</ele><time>2026-03-24T03:39:47.73Z</time></trkpt><trkpt lat="-36.6965396" lon="174.5702922"><ele>64.85714285714285</ele><time>2026-03-24T03:39:48.73Z</time></trkpt><trkpt lat="-36.6964798" lon="174.5702227"><ele>64.42857142857143</ele><time>2026-03-24T03:39:49.729Z</time></trkpt><trkpt lat="-36.6964288" lon="174.5701582"><ele>64.0</ele><time>2026-03-24T03:39:50.73Z</time></trkpt><trkpt lat="-36.6963874" lon="174.570089"><ele>64.0</ele><time>2026-03-24T03:39:51.731Z</time></trkpt><trkpt lat="-36.6963345" lon="174.5700131"><ele>63.99999999999999</ele><time>2026-03-24T03:39:52.73Z</time></trkpt><trkpt lat="-36.6962878" lon="174.5699542"><ele>64.0</ele><time>2026-03-24T03:39:53.729Z</time></trkpt><trkpt lat="-36.6962412" lon="174.5698863"><ele>64.0</ele><time>2026-03-24T03:39:54.731Z</time></trkpt><trkpt lat="-36.6961915" lon="174.5698265"><ele>63.99999999999999</ele><time>2026-03-24T03:39:55.729Z</time></trkpt><trkpt lat="-36.6961478" lon="174.5697494"><ele>64.0</ele><time>2026-03-24T03:39:56.73Z</time></trkpt><trkpt lat="-36.6961073" lon="174.5696884"><ele>64.0</ele><time>2026-03-24T03:39:57.729Z</time></trkpt><trkpt lat="-36.69607" lon="174.5696152"><ele>63.99999999999999</ele><time>2026-03-24T03:39:58.73Z</time></trkpt><trkpt lat="-36.6959751" lon="174.5695263"><ele>64.0</ele><time>2026-03-24T03:40:00.729Z</time></trkpt><trkpt lat="-36.6959346" lon="174.5694649"><ele>64.0</ele><time>2026-03-24T03:40:01.729Z</time></trkpt><trkpt lat="-36.6958894" lon="174.5693843"><ele>64.0</ele><time>2026-03-24T03:40:03.729Z</time></trkpt><trkpt lat="-36.6958385" lon="174.5693028"><ele>63.99999999999999</ele><time>2026-03-24T03:40:06.729Z</time></trkpt><trkpt lat="-36.6957629" lon="174.5693002"><ele>64.0</ele><time>2026-03-24T03:40:09.73Z</time></trkpt><trkpt lat="-36.6956885" lon="174.5692911"><ele>64.0</ele><time>2026-03-24T03:40:12.73Z</time></trkpt><trkpt lat="-36.6956248" lon="174.5692848"><ele>63.99999999999999</ele><time>2026-03-24T03:40:15.729Z</time></trkpt><trkpt lat="-36.6955454" lon="174.5693137"><ele>64.0</ele><time>2026-03-24T03:40:18.731Z</time></trkpt><trkpt lat="-36.6954782" lon="174.5693373"><ele>64.0</ele><time>2026-03-24T03:40:20.73Z</time></trkpt><trkpt lat="-36.6954094" lon="174.5693661"><ele>63.99999999999999</ele><time>2026-03-24T03:40:22.732Z</time></trkpt><trkpt lat="-36.6953409" lon="174.5693781"><ele>64.0</ele><time>2026-03-24T03:40:24.729Z</time></trkpt><trkpt lat="-36.6952815" lon="174.5694282"><ele>64.0</ele><time>2026-03-24T03:40:27.729Z</time></trkpt><trkpt lat="-36.6952879" lon="174.5695096"><ele>64.83333333333333</ele><time>2026-03-24T03:40:29.731Z</time></trkpt><trkpt lat="-36.6952974" lon="174.5696163"><ele>65.66666666666666</ele><time>2026-03-24T03:40:32.731Z</time></trkpt><trkpt lat="-36.6952893" lon="174.5697223"><ele>66.5</ele><time>2026-03-24T03:40:35.729Z</time></trkpt><trkpt lat="-36.6952771" lon="174.5698344"><ele>67.33333333333333</ele><time>2026-03-24T03:40:38.73Z</time></trkpt><trkpt lat="-36.6952314" lon="174.5699114"><ele>68.16666666666667</ele><time>2026-03-24T03:40:41.729Z</time></trkpt><trkpt lat="-36.6951833" lon="174.5700078"><ele>69.0</ele><time>2026-03-24T03:40:44.73Z</time></trkpt><trkpt lat="-36.6951744" lon="174.5700873"><ele>70.14285714285714</ele><time>2026-03-24T03:40:46.729Z</time></trkpt><trkpt lat="-36.6951923" lon="174.5701662"><ele>71.28571428571429</ele><time>2026-03-24T03:40:49.729Z</time></trkpt><trkpt lat="-36.695166" lon="174.5702632"><ele>72.42857142857143</ele><time>2026-03-24T03:40:52.729Z</time></trkpt><trkpt lat="-36.6951125" lon="174.5703153"><ele>73.57142857142857</ele><time>2026-03-24T03:40:54.73Z</time></trkpt><trkpt lat="-36.6950548" lon="174.5703608"><ele>74.71428571428572</ele><time>2026-03-24T03:40:56.729Z</time></trkpt><trkpt lat="-36.6949977" lon="174.5704094"><ele>75.85714285714286</ele><time>2026-03-24T03:40:58.731Z</time></trkpt><trkpt lat="-36.6949382" lon="174.5704748"><ele>77.0</ele><time>2026-03-24T03:41:01.73Z</time></trkpt><trkpt lat="-36.6948687" lon="174.5705128"><ele>77.83333333333334</ele><time>2026-03-24T03:41:04.73Z</time></trkpt><trkpt lat="-36.6948135" lon="174.5705813"><ele>78.66666666666667</ele><time>2026-03-24T03:41:07.729Z</time></trkpt><trkpt lat="-36.6947983" lon="174.5706698"><ele>79.5</ele><time>2026-03-24T03:41:10.729Z</time></trkpt><trkpt lat="-36.6947641" lon="174.570766"><ele>80.33333333333333</ele><time>2026-03-24T03:41:13.729Z</time></trkpt><trkpt lat="-36.6947482" lon="174.5708432"><ele>81.16666666666666</ele><time>2026-03-24T03:41:15.731Z</time></trkpt><trkpt lat="-36.6947434" lon="174.570956"><ele>82.0</ele><time>2026-03-24T03:41:18.729Z</time></trkpt><trkpt lat="-36.6947454" lon="174.571062"><ele>82.0</ele><time>2026-03-24T03:41:21.731Z</time></trkpt><trkpt lat="-36.6947357" lon="174.5711647"><ele>82.0</ele><time>2026-03-24T03:41:24.729Z</time></trkpt><trkpt lat="-36.6946728" lon="174.5712472"><ele>82.0</ele><time>2026-03-24T03:41:27.729Z</time></trkpt><trkpt lat="-36.6946048" lon="174.5712876"><ele>82.0</ele><time>2026-03-24T03:41:30.729Z</time></trkpt><trkpt lat="-36.6945684" lon="174.5713718"><ele>82.0</ele><time>2026-03-24T03:41:33.73Z</time></trkpt><trkpt lat="-36.6945705" lon="174.5714638"><ele>82.0</ele><time>2026-03-24T03:41:36.73Z</time></trkpt><trkpt lat="-36.6946021" lon="174.5715443"><ele>82.16666666666666</ele><time>2026-03-24T03:41:39.73Z</time></trkpt><trkpt lat="-36.6946212" lon="174.5716364"><ele>82.33333333333333</ele><time>2026-03-24T03:41:42.73Z</time></trkpt><trkpt lat="-36.694649" lon="174.5717165"><ele>82.5</ele><time>2026-03-24T03:41:45.729Z</time></trkpt><trkpt lat="-36.6946419" lon="174.5718053"><ele>82.66666666666667</ele><time>2026-03-24T03:41:48.731Z</time></trkpt><trkpt lat="-36.6946134" lon="174.5719019"><ele>82.83333333333334</ele><time>2026-03-24T03:41:51.729Z</time></trkpt><trkpt lat="-36.6945975" lon="174.5719983"><ele>83.0</ele><time>2026-03-24T03:41:54.731Z</time></trkpt><trkpt lat="-36.6945745" lon="174.5721098"><ele>83.0</ele><time>2026-03-24T03:41:57.729Z</time></trkpt><trkpt lat="-36.694597" lon="174.5721908"><ele>83.0</ele><time>2026-03-24T03:42:01.729Z</time></trkpt><trkpt lat="-36.6946323" lon="174.5722781"><ele>83.0</ele><time>2026-03-24T03:42:05.731Z</time></trkpt><trkpt lat="-36.694676" lon="174.5723484"><ele>83.0</ele><time>2026-03-24T03:42:08.729Z</time></trkpt><trkpt lat="-36.6947215" lon="174.5724153"><ele>83.0</ele><time>2026-03-24T03:42:10.73Z</time></trkpt><trkpt lat="-36.6947614" lon="174.5724897"><ele>83.0</ele><time>2026-03-24T03:42:12.729Z</time></trkpt><trkpt lat="-36.6948017" lon="174.5725807"><ele>83.0</ele><time>2026-03-24T03:42:15.731Z</time></trkpt><trkpt lat="-36.6948273" lon="174.5726528"><ele>83.0</ele><time>2026-03-24T03:42:17.729Z</time></trkpt><trkpt lat="-36.6948649" lon="174.572754"><ele>83.0</ele><time>2026-03-24T03:42:20.73Z</time></trkpt><trkpt lat="-36.6949125" lon="174.5728206"><ele>83.0</ele><time>2026-03-24T03:42:23.729Z</time></trkpt><trkpt lat="-36.6949342" lon="174.5729152"><ele>83.0</ele><time>2026-03-24T03:42:27.73Z</time></trkpt><trkpt lat="-36.6949715" lon="174.5729916"><ele>83.0</ele><time>2026-03-24T03:42:30.729Z</time></trkpt><trkpt lat="-36.6950391" lon="174.5730378"><ele>83.0</ele><time>2026-03-24T03:42:33.729Z</time></trkpt><trkpt lat="-36.6951091" lon="174.5731225"><ele>83.16666666666667</ele><time>2026-03-24T03:42:36.73Z</time></trkpt><trkpt lat="-36.6951748" lon="174.5731881"><ele>83.33333333333334</ele><time>2026-03-24T03:42:39.729Z</time></trkpt><trkpt lat="-36.6952461" lon="174.5732576"><ele>83.5</ele><time>2026-03-24T03:42:42.729Z</time></trkpt><trkpt lat="-36.6953321" lon="174.5732593"><ele>83.66666666666667</ele><time>2026-03-24T03:42:45.73Z</time></trkpt><trkpt lat="-36.6953948" lon="174.5732747"><ele>83.83333333333333</ele><time>2026-03-24T03:42:47.729Z</time></trkpt><trkpt lat="-36.6954685" lon="174.5733322"><ele>84.0</ele><time>2026-03-24T03:42:50.73Z</time></trkpt><trkpt lat="-36.6955256" lon="174.5734104"><ele>84.16666666666667</ele><time>2026-03-24T03:42:53.729Z</time></trkpt><trkpt lat="-36.6955917" lon="174.5734345"><ele>84.33333333333333</ele><time>2026-03-24T03:42:56.73Z</time></trkpt><trkpt lat="-36.6956704" lon="174.5734257"><ele>84.5</ele><time>2026-03-24T03:42:59.73Z</time></trkpt><trkpt lat="-36.6957563" lon="174.5734398"><ele>84.66666666666666</ele><time>2026-03-24T03:43:03.729Z</time></trkpt><trkpt lat="-36.6958395" lon="174.5734691"><ele>84.83333333333333</ele><time>2026-03-24T03:43:06.73Z</time></trkpt><trkpt lat="-36.6959113" lon="174.573489"><ele>85.0</ele><time>2026-03-24T03:43:09.73Z</time></trkpt><trkpt lat="-36.6959894" lon="174.5735181"><ele>85.0</ele><time>2026-03-24T03:43:12.729Z</time></trkpt><trkpt lat="-36.6960543" lon="174.5735683"><ele>85.0</ele><time>2026-03-24T03:43:14.73Z</time></trkpt><trkpt lat="-36.696104" lon="174.5736312"><ele>85.0</ele><time>2026-03-24T03:43:16.729Z</time></trkpt><trkpt lat="-36.6961371" lon="174.5737125"><ele>85.0</ele><time>2026-03-24T03:43:19.729Z</time></trkpt><trkpt lat="-36.6961408" lon="174.5738171"><ele>85.0</ele><time>2026-03-24T03:43:22.73Z</time></trkpt><trkpt lat="-36.6961405" lon="174.5738987"><ele>85.0</ele><time>2026-03-24T03:43:24.731Z</time></trkpt><trkpt lat="-36.6961486" lon="174.5740013"><ele>85.85714285714286</ele><time>2026-03-24T03:43:27.729Z</time></trkpt><trkpt lat="-36.6961613" lon="174.5740997"><ele>86.71428571428571</ele><time>2026-03-24T03:43:30.729Z</time></trkpt><trkpt lat="-36.6962171" lon="174.5741661"><ele>87.57142857142857</ele><time>2026-03-24T03:43:33.73Z</time></trkpt><trkpt lat="-36.6962725" lon="174.5742189"><ele>88.42857142857143</ele><time>2026-03-24T03:43:36.731Z</time></trkpt><trkpt lat="-36.6962983" lon="174.5743023"><ele>89.28571428571428</ele><time>2026-03-24T03:43:39.73Z</time></trkpt><trkpt lat="-36.6963307" lon="174.5743698"><ele>90.14285714285714</ele><time>2026-03-24T03:43:41.729Z</time></trkpt><trkpt lat="-36.6963905" lon="174.5744365"><ele>91.0</ele><time>2026-03-24T03:43:44.73Z</time></trkpt><trkpt lat="-36.69644" lon="174.5744978"><ele>91.57142857142857</ele><time>2026-03-24T03:43:46.73Z</time></trkpt><trkpt lat="-36.6964959" lon="174.5745385"><ele>92.14285714285714</ele><time>2026-03-24T03:43:48.73Z</time></trkpt><trkpt lat="-36.6965569" lon="174.5745948"><ele>92.71428571428572</ele><time>2026-03-24T03:43:50.73Z</time></trkpt><trkpt lat="-36.6966102" lon="174.5746507"><ele>93.28571428571428</ele><time>2026-03-24T03:43:52.729Z</time></trkpt><trkpt lat="-36.6966436" lon="174.5747235"><ele>93.85714285714286</ele><time>2026-03-24T03:43:55.729Z</time></trkpt><trkpt lat="-36.6966464" lon="174.5748193"><ele>94.42857142857143</ele><time>2026-03-24T03:43:58.729Z</time></trkpt><trkpt lat="-36.6966552" lon="174.5749038"><ele>95.0</ele><time>2026-03-24T03:44:01.729Z</time></trkpt><trkpt lat="-36.6966668" lon="174.5749995"><ele>95.0</ele><time>2026-03-24T03:44:04.729Z</time></trkpt><trkpt lat="-36.6966757" lon="174.5750917"><ele>95.0</ele><time>2026-03-24T03:44:07.729Z</time></trkpt><trkpt lat="-36.6966423" lon="174.5751704"><ele>95.0</ele><time>2026-03-24T03:44:10.73Z</time></trkpt><trkpt lat="-36.6966519" lon="174.5752575"><ele>95.0</ele><time>2026-03-24T03:44:13.729Z</time></trkpt><trkpt lat="-36.6966698" lon="174.5753494"><ele>95.0</ele><time>2026-03-24T03:44:16.729Z</time></trkpt><trkpt lat="-36.6966875" lon="174.5754376"><ele>95.0</ele><time>2026-03-24T03:44:19.729Z</time></trkpt><trkpt lat="-36.6966761" lon="174.5755189"><ele>95.0</ele><time>2026-03-24T03:44:22.729Z</time></trkpt><trkpt lat="-36.6966392" lon="174.575598"><ele>96.33333333333334</ele><time>2026-03-24T03:44:25.73Z</time></trkpt><trkpt lat="-36.6966648" lon="174.575693"><ele>97.66666666666667</ele><time>2026-03-24T03:44:29.73Z</time></trkpt><trkpt lat="-36.6966552" lon="174.5757829"><ele>99.0</ele><time>2026-03-24T03:44:33.729Z</time></trkpt><trkpt lat="-36.6966288" lon="174.5758654"><ele>100.33333333333334</ele><time>2026-03-24T03:44:36.729Z</time></trkpt><trkpt lat="-36.6965885" lon="174.5759538"><ele>101.66666666666667</ele><time>2026-03-24T03:44:39.73Z</time></trkpt><trkpt lat="-36.6965311" lon="174.5760268"><ele>103.0</ele><time>2026-03-24T03:44:42.73Z</time></trkpt><trkpt lat="-36.6964943" lon="174.5761217"><ele>102.99999999999999</ele><time>2026-03-24T03:44:45.729Z</time></trkpt><trkpt lat="-36.6964534" lon="174.576184"><ele>103.0</ele><time>2026-03-24T03:44:48.729Z</time></trkpt><trkpt lat="-36.696382" lon="174.5762117"><ele>103.0</ele><time>2026-03-24T03:44:51.73Z</time></trkpt><trkpt lat="-36.6963008" lon="174.5762437"><ele>103.0</ele><time>2026-03-24T03:44:55.729Z</time></trkpt><trkpt lat="-36.6962444" lon="174.5762908"><ele>103.0</ele><time>2026-03-24T03:44:58.73Z</time></trkpt><trkpt lat="-36.6961835" lon="174.5763536"><ele>102.99999999999999</ele><time>2026-03-24T03:45:02.729Z</time></trkpt><trkpt lat="-36.6961565" lon="174.5764304"><ele>103.0</ele><time>2026-03-24T03:45:05.731Z</time></trkpt><trkpt lat="-36.6961053" lon="174.5765023"><ele>104.85714285714285</ele><time>2026-03-24T03:45:09.731Z</time></trkpt><trkpt lat="-36.6960506" lon="174.5765425"><ele>106.71428571428572</ele><time>2026-03-24T03:45:12.729Z</time></trkpt><trkpt lat="-36.6960251" lon="174.5766252"><ele>108.57142857142858</ele><time>2026-03-24T03:45:16.729Z</time></trkpt><trkpt lat="-36.6960906" lon="174.5766926"><ele>110.42857142857143</ele><time>2026-03-24T03:45:22.73Z</time></trkpt><trkpt lat="-36.6961079" lon="174.576774"><ele>112.28571428571429</ele><time>2026-03-24T03:45:25.73Z</time></trkpt><trkpt lat="-36.6960751" lon="174.5768425"><ele>114.14285714285715</ele><time>2026-03-24T03:45:28.729Z</time></trkpt><trkpt lat="-36.6960839" lon="174.5769334"><ele>116.00000000000001</ele><time>2026-03-24T03:45:31.729Z</time></trkpt><trkpt lat="-36.6961408" lon="174.5769805"><ele>116.00000000000001</ele><time>2026-03-24T03:45:34.729Z</time></trkpt><trkpt lat="-36.6962019" lon="174.5770134"><ele>116.0</ele><time>2026-03-24T03:45:37.73Z</time></trkpt><trkpt lat="-36.6962297" lon="174.5770867"><ele>116.00000000000001</ele><time>2026-03-24T03:45:41.73Z</time></trkpt><trkpt lat="-36.6961861" lon="174.5771468"><ele>116.00000000000001</ele><time>2026-03-24T03:45:45.729Z</time></trkpt><trkpt lat="-36.6961551" lon="174.5772314"><ele>116.0</ele><time>2026-03-24T03:45:49.73Z</time></trkpt><trkpt lat="-36.6961104" lon="174.5772989"><ele>116.00000000000001</ele><time>2026-03-24T03:45:52.73Z</time></trkpt><trkpt lat="-36.6960857" lon="174.5773878"><ele>116.00000000000001</ele><time>2026-03-24T03:45:56.73Z</time></trkpt><trkpt lat="-36.6960249" lon="174.577449"><ele>118.66666666666666</ele><time>2026-03-24T03:46:00.729Z</time></trkpt><trkpt lat="-36.6959798" lon="174.5775173"><ele>121.33333333333333</ele><time>2026-03-24T03:46:04.729Z</time></trkpt><trkpt lat="-36.6959503" lon="174.5776129"><ele>124.0</ele><time>2026-03-24T03:46:08.73Z</time></trkpt><trkpt lat="-36.6959472" lon="174.5776942"><ele>126.66666666666666</ele><time>2026-03-24T03:46:11.73Z</time></trkpt><trkpt lat="-36.6959596" lon="174.5777817"><ele>129.33333333333334</ele><time>2026-03-24T03:46:15.729Z</time></trkpt><trkpt lat="-36.6959282" lon="174.5778593"><ele>132.0</ele><time>2026-03-24T03:46:19.729Z</time></trkpt><trkpt lat="-36.6958942" lon="174.5779667"><ele>132.66666666666666</ele><time>2026-03-24T03:46:22.73Z</time></trkpt><trkpt lat="-36.6958572" lon="174.5780388"><ele>133.33333333333334</ele><time>2026-03-24T03:46:25.729Z</time></trkpt><trkpt lat="-36.6958341" lon="174.5781238"><ele>134.0</ele><time>2026-03-24T03:46:28.73Z</time></trkpt><trkpt lat="-36.6958274" lon="174.578227"><ele>134.66666666666669</ele><time>2026-03-24T03:46:31.729Z</time></trkpt><trkpt lat="-36.6958142" lon="174.5783351"><ele>135.33333333333334</ele><time>2026-03-24T03:46:34.729Z</time></trkpt><trkpt lat="-36.6958101" lon="174.5784169"><ele>136.0</ele><time>2026-03-24T03:46:37.729Z</time></trkpt><trkpt lat="-36.6958153" lon="174.5785115"><ele>135.99999999999997</ele><time>2026-03-24T03:46:40.729Z</time></trkpt><trkpt lat="-36.6958563" lon="174.578611"><ele>136.0</ele><time>2026-03-24T03:46:43.73Z</time></trkpt><trkpt lat="-36.6959025" lon="174.5786848"><ele>136.0</ele><time>2026-03-24T03:46:45.73Z</time></trkpt><trkpt lat="-36.6959058" lon="174.5787741"><ele>136.0</ele><time>2026-03-24T03:46:48.73Z</time></trkpt><trkpt lat="-36.695922" lon="174.5788615"><ele>136.0</ele><time>2026-03-24T03:46:52.73Z</time></trkpt><trkpt lat="-36.6959639" lon="174.5789261"><ele>135.99999999999997</ele><time>2026-03-24T03:46:55.729Z</time></trkpt><trkpt lat="-36.6960116" lon="174.578995"><ele>136.0</ele><time>2026-03-24T03:46:58.73Z</time></trkpt><trkpt lat="-36.6960537" lon="174.5790544"><ele>136.57142857142856</ele><time>2026-03-24T03:47:01.731Z</time></trkpt><trkpt lat="-36.6960585" lon="174.5791442"><ele>137.14285714285714</ele><time>2026-03-24T03:47:04.729Z</time></trkpt><trkpt lat="-36.6960444" lon="174.5792455"><ele>137.71428571428572</ele><time>2026-03-24T03:47:08.73Z</time></trkpt><trkpt lat="-36.696031" lon="174.5793366"><ele>138.28571428571428</ele><time>2026-03-24T03:47:11.729Z</time></trkpt><trkpt lat="-36.6960098" lon="174.5794278"><ele>138.85714285714286</ele><time>2026-03-24T03:47:14.729Z</time></trkpt><trkpt lat="-36.6959701" lon="174.5795088"><ele>139.42857142857142</ele><time>2026-03-24T03:47:17.729Z</time></trkpt><trkpt lat="-36.6959322" lon="174.5795751"><ele>140.0</ele><time>2026-03-24T03:47:20.73Z</time></trkpt><trkpt lat="-36.6958653" lon="174.5796378"><ele>141.0</ele><time>2026-03-24T03:47:23.729Z</time></trkpt><trkpt lat="-36.6958019" lon="174.5796638"><ele>142.0</ele><time>2026-03-24T03:47:26.73Z</time></trkpt><trkpt lat="-36.6957329" lon="174.5796861"><ele>143.0</ele><time>2026-03-24T03:47:29.73Z</time></trkpt><trkpt lat="-36.695675" lon="174.5797376"><ele>144.0</ele><time>2026-03-24T03:47:32.729Z</time></trkpt><trkpt lat="-36.695677" lon="174.5798376"><ele>145.0</ele><time>2026-03-24T03:47:35.729Z</time></trkpt><trkpt lat="-36.695709" lon="174.5799114"><ele>146.0</ele><time>2026-03-24T03:47:38.729Z</time></trkpt><trkpt lat="-36.6957383" lon="174.5800009"><ele>147.0</ele><time>2026-03-24T03:47:42.729Z</time></trkpt><trkpt lat="-36.6957724" lon="174.5800806"><ele>147.0</ele><time>2026-03-24T03:47:47.731Z</time></trkpt><trkpt lat="-36.695838" lon="174.5801339"><ele>147.0</ele><time>2026-03-24T03:47:52.729Z</time></trkpt><trkpt lat="-36.6959096" lon="174.5801325"><ele>147.0</ele><time>2026-03-24T03:47:56.729Z</time></trkpt><trkpt lat="-36.6959652" lon="174.5800839"><ele>147.0</ele><time>2026-03-24T03:48:00.729Z</time></trkpt><trkpt lat="-36.6959842" lon="174.5799939"><ele>147.0</ele><time>2026-03-24T03:48:05.731Z</time></trkpt><trkpt lat="-36.6960355" lon="174.5799205"><ele>147.0</ele><time>2026-03-24T03:48:08.729Z</time></trkpt><trkpt lat="-36.6961151" lon="174.5799144"><ele>146.42857142857142</ele><time>2026-03-24T03:48:12.73Z</time></trkpt><trkpt lat="-36.6961856" lon="174.5799508"><ele>145.85714285714286</ele><time>2026-03-24T03:48:15.729Z</time></trkpt><trkpt lat="-36.6962492" lon="174.579987"><ele>145.28571428571428</ele><time>2026-03-24T03:48:18.729Z</time></trkpt><trkpt lat="-36.6963002" lon="174.5800403"><ele>144.71428571428572</ele><time>2026-03-24T03:48:21.73Z</time></trkpt><trkpt lat="-36.6963376" lon="174.5801208"><ele>144.14285714285714</ele><time>2026-03-24T03:48:24.729Z</time></trkpt><trkpt lat="-36.6963447" lon="174.5802061"><ele>143.57142857142856</ele><time>2026-03-24T03:48:27.729Z</time></trkpt><trkpt lat="-36.6962926" lon="174.580269"><ele>143.0</ele><time>2026-03-24T03:48:31.73Z</time></trkpt><trkpt lat="-36.6962787" lon="174.5803558"><ele>144.42857142857142</ele><time>2026-03-24T03:48:34.729Z</time></trkpt><trkpt lat="-36.6963089" lon="174.5804497"><ele>145.85714285714286</ele><time>2026-03-24T03:48:38.73Z</time></trkpt><trkpt lat="-36.6963606" lon="174.5805188"><ele>147.28571428571428</ele><time>2026-03-24T03:48:42.729Z</time></trkpt><trkpt lat="-36.6964186" lon="174.5805547"><ele>148.71428571428572</ele><time>2026-03-24T03:48:45.728Z</time></trkpt><trkpt lat="-36.6964955" lon="174.5805981"><ele>150.14285714285714</ele><time>2026-03-24T03:48:49.731Z</time></trkpt><trkpt lat="-36.6965531" lon="174.5806334"><ele>151.57142857142856</ele><time>2026-03-24T03:48:52.729Z</time></trkpt><trkpt lat="-36.6965753" lon="174.5807147"><ele>153.0</ele><time>2026-03-24T03:48:56.73Z</time></trkpt><trkpt lat="-36.6966332" lon="174.5807828"><ele>153.0</ele><time>2026-03-24T03:49:00.729Z</time></trkpt><trkpt lat="-36.6967038" lon="174.580805"><ele>153.0</ele><time>2026-03-24T03:49:03.729Z</time></trkpt><trkpt lat="-36.6967495" lon="174.5808606"><ele>153.0</ele><time>2026-03-24T03:49:06.729Z</time></trkpt><trkpt lat="-36.6968081" lon="174.5809059"><ele>153.0</ele><time>2026-03-24T03:49:32.729Z</time></trkpt><trkpt lat="-36.6968853" lon="174.5808997"><ele>153.0</ele><time>2026-03-24T03:49:36.729Z</time></trkpt><trkpt lat="-36.696944" lon="174.5809316"><ele>153.0</ele><time>2026-03-24T03:49:39.729Z</time></trkpt><trkpt lat="-36.6969501" lon="174.5810249"><ele>153.0</ele><time>2026-03-24T03:49:43.729Z</time></trkpt><trkpt lat="-36.6969496" lon="174.581137"><ele>154.0</ele><time>2026-03-24T03:49:46.73Z</time></trkpt><trkpt lat="-36.6969446" lon="174.5812161"><ele>155.0</ele><time>2026-03-24T03:49:48.729Z</time></trkpt><trkpt lat="-36.6969217" lon="174.581293"><ele>156.0</ele><time>2026-03-24T03:49:50.73Z</time></trkpt><trkpt lat="-36.6968897" lon="174.5813617"><ele>157.0</ele><time>2026-03-24T03:49:52.73Z</time></trkpt><trkpt lat="-36.6968579" lon="174.5814378"><ele>158.0</ele><time>2026-03-24T03:49:54.729Z</time></trkpt><trkpt lat="-36.696822" lon="174.5815105"><ele>159.0</ele><time>2026-03-24T03:49:56.729Z</time></trkpt><trkpt lat="-36.6967842" lon="174.5816087"><ele>160.0</ele><time>2026-03-24T03:49:59.729Z</time></trkpt><trkpt lat="-36.6967476" lon="174.5816734"><ele>160.0</ele><time>2026-03-24T03:50:01.729Z</time></trkpt><trkpt lat="-36.6966994" lon="174.5817592"><ele>160.0</ele><time>2026-03-24T03:50:04.73Z</time></trkpt><trkpt lat="-36.6966593" lon="174.5818377"><ele>160.0</ele><time>2026-03-24T03:50:06.73Z</time></trkpt><trkpt lat="-36.6966347" lon="174.5819173"><ele>160.0</ele><time>2026-03-24T03:50:08.729Z</time></trkpt><trkpt lat="-36.6966572" lon="174.582006"><ele>160.0</ele><time>2026-03-24T03:50:10.729Z</time></trkpt><trkpt lat="-36.6966961" lon="174.5820769"><ele>160.0</ele><time>2026-03-24T03:50:12.729Z</time></trkpt><trkpt lat="-36.6967166" lon="174.5821835"><ele>157.83333333333334</ele><time>2026-03-24T03:50:14.729Z</time></trkpt><trkpt lat="-36.6967062" lon="174.582282"><ele>155.66666666666669</ele><time>2026-03-24T03:50:16.728Z</time></trkpt><trkpt lat="-36.6967052" lon="174.58237"><ele>153.5</ele><time>2026-03-24T03:50:18.729Z</time></trkpt><trkpt lat="-36.6967534" lon="174.5824418"><ele>151.33333333333334</ele><time>2026-03-24T03:50:21.729Z</time></trkpt><trkpt lat="-36.696822" lon="174.5825125"><ele>149.16666666666666</ele><time>2026-03-24T03:50:24.729Z</time></trkpt><trkpt lat="-36.6969065" lon="174.5825534"><ele>147.0</ele><time>2026-03-24T03:50:27.729Z</time></trkpt><trkpt lat="-36.6969709" lon="174.5825838"><ele>146.16666666666666</ele><time>2026-03-24T03:50:29.73Z</time></trkpt><trkpt lat="-36.6970468" lon="174.5825962"><ele>145.33333333333334</ele><time>2026-03-24T03:50:31.73Z</time></trkpt><trkpt lat="-36.6971039" lon="174.5826499"><ele>144.5</ele><time>2026-03-24T03:50:33.729Z</time></trkpt><trkpt lat="-36.6971285" lon="174.582743"><ele>143.66666666666669</ele><time>2026-03-24T03:50:36.729Z</time></trkpt><trkpt lat="-36.6971586" lon="174.5828398"><ele>142.83333333333334</ele><time>2026-03-24T03:50:39.729Z</time></trkpt><trkpt lat="-36.6972173" lon="174.5829053"><ele>142.0</ele><time>2026-03-24T03:50:42.729Z</time></trkpt><trkpt lat="-36.6972494" lon="174.5830071"><ele>142.0</ele><time>2026-03-24T03:50:45.729Z</time></trkpt><trkpt lat="-36.6973008" lon="174.5830671"><ele>142.0</ele><time>2026-03-24T03:50:47.73Z</time></trkpt><trkpt lat="-36.6973524" lon="174.5831157"><ele>142.0</ele><time>2026-03-24T03:50:49.729Z</time></trkpt><trkpt lat="-36.6974053" lon="174.5831867"><ele>142.0</ele><time>2026-03-24T03:50:51.729Z</time></trkpt><trkpt lat="-36.6974805" lon="174.5832553"><ele>142.0</ele><time>2026-03-24T03:50:53.729Z</time></trkpt><trkpt lat="-36.6975583" lon="174.58329"><ele>142.0</ele><time>2026-03-24T03:50:55.729Z</time></trkpt><trkpt lat="-36.6976268" lon="174.5833337"><ele>142.0</ele><time>2026-03-24T03:50:57.729Z</time></trkpt><trkpt lat="-36.6976904" lon="174.5833511"><ele>142.0</ele><time>2026-03-24T03:50:59.73Z</time></trkpt><trkpt lat="-36.6977712" lon="174.5833877"><ele>142.0</ele><time>2026-03-24T03:51:02.728Z</time></trkpt><trkpt lat="-36.697836" lon="174.5834187"><ele>142.0</ele><time>2026-03-24T03:51:04.728Z</time></trkpt><trkpt lat="-36.6979214" lon="174.5834307"><ele>142.0</ele><time>2026-03-24T03:51:06.729Z</time></trkpt><trkpt lat="-36.6980025" lon="174.5834414"><ele>142.0</ele><time>2026-03-24T03:51:08.729Z</time></trkpt><trkpt lat="-36.6980747" lon="174.5834266"><ele>142.0</ele><time>2026-03-24T03:51:10.73Z</time></trkpt><trkpt lat="-36.698158" lon="174.5834545"><ele>142.0</ele><time>2026-03-24T03:51:13.728Z</time></trkpt><trkpt lat="-36.6982242" lon="174.5835021"><ele>142.0</ele><time>2026-03-24T03:51:17.73Z</time></trkpt><trkpt lat="-36.6982357" lon="174.5835884"><ele>142.0</ele><time>2026-03-24T03:51:21.728Z</time></trkpt><trkpt lat="-36.6982976" lon="174.5836204"><ele>142.0</ele><time>2026-03-24T03:51:25.729Z</time></trkpt><trkpt lat="-36.698352" lon="174.5836811"><ele>142.0</ele><time>2026-03-24T03:51:29.729Z</time></trkpt><trkpt lat="-36.6983245" lon="174.5837708"><ele>141.16666666666669</ele><time>2026-03-24T03:51:33.729Z</time></trkpt><trkpt lat="-36.6983111" lon="174.583852"><ele>140.33333333333334</ele><time>2026-03-24T03:51:35.729Z</time></trkpt><trkpt lat="-36.6983357" lon="174.5839261"><ele>139.5</ele><time>2026-03-24T03:51:37.73Z</time></trkpt><trkpt lat="-36.6983909" lon="174.5839914"><ele>138.66666666666666</ele><time>2026-03-24T03:51:45.729Z</time></trkpt><trkpt lat="-36.6984573" lon="174.5840622"><ele>137.83333333333331</ele><time>2026-03-24T03:51:48.729Z</time></trkpt><trkpt lat="-36.698522" lon="174.5841181"><ele>137.0</ele><time>2026-03-24T03:51:50.729Z</time></trkpt><trkpt lat="-36.6985831" lon="174.584185"><ele>137.6</ele><time>2026-03-24T03:51:52.728Z</time></trkpt><trkpt lat="-36.6986371" lon="174.584269"><ele>138.2</ele><time>2026-03-24T03:51:54.73Z</time></trkpt><trkpt lat="-36.6986941" lon="174.5843655"><ele>138.8</ele><time>2026-03-24T03:51:56.728Z</time></trkpt><trkpt lat="-36.6987533" lon="174.5844719"><ele>139.4</ele><time>2026-03-24T03:51:58.729Z</time></trkpt><trkpt lat="-36.698807" lon="174.5845843"><ele>140.0</ele><time>2026-03-24T03:52:00.73Z</time></trkpt><trkpt lat="-36.6988622" lon="174.5846956"><ele>140.6</ele><time>2026-03-24T03:52:02.729Z</time></trkpt><trkpt lat="-36.6989241" lon="174.5847992"><ele>141.2</ele><time>2026-03-24T03:52:04.728Z</time></trkpt><trkpt lat="-36.6989893" lon="174.5849046"><ele>141.8</ele><time>2026-03-24T03:52:06.728Z</time></trkpt><trkpt lat="-36.6990601" lon="174.5850121"><ele>142.4</ele><time>2026-03-24T03:52:08.73Z</time></trkpt><trkpt lat="-36.6991301" lon="174.5851146"><ele>143.0</ele><time>2026-03-24T03:52:10.729Z</time></trkpt><trkpt lat="-36.6992077" lon="174.5852114"><ele>143.0</ele><time>2026-03-24T03:52:12.731Z</time></trkpt><trkpt lat="-36.6992825" lon="174.5853249"><ele>143.0</ele><time>2026-03-24T03:52:14.729Z</time></trkpt><trkpt lat="-36.6993614" lon="174.585441"><ele>143.0</ele><time>2026-03-24T03:52:16.729Z</time></trkpt><trkpt lat="-36.6993994" lon="174.5855069"><ele>143.0</ele><time>2026-03-24T03:52:17.729Z</time></trkpt><trkpt lat="-36.6994636" lon="174.5856235"><ele>143.0</ele><time>2026-03-24T03:52:19.73Z</time></trkpt><trkpt lat="-36.6995244" lon="174.5857542"><ele>140.75</ele><time>2026-03-24T03:52:21.729Z</time></trkpt><trkpt lat="-36.6995677" lon="174.5858973"><ele>138.5</ele><time>2026-03-24T03:52:23.731Z</time></trkpt><trkpt lat="-36.6996007" lon="174.5860343"><ele>136.25</ele><time>2026-03-24T03:52:25.729Z</time></trkpt><trkpt lat="-36.6996327" lon="174.5861792"><ele>134.0</ele><time>2026-03-24T03:52:27.728Z</time></trkpt><trkpt lat="-36.6996548" lon="174.5863086"><ele>134.0</ele><time>2026-03-24T03:52:29.729Z</time></trkpt><trkpt lat="-36.6996779" lon="174.5864251"><ele>134.0</ele><time>2026-03-24T03:52:31.73Z</time></trkpt><trkpt lat="-36.6997219" lon="174.586504"><ele>134.0</ele><time>2026-03-24T03:52:33.729Z</time></trkpt><trkpt lat="-36.6997825" lon="174.586549"><ele>134.0</ele><time>2026-03-24T03:52:35.729Z</time></trkpt><trkpt lat="-36.6998582" lon="174.586564"><ele>134.0</ele><time>2026-03-24T03:52:37.729Z</time></trkpt><trkpt lat="-36.699929" lon="174.5865688"><ele>134.0</ele><time>2026-03-24T03:52:39.729Z</time></trkpt><trkpt lat="-36.7000025" lon="174.5865874"><ele>134.0</ele><time>2026-03-24T03:52:41.729Z</time></trkpt><trkpt lat="-36.7000889" lon="174.5866145"><ele>134.0</ele><time>2026-03-24T03:52:43.729Z</time></trkpt><trkpt lat="-36.7001825" lon="174.5866501"><ele>134.0</ele><time>2026-03-24T03:52:45.729Z</time></trkpt><trkpt lat="-36.7002721" lon="174.5866685"><ele>134.0</ele><time>2026-03-24T03:52:47.731Z</time></trkpt><trkpt lat="-36.7003891" lon="174.586696"><ele>134.0</ele><time>2026-03-24T03:52:49.731Z</time></trkpt><trkpt lat="-36.7004585" lon="174.5866997"><ele>133.71428571428572</ele><time>2026-03-24T03:52:50.729Z</time></trkpt><trkpt lat="-36.7005328" lon="174.5867258"><ele>133.42857142857142</ele><time>2026-03-24T03:52:51.729Z</time></trkpt><trkpt lat="-36.7006032" lon="174.5867283"><ele>133.14285714285714</ele><time>2026-03-24T03:52:52.728Z</time></trkpt><trkpt lat="-36.7006695" lon="174.5867377"><ele>132.85714285714286</ele><time>2026-03-24T03:52:53.73Z</time></trkpt><trkpt lat="-36.7007647" lon="174.5867479"><ele>132.57142857142858</ele><time>2026-03-24T03:52:55.729Z</time></trkpt><trkpt lat="-36.7008316" lon="174.5867523"><ele>132.28571428571428</ele><time>2026-03-24T03:52:56.729Z</time></trkpt><trkpt lat="-36.7008969" lon="174.5867597"><ele>132.0</ele><time>2026-03-24T03:52:57.73Z</time></trkpt><trkpt lat="-36.700965" lon="174.5867593"><ele>130.79999999999998</ele><time>2026-03-24T03:52:58.73Z</time></trkpt><trkpt lat="-36.7010903" lon="174.5867581"><ele>129.6</ele><time>2026-03-24T03:53:00.73Z</time></trkpt><trkpt lat="-36.7012118" lon="174.5867632"><ele>128.39999999999998</ele><time>2026-03-24T03:53:02.728Z</time></trkpt><trkpt lat="-36.7012779" lon="174.5867645"><ele>127.19999999999999</ele><time>2026-03-24T03:53:03.729Z</time></trkpt><trkpt lat="-36.7013507" lon="174.5867643"><ele>126.0</ele><time>2026-03-24T03:53:04.729Z</time></trkpt><trkpt lat="-36.7014531" lon="174.586762"><ele>126.0</ele><time>2026-03-24T03:53:06.729Z</time></trkpt><trkpt lat="-36.7015365" lon="174.5867902"><ele>126.0</ele><time>2026-03-24T03:53:08.728Z</time></trkpt><trkpt lat="-36.7016078" lon="174.5868466"><ele>126.0</ele><time>2026-03-24T03:53:10.728Z</time></trkpt><trkpt lat="-36.7016799" lon="174.5869246"><ele>126.0</ele><time>2026-03-24T03:53:12.73Z</time></trkpt><trkpt lat="-36.7017432" lon="174.586993"><ele>126.0</ele><time>2026-03-24T03:53:14.729Z</time></trkpt><trkpt lat="-36.7017861" lon="174.5870554"><ele>126.0</ele><time>2026-03-24T03:53:16.728Z</time></trkpt><trkpt lat="-36.7018534" lon="174.5870949"><ele>125.28571428571428</ele><time>2026-03-24T03:53:19.728Z</time></trkpt><trkpt lat="-36.7019274" lon="174.5871148"><ele>124.57142857142857</ele><time>2026-03-24T03:53:24.728Z</time></trkpt><trkpt lat="-36.7019522" lon="174.587037"><ele>123.85714285714286</ele><time>2026-03-24T03:53:27.728Z</time></trkpt><trkpt lat="-36.7020106" lon="174.5870863"><ele>123.14285714285714</ele><time>2026-03-24T03:53:36.728Z</time></trkpt><trkpt lat="-36.7020801" lon="174.5870833"><ele>122.42857142857142</ele><time>2026-03-24T03:53:41.728Z</time></trkpt><trkpt lat="-36.7021301" lon="174.587034"><ele>121.71428571428571</ele><time>2026-03-24T03:53:43.728Z</time></trkpt><trkpt lat="-36.7021832" lon="174.5869709"><ele>121.0</ele><time>2026-03-24T03:53:45.731Z</time></trkpt><trkpt lat="-36.7022381" lon="174.5868964"><ele>120.85714285714285</ele><time>2026-03-24T03:53:48.728Z</time></trkpt><trkpt lat="-36.7022624" lon="174.5868158"><ele>120.7142857142857</ele><time>2026-03-24T03:53:51.729Z</time></trkpt><trkpt lat="-36.7022895" lon="174.5867376"><ele>120.57142857142857</ele><time>2026-03-24T03:53:53.728Z</time></trkpt><trkpt lat="-36.7023408" lon="174.5866756"><ele>120.42857142857142</ele><time>2026-03-24T03:53:55.728Z</time></trkpt><trkpt lat="-36.7024028" lon="174.5866366"><ele>120.28571428571428</ele><time>2026-03-24T03:53:57.728Z</time></trkpt><trkpt lat="-36.7024589" lon="174.5865568"><ele>120.14285714285714</ele><time>2026-03-24T03:54:00.729Z</time></trkpt><trkpt lat="-36.7024677" lon="174.5864769"><ele>120.0</ele><time>2026-03-24T03:54:02.729Z</time></trkpt><trkpt lat="-36.7024623" lon="174.5863818"><ele>120.0</ele><time>2026-03-24T03:54:05.729Z</time></trkpt><trkpt lat="-36.7024441" lon="174.5862823"><ele>120.0</ele><time>2026-03-24T03:54:08.73Z</time></trkpt><trkpt lat="-36.7024522" lon="174.5861692"><ele>120.0</ele><time>2026-03-24T03:54:11.729Z</time></trkpt><trkpt lat="-36.7024396" lon="174.5860771"><ele>120.0</ele><time>2026-03-24T03:54:13.73Z</time></trkpt><trkpt lat="-36.7024198" lon="174.585986"><ele>120.0</ele><time>2026-03-24T03:54:17.729Z</time></trkpt><trkpt lat="-36.7024571" lon="174.5859008"><ele>120.0</ele><time>2026-03-24T03:54:20.728Z</time></trkpt><trkpt lat="-36.7024827" lon="174.5858289"><ele>118.83333333333333</ele><time>2026-03-24T03:54:22.728Z</time></trkpt><trkpt lat="-36.7025301" lon="174.5857311"><ele>117.66666666666666</ele><time>2026-03-24T03:54:25.728Z</time></trkpt><trkpt lat="-36.7025813" lon="174.5856573"><ele>116.5</ele><time>2026-03-24T03:54:27.728Z</time></trkpt><trkpt lat="-36.7026286" lon="174.5855781"><ele>115.33333333333333</ele><time>2026-03-24T03:54:30.728Z</time></trkpt><trkpt lat="-36.7026175" lon="174.5854871"><ele>114.16666666666666</ele><time>2026-03-24T03:54:33.729Z</time></trkpt><trkpt lat="-36.7026015" lon="174.5854046"><ele>113.0</ele><time>2026-03-24T03:54:37.73Z</time></trkpt><trkpt lat="-36.7026305" lon="174.5853137"><ele>111.83333333333333</ele><time>2026-03-24T03:54:41.729Z</time></trkpt><trkpt lat="-36.7026803" lon="174.5852067"><ele>110.66666666666666</ele><time>2026-03-24T03:54:43.73Z</time></trkpt><trkpt lat="-36.7026959" lon="174.5851202"><ele>109.5</ele><time>2026-03-24T03:54:45.728Z</time></trkpt><trkpt lat="-36.7027211" lon="174.5850331"><ele>108.33333333333334</ele><time>2026-03-24T03:54:47.729Z</time></trkpt><trkpt lat="-36.7027263" lon="174.5849423"><ele>107.16666666666667</ele><time>2026-03-24T03:54:49.729Z</time></trkpt><trkpt lat="-36.7027368" lon="174.5848264"><ele>106.0</ele><time>2026-03-24T03:54:51.728Z</time></trkpt><trkpt lat="-36.7027634" lon="174.5846967"><ele>105.50000000000001</ele><time>2026-03-24T03:54:53.728Z</time></trkpt><trkpt lat="-36.702753" lon="174.5845785"><ele>105.0</ele><time>2026-03-24T03:54:55.728Z</time></trkpt><trkpt lat="-36.7026979" lon="174.584495"><ele>104.5</ele><time>2026-03-24T03:54:57.728Z</time></trkpt><trkpt lat="-36.7026609" lon="174.5844261"><ele>104.0</ele><time>2026-03-24T03:54:59.729Z</time></trkpt><trkpt lat="-36.7026577" lon="174.5843351"><ele>103.50000000000001</ele><time>2026-03-24T03:55:01.729Z</time></trkpt><trkpt lat="-36.7026696" lon="174.584237"><ele>103.0</ele><time>2026-03-24T03:55:03.728Z</time></trkpt><trkpt lat="-36.7027078" lon="174.5841591"><ele>102.28571428571428</ele><time>2026-03-24T03:55:05.729Z</time></trkpt><trkpt lat="-36.7027423" lon="174.5840801"><ele>101.57142857142857</ele><time>2026-03-24T03:55:07.729Z</time></trkpt><trkpt lat="-36.7027997" lon="174.5840277"><ele>100.85714285714286</ele><time>2026-03-24T03:55:09.728Z</time></trkpt><trkpt lat="-36.7028563" lon="174.5839843"><ele>100.14285714285714</ele><time>2026-03-24T03:55:11.729Z</time></trkpt><trkpt lat="-36.7029298" lon="174.583948"><ele>99.42857142857143</ele><time>2026-03-24T03:55:13.728Z</time></trkpt><trkpt lat="-36.703015" lon="174.583959"><ele>98.71428571428571</ele><time>2026-03-24T03:55:16.728Z</time></trkpt><trkpt lat="-36.7030649" lon="174.5840137"><ele>98.0</ele><time>2026-03-24T03:55:19.728Z</time></trkpt><trkpt lat="-36.7031363" lon="174.5840628"><ele>97.83333333333333</ele><time>2026-03-24T03:55:22.729Z</time></trkpt><trkpt lat="-36.7032135" lon="174.5839844"><ele>97.66666666666666</ele><time>2026-03-24T03:55:25.729Z</time></trkpt><trkpt lat="-36.7032949" lon="174.5839537"><ele>97.5</ele><time>2026-03-24T03:55:27.728Z</time></trkpt><trkpt lat="-36.7033529" lon="174.5840046"><ele>97.33333333333334</ele><time>2026-03-24T03:55:29.729Z</time></trkpt><trkpt lat="-36.703432" lon="174.5840144"><ele>97.16666666666667</ele><time>2026-03-24T03:55:32.728Z</time></trkpt><trkpt lat="-36.7034845" lon="174.5839088"><ele>97.0</ele><time>2026-03-24T03:55:34.729Z</time></trkpt><trkpt lat="-36.7035215" lon="174.5838297"><ele>97.0</ele><time>2026-03-24T03:55:36.729Z</time></trkpt><trkpt lat="-36.7035752" lon="174.5837598"><ele>97.0</ele><time>2026-03-24T03:55:39.728Z</time></trkpt><trkpt lat="-36.7036444" lon="174.5837415"><ele>97.0</ele><time>2026-03-24T03:55:42.728Z</time></trkpt><trkpt lat="-36.7037069" lon="174.5837564"><ele>97.0</ele><time>2026-03-24T03:55:44.729Z</time></trkpt><trkpt lat="-36.7037812" lon="174.583787"><ele>97.0</ele><time>2026-03-24T03:55:46.728Z</time></trkpt><trkpt lat="-36.7038576" lon="174.5838296"><ele>97.0</ele><time>2026-03-24T03:55:48.729Z</time></trkpt><trkpt lat="-36.7039278" lon="174.5838585"><ele>97.0</ele><time>2026-03-24T03:55:50.729Z</time></trkpt><trkpt lat="-36.7039914" lon="174.5838992"><ele>96.33333333333334</ele><time>2026-03-24T03:55:52.728Z</time></trkpt><trkpt lat="-36.7040511" lon="174.5839499"><ele>95.66666666666667</ele><time>2026-03-24T03:55:56.728Z</time></trkpt><trkpt lat="-36.7041174" lon="174.5840085"><ele>95.0</ele><time>2026-03-24T03:55:59.728Z</time></trkpt><trkpt lat="-36.7041617" lon="174.5840673"><ele>94.33333333333334</ele><time>2026-03-24T03:56:01.73Z</time></trkpt><trkpt lat="-36.7042225" lon="174.5841211"><ele>93.66666666666667</ele><time>2026-03-24T03:56:03.729Z</time></trkpt><trkpt lat="-36.7042908" lon="174.5841977"><ele>93.0</ele><time>2026-03-24T03:56:06.728Z</time></trkpt><trkpt lat="-36.7043349" lon="174.5842609"><ele>93.0</ele><time>2026-03-24T03:56:08.73Z</time></trkpt><trkpt lat="-36.7043715" lon="174.5843742"><ele>93.0</ele><time>2026-03-24T03:56:11.729Z</time></trkpt><trkpt lat="-36.7044213" lon="174.5844695"><ele>93.0</ele><time>2026-03-24T03:56:13.73Z</time></trkpt><trkpt lat="-36.7044473" lon="174.5845568"><ele>93.0</ele><time>2026-03-24T03:56:15.73Z</time></trkpt><trkpt lat="-36.7044657" lon="174.5846604"><ele>93.0</ele><time>2026-03-24T03:56:17.73Z</time></trkpt><trkpt lat="-36.7045" lon="174.5847595"><ele>93.0</ele><time>2026-03-24T03:56:19.73Z</time></trkpt><trkpt lat="-36.7045437" lon="174.584845"><ele>93.5</ele><time>2026-03-24T03:56:21.729Z</time></trkpt><trkpt lat="-36.7045906" lon="174.5849271"><ele>94.0</ele><time>2026-03-24T03:56:23.729Z</time></trkpt><trkpt lat="-36.7046497" lon="174.5850187"><ele>94.5</ele><time>2026-03-24T03:56:25.728Z</time></trkpt><trkpt lat="-36.7047028" lon="174.5850992"><ele>95.0</ele><time>2026-03-24T03:56:27.728Z</time></trkpt><trkpt lat="-36.7047368" lon="174.5852023"><ele>95.5</ele><time>2026-03-24T03:56:29.728Z</time></trkpt><trkpt lat="-36.7047679" lon="174.5853208"><ele>96.0</ele><time>2026-03-24T03:56:31.729Z</time></trkpt><trkpt lat="-36.7047951" lon="174.5854291"><ele>96.83333333333333</ele><time>2026-03-24T03:56:33.728Z</time></trkpt><trkpt lat="-36.7048065" lon="174.5855406"><ele>97.66666666666666</ele><time>2026-03-24T03:56:35.729Z</time></trkpt><trkpt lat="-36.7048067" lon="174.5856466"><ele>98.5</ele><time>2026-03-24T03:56:37.728Z</time></trkpt><trkpt lat="-36.7047985" lon="174.5857568"><ele>99.33333333333333</ele><time>2026-03-24T03:56:39.729Z</time></trkpt><trkpt lat="-36.7047973" lon="174.5858577"><ele>100.16666666666666</ele><time>2026-03-24T03:56:41.729Z</time></trkpt><trkpt lat="-36.7047868" lon="174.5859489"><ele>101.0</ele><time>2026-03-24T03:56:43.729Z</time></trkpt><trkpt lat="-36.7048111" lon="174.5860586"><ele>100.99999999999999</ele><time>2026-03-24T03:56:46.73Z</time></trkpt><trkpt lat="-36.7048243" lon="174.5861487"><ele>101.0</ele><time>2026-03-24T03:56:48.728Z</time></trkpt><trkpt lat="-36.7048408" lon="174.5862598"><ele>101.0</ele><time>2026-03-24T03:56:51.729Z</time></trkpt><trkpt lat="-36.7048639" lon="174.5863532"><ele>101.0</ele><time>2026-03-24T03:56:53.728Z</time></trkpt><trkpt lat="-36.7049097" lon="174.5864288"><ele>100.99999999999999</ele><time>2026-03-24T03:56:56.729Z</time></trkpt><trkpt lat="-36.7049467" lon="174.5865266"><ele>101.0</ele><time>2026-03-24T03:56:59.728Z</time></trkpt><trkpt lat="-36.7049785" lon="174.5865973"><ele>101.99999999999999</ele><time>2026-03-24T03:57:01.729Z</time></trkpt><trkpt lat="-36.7050069" lon="174.5866987"><ele>103.0</ele><time>2026-03-24T03:57:04.728Z</time></trkpt><trkpt lat="-36.7050232" lon="174.5868073"><ele>104.0</ele><time>2026-03-24T03:57:07.729Z</time></trkpt><trkpt lat="-36.705029" lon="174.5869166"><ele>105.0</ele><time>2026-03-24T03:57:10.728Z</time></trkpt><trkpt lat="-36.7050274" lon="174.5870049"><ele>105.99999999999999</ele><time>2026-03-24T03:57:12.728Z</time></trkpt><trkpt lat="-36.7050236" lon="174.587089"><ele>107.0</ele><time>2026-03-24T03:57:14.728Z</time></trkpt><trkpt lat="-36.7050072" lon="174.5871656"><ele>107.00000000000001</ele><time>2026-03-24T03:57:16.728Z</time></trkpt><trkpt lat="-36.7050063" lon="174.5872568"><ele>107.0</ele><time>2026-03-24T03:57:19.729Z</time></trkpt><trkpt lat="-36.7049998" lon="174.5873351"><ele>107.0</ele><time>2026-03-24T03:57:21.73Z</time></trkpt><trkpt lat="-36.7049583" lon="174.5874304"><ele>107.0</ele><time>2026-03-24T03:57:24.73Z</time></trkpt><trkpt lat="-36.7049573" lon="174.5875261"><ele>107.0</ele><time>2026-03-24T03:57:27.731Z</time></trkpt><trkpt lat="-36.7049824" lon="174.5876134"><ele>107.00000000000001</ele><time>2026-03-24T03:57:30.73Z</time></trkpt><trkpt lat="-36.7050149" lon="174.5876822"><ele>107.0</ele><time>2026-03-24T03:57:33.729Z</time></trkpt><trkpt lat="-36.7050123" lon="174.5877635"><ele>106.66666666666666</ele><time>2026-03-24T03:57:36.729Z</time></trkpt><trkpt lat="-36.7050179" lon="174.5878516"><ele>106.33333333333333</ele><time>2026-03-24T03:57:39.73Z</time></trkpt><trkpt lat="-36.7050324" lon="174.5879373"><ele>106.0</ele><time>2026-03-24T03:57:42.731Z</time></trkpt><trkpt lat="-36.7050579" lon="174.5880124"><ele>105.66666666666666</ele><time>2026-03-24T03:57:45.729Z</time></trkpt><trkpt lat="-36.7050974" lon="174.5880963"><ele>105.33333333333333</ele><time>2026-03-24T03:57:48.729Z</time></trkpt><trkpt lat="-36.7051731" lon="174.5881523"><ele>105.0</ele><time>2026-03-24T03:57:51.729Z</time></trkpt><trkpt lat="-36.7052419" lon="174.5882173"><ele>105.66666666666667</ele><time>2026-03-24T03:57:54.729Z</time></trkpt><trkpt lat="-36.7053179" lon="174.5882667"><ele>106.33333333333334</ele><time>2026-03-24T03:57:57.729Z</time></trkpt><trkpt lat="-36.7053958" lon="174.5883196"><ele>107.0</ele><time>2026-03-24T03:58:28.729Z</time></trkpt><trkpt lat="-36.7054659" lon="174.5883478"><ele>107.66666666666667</ele><time>2026-03-24T03:58:31.731Z</time></trkpt><trkpt lat="-36.7055521" lon="174.5883699"><ele>108.33333333333334</ele><time>2026-03-24T03:58:33.73Z</time></trkpt><trkpt lat="-36.7056222" lon="174.5884213"><ele>109.0</ele><time>2026-03-24T03:58:34.729Z</time></trkpt><trkpt lat="-36.7056807" lon="174.58848"><ele>109.0</ele><time>2026-03-24T03:58:36.73Z</time></trkpt><trkpt lat="-36.7057306" lon="174.5885548"><ele>109.0</ele><time>2026-03-24T03:58:38.729Z</time></trkpt><trkpt lat="-36.7057895" lon="174.5886032"><ele>109.0</ele><time>2026-03-24T03:58:40.729Z</time></trkpt><trkpt lat="-36.7058325" lon="174.5886627"><ele>109.0</ele><time>2026-03-24T03:58:42.73Z</time></trkpt><trkpt lat="-36.7058705" lon="174.58873"><ele>109.0</ele><time>2026-03-24T03:58:44.73Z</time></trkpt><trkpt lat="-36.7058973" lon="174.5888022"><ele>109.0</ele><time>2026-03-24T03:58:46.729Z</time></trkpt><trkpt lat="-36.7059233" lon="174.5888888"><ele>109.0</ele><time>2026-03-24T03:58:48.731Z</time></trkpt><trkpt lat="-36.7059375" lon="174.5889768"><ele>110.0</ele><time>2026-03-24T03:58:50.729Z</time></trkpt><trkpt lat="-36.7059601" lon="174.5890601"><ele>111.0</ele><time>2026-03-24T03:58:52.729Z</time></trkpt><trkpt lat="-36.7059855" lon="174.5891443"><ele>112.0</ele><time>2026-03-24T03:58:54.729Z</time></trkpt><trkpt lat="-36.7059932" lon="174.5892248"><ele>113.0</ele><time>2026-03-24T03:58:56.729Z</time></trkpt><trkpt lat="-36.7059927" lon="174.5893209"><ele>114.0</ele><time>2026-03-24T03:58:59.728Z</time></trkpt><trkpt lat="-36.706005" lon="174.5894059"><ele>115.00000000000001</ele><time>2026-03-24T03:59:02.728Z</time></trkpt><trkpt lat="-36.7060145" lon="174.5895134"><ele>116.00000000000001</ele><time>2026-03-24T03:59:05.729Z</time></trkpt><trkpt lat="-36.7060464" lon="174.5895909"><ele>117.49999999999999</ele><time>2026-03-24T03:59:07.728Z</time></trkpt><trkpt lat="-36.7061107" lon="174.5896667"><ele>119.0</ele><time>2026-03-24T03:59:10.728Z</time></trkpt><trkpt lat="-36.7061615" lon="174.589719"><ele>120.5</ele><time>2026-03-24T03:59:12.729Z</time></trkpt><trkpt lat="-36.7062331" lon="174.5897959"><ele>122.0</ele><time>2026-03-24T03:59:15.728Z</time></trkpt><trkpt lat="-36.7062848" lon="174.5898512"><ele>123.49999999999999</ele><time>2026-03-24T03:59:17.729Z</time></trkpt><trkpt lat="-36.7063269" lon="174.5899151"><ele>125.0</ele><time>2026-03-24T03:59:19.729Z</time></trkpt><trkpt lat="-36.7063477" lon="174.5900134"><ele>125.0</ele><time>2026-03-24T03:59:22.728Z</time></trkpt><trkpt lat="-36.7063469" lon="174.5901062"><ele>125.0</ele><time>2026-03-24T03:59:24.728Z</time></trkpt><trkpt lat="-36.706352" lon="174.5901851"><ele>125.0</ele><time>2026-03-24T03:59:26.729Z</time></trkpt><trkpt lat="-36.7063484" lon="174.5902906"><ele>125.0</ele><time>2026-03-24T03:59:29.729Z</time></trkpt><trkpt lat="-36.7063472" lon="174.5904009"><ele>125.0</ele><time>2026-03-24T03:59:32.729Z</time></trkpt><trkpt lat="-36.706343" lon="174.5904803"><ele>125.0</ele><time>2026-03-24T03:59:34.728Z</time></trkpt><trkpt lat="-36.7063325" lon="174.5905615"><ele>125.0</ele><time>2026-03-24T03:59:36.728Z</time></trkpt><trkpt lat="-36.706312" lon="174.5906762"><ele>126.49999999999999</ele><time>2026-03-24T03:59:39.728Z</time></trkpt><trkpt lat="-36.7062886" lon="174.5907799"><ele>128.0</ele><time>2026-03-24T03:59:42.728Z</time></trkpt><trkpt lat="-36.7062874" lon="174.5908907"><ele>129.5</ele><time>2026-03-24T03:59:45.728Z</time></trkpt><trkpt lat="-36.7062759" lon="174.5909701"><ele>131.0</ele><time>2026-03-24T03:59:47.729Z</time></trkpt><trkpt lat="-36.7062632" lon="174.591048"><ele>132.5</ele><time>2026-03-24T03:59:49.728Z</time></trkpt><trkpt lat="-36.7062511" lon="174.5911633"><ele>134.0</ele><time>2026-03-24T03:59:52.729Z</time></trkpt><trkpt lat="-36.7062375" lon="174.591253"><ele>135.5</ele><time>2026-03-24T03:59:54.729Z</time></trkpt><trkpt lat="-36.706222" lon="174.5913317"><ele>137.0</ele><time>2026-03-24T03:59:56.729Z</time></trkpt><trkpt lat="-36.7062039" lon="174.5914177"><ele>138.5</ele><time>2026-03-24T03:59:58.73Z</time></trkpt><trkpt lat="-36.7061878" lon="174.5915322"><ele>140.0</ele><time>2026-03-24T04:00:01.728Z</time></trkpt><trkpt lat="-36.7061745" lon="174.5916267"><ele>141.5</ele><time>2026-03-24T04:00:04.729Z</time></trkpt><trkpt lat="-36.7061377" lon="174.5917033"><ele>143.0</ele><time>2026-03-24T04:00:07.728Z</time></trkpt><trkpt lat="-36.7061002" lon="174.5918053"><ele>143.0</ele><time>2026-03-24T04:00:10.728Z</time></trkpt><trkpt lat="-36.7060844" lon="174.5918867"><ele>143.0</ele><time>2026-03-24T04:00:12.728Z</time></trkpt><trkpt lat="-36.7060675" lon="174.5919964"><ele>143.0</ele><time>2026-03-24T04:00:15.728Z</time></trkpt><trkpt lat="-36.7060569" lon="174.5920999"><ele>143.0</ele><time>2026-03-24T04:00:18.728Z</time></trkpt><trkpt lat="-36.7060387" lon="174.5921767"><ele>143.0</ele><time>2026-03-24T04:00:20.729Z</time></trkpt><trkpt lat="-36.7060107" lon="174.5922727"><ele>143.0</ele><time>2026-03-24T04:00:23.728Z</time></trkpt><trkpt lat="-36.7059853" lon="174.592347"><ele>144.28571428571428</ele><time>2026-03-24T04:00:25.728Z</time></trkpt><trkpt lat="-36.7059845" lon="174.5924306"><ele>145.57142857142856</ele><time>2026-03-24T04:00:27.729Z</time></trkpt><trkpt lat="-36.7059883" lon="174.592519"><ele>146.85714285714283</ele><time>2026-03-24T04:00:29.728Z</time></trkpt><trkpt lat="-36.7059903" lon="174.5926016"><ele>148.14285714285714</ele><time>2026-03-24T04:00:31.729Z</time></trkpt><trkpt lat="-36.7059877" lon="174.5926826"><ele>149.42857142857144</ele><time>2026-03-24T04:00:33.728Z</time></trkpt><trkpt lat="-36.7059829" lon="174.5927766"><ele>150.7142857142857</ele><time>2026-03-24T04:00:36.728Z</time></trkpt><trkpt lat="-36.7059489" lon="174.5928473"><ele>152.0</ele><time>2026-03-24T04:00:39.728Z</time></trkpt><trkpt lat="-36.7059238" lon="174.5929514"><ele>152.5</ele><time>2026-03-24T04:00:42.728Z</time></trkpt><trkpt lat="-36.7059326" lon="174.5930573"><ele>153.0</ele><time>2026-03-24T04:00:45.728Z</time></trkpt><trkpt lat="-36.7059296" lon="174.5931428"><ele>153.5</ele><time>2026-03-24T04:00:47.729Z</time></trkpt><trkpt lat="-36.705919" lon="174.5932477"><ele>154.0</ele><time>2026-03-24T04:00:50.729Z</time></trkpt><trkpt lat="-36.7059085" lon="174.593347"><ele>154.5</ele><time>2026-03-24T04:00:53.729Z</time></trkpt><trkpt lat="-36.7058906" lon="174.5934259"><ele>155.0</ele><time>2026-03-24T04:00:55.729Z</time></trkpt><trkpt lat="-36.7058508" lon="174.5934935"><ele>155.0</ele><time>2026-03-24T04:00:57.729Z</time></trkpt><trkpt lat="-36.705843" lon="174.5935791"><ele>155.0</ele><time>2026-03-24T04:01:00.729Z</time></trkpt><trkpt lat="-36.7058417" lon="174.593686"><ele>155.0</ele><time>2026-03-24T04:01:04.729Z</time></trkpt><trkpt lat="-36.7058505" lon="174.5937905"><ele>155.0</ele><time>2026-03-24T04:01:07.728Z</time></trkpt><trkpt lat="-36.7058718" lon="174.5938912"><ele>155.0</ele><time>2026-03-24T04:01:10.728Z</time></trkpt><trkpt lat="-36.7058876" lon="174.5939693"><ele>155.0</ele><time>2026-03-24T04:01:13.729Z</time></trkpt><trkpt lat="-36.7059102" lon="174.5940517"><ele>154.5</ele><time>2026-03-24T04:01:16.729Z</time></trkpt><trkpt lat="-36.7059882" lon="174.594107"><ele>154.0</ele><time>2026-03-24T04:01:19.729Z</time></trkpt><trkpt lat="-36.7060552" lon="174.5941402"><ele>153.5</ele><time>2026-03-24T04:01:21.728Z</time></trkpt><trkpt lat="-36.7061306" lon="174.5941691"><ele>153.0</ele><time>2026-03-24T04:01:23.729Z</time></trkpt><trkpt lat="-36.7062043" lon="174.5941968"><ele>152.5</ele><time>2026-03-24T04:01:25.73Z</time></trkpt><trkpt lat="-36.7062785" lon="174.594218"><ele>152.0</ele><time>2026-03-24T04:01:27.729Z</time></trkpt><trkpt lat="-36.7063515" lon="174.5942382"><ele>152.0</ele><time>2026-03-24T04:01:29.728Z</time></trkpt><trkpt lat="-36.7064212" lon="174.5942648"><ele>152.0</ele><time>2026-03-24T04:01:31.729Z</time></trkpt><trkpt lat="-36.7064873" lon="174.594297"><ele>152.0</ele><time>2026-03-24T04:01:33.729Z</time></trkpt><trkpt lat="-36.7065524" lon="174.5943188"><ele>152.0</ele><time>2026-03-24T04:01:35.729Z</time></trkpt><trkpt lat="-36.7066208" lon="174.5943297"><ele>152.0</ele><time>2026-03-24T04:01:37.729Z</time></trkpt><trkpt lat="-36.7066863" lon="174.5943485"><ele>152.0</ele><time>2026-03-24T04:01:39.729Z</time></trkpt><trkpt lat="-36.7067581" lon="174.5943699"><ele>152.0</ele><time>2026-03-24T04:01:42.729Z</time></trkpt><trkpt lat="-36.7068168" lon="174.5943338"><ele>152.0</ele><time>2026-03-24T04:02:15.728Z</time></trkpt><trkpt lat="-36.7068339" lon="174.5942528"><ele>152.0</ele><time>2026-03-24T04:02:18.728Z</time></trkpt><trkpt lat="-36.7068704" lon="174.5941714"><ele>152.0</ele><time>2026-03-24T04:02:22.729Z</time></trkpt><trkpt lat="-36.7069069" lon="174.5940936"><ele>152.0</ele><time>2026-03-24T04:02:25.728Z</time></trkpt><trkpt lat="-36.7069006" lon="174.5940118"><ele>152.0</ele><time>2026-03-24T04:02:28.729Z</time></trkpt><trkpt lat="-36.7068387" lon="174.5939568"><ele>152.0</ele><time>2026-03-24T04:02:31.728Z</time></trkpt><trkpt lat="-36.7067699" lon="174.5939225"><ele>152.0</ele><time>2026-03-24T04:02:34.728Z</time></trkpt><trkpt lat="-36.7067421" lon="174.593835"><ele>152.0</ele><time>2026-03-24T04:02:38.729Z</time></trkpt><trkpt lat="-36.7068052" lon="174.5937611"><ele>152.0</ele><time>2026-03-24T04:02:41.728Z</time></trkpt><trkpt lat="-36.7068775" lon="174.5936865"><ele>152.0</ele><time>2026-03-24T04:02:44.729Z</time></trkpt><trkpt lat="-36.7069244" lon="174.5936304"><ele>152.0</ele><time>2026-03-24T04:02:46.729Z</time></trkpt><trkpt lat="-36.7069961" lon="174.5935563"><ele>152.0</ele><time>2026-03-24T04:02:49.729Z</time></trkpt><trkpt lat="-36.7070249" lon="174.5934638"><ele>152.0</ele><time>2026-03-24T04:02:52.728Z</time></trkpt><trkpt lat="-36.7070668" lon="174.5933906"><ele>152.28571428571428</ele><time>2026-03-24T04:02:55.728Z</time></trkpt><trkpt lat="-36.7070523" lon="174.5933058"><ele>152.57142857142858</ele><time>2026-03-24T04:02:58.728Z</time></trkpt><trkpt lat="-36.7069835" lon="174.5932878"><ele>152.85714285714286</ele><time>2026-03-24T04:03:01.729Z</time></trkpt><trkpt lat="-36.7069106" lon="174.5932705"><ele>153.14285714285714</ele><time>2026-03-24T04:03:04.728Z</time></trkpt><trkpt lat="-36.7068704" lon="174.5932053"><ele>153.42857142857144</ele><time>2026-03-24T04:03:07.73Z</time></trkpt><trkpt lat="-36.7068811" lon="174.5931095"><ele>153.71428571428572</ele><time>2026-03-24T04:03:10.729Z</time></trkpt><trkpt lat="-36.7069128" lon="174.5930309"><ele>154.0</ele><time>2026-03-24T04:03:13.728Z</time></trkpt><trkpt lat="-36.7069471" lon="174.5929609"><ele>152.83333333333334</ele><time>2026-03-24T04:03:15.729Z</time></trkpt><trkpt lat="-36.7069737" lon="174.592869"><ele>151.66666666666669</ele><time>2026-03-24T04:03:18.728Z</time></trkpt><trkpt lat="-36.7069952" lon="174.5927906"><ele>150.5</ele><time>2026-03-24T04:03:20.729Z</time></trkpt><trkpt lat="-36.7070106" lon="174.5926945"><ele>149.33333333333334</ele><time>2026-03-24T04:03:22.729Z</time></trkpt><trkpt lat="-36.7070826" lon="174.5926288"><ele>148.16666666666666</ele><time>2026-03-24T04:03:25.729Z</time></trkpt><trkpt lat="-36.707127" lon="174.5925653"><ele>147.0</ele><time>2026-03-24T04:03:27.729Z</time></trkpt><trkpt lat="-36.7071739" lon="174.5924746"><ele>146.33333333333334</ele><time>2026-03-24T04:03:30.729Z</time></trkpt><trkpt lat="-36.7071908" lon="174.5923826"><ele>145.66666666666666</ele><time>2026-03-24T04:03:33.728Z</time></trkpt><trkpt lat="-36.7071839" lon="174.5922788"><ele>145.0</ele><time>2026-03-24T04:03:37.728Z</time></trkpt><trkpt lat="-36.7071618" lon="174.5921791"><ele>144.33333333333331</ele><time>2026-03-24T04:03:40.729Z</time></trkpt><trkpt lat="-36.7071408" lon="174.5920793"><ele>143.66666666666666</ele><time>2026-03-24T04:03:43.729Z</time></trkpt><trkpt lat="-36.7071215" lon="174.5920023"><ele>143.0</ele><time>2026-03-24T04:03:45.728Z</time></trkpt><trkpt lat="-36.7070992" lon="174.5919094"><ele>142.16666666666666</ele><time>2026-03-24T04:03:48.729Z</time></trkpt><trkpt lat="-36.7070794" lon="174.5917975"><ele>141.33333333333331</ele><time>2026-03-24T04:03:51.728Z</time></trkpt><trkpt lat="-36.7070684" lon="174.5917046"><ele>140.5</ele><time>2026-03-24T04:03:54.728Z</time></trkpt><trkpt lat="-36.7070211" lon="174.5916435"><ele>139.66666666666666</ele><time>2026-03-24T04:03:57.729Z</time></trkpt><trkpt lat="-36.7069782" lon="174.5915509"><ele>138.83333333333334</ele><time>2026-03-24T04:04:00.729Z</time></trkpt><trkpt lat="-36.7069542" lon="174.5914703"><ele>138.0</ele><time>2026-03-24T04:04:02.73Z</time></trkpt><trkpt lat="-36.7069414" lon="174.5913641"><ele>138.0</ele><time>2026-03-24T04:04:04.728Z</time></trkpt><trkpt lat="-36.7069249" lon="174.5912616"><ele>138.0</ele><time>2026-03-24T04:04:06.728Z</time></trkpt><trkpt lat="-36.7068841" lon="174.5911588"><ele>138.0</ele><time>2026-03-24T04:04:09.728Z</time></trkpt><trkpt lat="-36.7068723" lon="174.5910318"><ele>138.0</ele><time>2026-03-24T04:04:11.728Z</time></trkpt><trkpt lat="-36.7068533" lon="174.5909284"><ele>138.0</ele><time>2026-03-24T04:04:13.728Z</time></trkpt><trkpt lat="-36.706819" lon="174.5908124"><ele>137.33333333333334</ele><time>2026-03-24T04:04:15.729Z</time></trkpt><trkpt lat="-36.7068017" lon="174.5907138"><ele>136.66666666666666</ele><time>2026-03-24T04:04:17.728Z</time></trkpt><trkpt lat="-36.7067649" lon="174.5906154"><ele>136.0</ele><time>2026-03-24T04:04:20.728Z</time></trkpt><trkpt lat="-36.7067166" lon="174.5905081"><ele>135.33333333333331</ele><time>2026-03-24T04:04:23.728Z</time></trkpt><trkpt lat="-36.7067021" lon="174.5903977"><ele>134.66666666666666</ele><time>2026-03-24T04:04:26.728Z</time></trkpt><trkpt lat="-36.7067216" lon="174.5903087"><ele>134.0</ele><time>2026-03-24T04:04:28.729Z</time></trkpt><trkpt lat="-36.706729" lon="174.5902165"><ele>132.5</ele><time>2026-03-24T04:04:30.728Z</time></trkpt><trkpt lat="-36.7067333" lon="174.5901094"><ele>131.0</ele><time>2026-03-24T04:04:32.728Z</time></trkpt><trkpt lat="-36.7067038" lon="174.590024"><ele>129.5</ele><time>2026-03-24T04:04:34.728Z</time></trkpt><trkpt lat="-36.7066749" lon="174.5899444"><ele>128.0</ele><time>2026-03-24T04:04:36.728Z</time></trkpt><trkpt lat="-36.7066446" lon="174.589839"><ele>126.49999999999999</ele><time>2026-03-24T04:04:39.728Z</time></trkpt><trkpt lat="-36.7066" lon="174.5897292"><ele>125.0</ele><time>2026-03-24T04:04:42.728Z</time></trkpt><trkpt lat="-36.7065713" lon="174.5896403"><ele>124.99999999999999</ele><time>2026-03-24T04:04:44.728Z</time></trkpt><trkpt lat="-36.7065536" lon="174.5895522"><ele>125.0</ele><time>2026-03-24T04:04:47.728Z</time></trkpt><trkpt lat="-36.7065683" lon="174.5894721"><ele>125.0</ele><time>2026-03-24T04:04:50.729Z</time></trkpt><trkpt lat="-36.7065491" lon="174.5893676"><ele>125.0</ele><time>2026-03-24T04:04:53.729Z</time></trkpt><trkpt lat="-36.7065345" lon="174.5892651"><ele>124.99999999999999</ele><time>2026-03-24T04:04:55.728Z</time></trkpt><trkpt lat="-36.7065078" lon="174.5891677"><ele>125.0</ele><time>2026-03-24T04:04:57.728Z</time></trkpt><trkpt lat="-36.7064847" lon="174.5890709"><ele>124.42857142857142</ele><time>2026-03-24T04:04:59.729Z</time></trkpt><trkpt lat="-36.7064537" lon="174.5889997"><ele>123.85714285714286</ele><time>2026-03-24T04:05:01.728Z</time></trkpt><trkpt lat="-36.7063948" lon="174.5889367"><ele>123.28571428571428</ele><time>2026-03-24T04:05:04.728Z</time></trkpt><trkpt lat="-36.7063407" lon="174.5888878"><ele>122.71428571428571</ele><time>2026-03-24T04:05:06.728Z</time></trkpt><trkpt lat="-36.7062831" lon="174.5888442"><ele>122.14285714285714</ele><time>2026-03-24T04:05:08.728Z</time></trkpt><trkpt lat="-36.7062041" lon="174.588805"><ele>121.57142857142857</ele><time>2026-03-24T04:05:11.729Z</time></trkpt><trkpt lat="-36.7061497" lon="174.5887596"><ele>121.0</ele><time>2026-03-24T04:05:13.728Z</time></trkpt><trkpt lat="-36.7061129" lon="174.5886852"><ele>120.16666666666667</ele><time>2026-03-24T04:05:15.728Z</time></trkpt><trkpt lat="-36.7060837" lon="174.5886067"><ele>119.33333333333334</ele><time>2026-03-24T04:05:17.728Z</time></trkpt><trkpt lat="-36.7060479" lon="174.5885325"><ele>118.5</ele><time>2026-03-24T04:05:19.729Z</time></trkpt><trkpt lat="-36.7059892" lon="174.5884983"><ele>117.66666666666666</ele><time>2026-03-24T04:05:22.728Z</time></trkpt><trkpt lat="-36.7059082" lon="174.5884869"><ele>116.83333333333333</ele><time>2026-03-24T04:05:25.73Z</time></trkpt><trkpt lat="-36.7058299" lon="174.5884374"><ele>116.0</ele><time>2026-03-24T04:05:28.729Z</time></trkpt><trkpt lat="-36.7057753" lon="174.5883513"><ele>114.83333333333333</ele><time>2026-03-24T04:05:30.729Z</time></trkpt><trkpt lat="-36.705709" lon="174.5883152"><ele>113.66666666666666</ele><time>2026-03-24T04:05:32.728Z</time></trkpt><trkpt lat="-36.7056543" lon="174.5882741"><ele>112.5</ele><time>2026-03-24T04:05:34.728Z</time></trkpt><trkpt lat="-36.7055648" lon="174.5882069"><ele>111.33333333333334</ele><time>2026-03-24T04:05:37.728Z</time></trkpt><trkpt lat="-36.7054989" lon="174.5881385"><ele>110.16666666666667</ele><time>2026-03-24T04:05:39.728Z</time></trkpt><trkpt lat="-36.7055007" lon="174.5880424"><ele>109.0</ele><time>2026-03-24T04:05:43.728Z</time></trkpt><trkpt lat="-36.7055654" lon="174.5879829"><ele>109.00000000000001</ele><time>2026-03-24T04:05:47.728Z</time></trkpt><trkpt lat="-36.7055929" lon="174.5878921"><ele>109.0</ele><time>2026-03-24T04:05:50.728Z</time></trkpt><trkpt lat="-36.7056228" lon="174.5878152"><ele>109.0</ele><time>2026-03-24T04:05:53.729Z</time></trkpt><trkpt lat="-36.705665" lon="174.587732"><ele>109.0</ele><time>2026-03-24T04:05:56.728Z</time></trkpt><trkpt lat="-36.705649" lon="174.5876292"><ele>109.00000000000001</ele><time>2026-03-24T04:06:00.729Z</time></trkpt><trkpt lat="-36.7056107" lon="174.5875602"><ele>109.0</ele><time>2026-03-24T04:06:03.728Z</time></trkpt><trkpt lat="-36.7055675" lon="174.5874647"><ele>108.85714285714286</ele><time>2026-03-24T04:06:06.728Z</time></trkpt><trkpt lat="-36.7055379" lon="174.5873781"><ele>108.71428571428572</ele><time>2026-03-24T04:06:09.728Z</time></trkpt><trkpt lat="-36.7054978" lon="174.5872811"><ele>108.57142857142857</ele><time>2026-03-24T04:06:12.729Z</time></trkpt><trkpt lat="-36.705462" lon="174.587213"><ele>108.42857142857143</ele><time>2026-03-24T04:06:15.729Z</time></trkpt><trkpt lat="-36.7054483" lon="174.5871129"><ele>108.28571428571428</ele><time>2026-03-24T04:06:18.728Z</time></trkpt><trkpt lat="-36.7054247" lon="174.5870336"><ele>108.14285714285714</ele><time>2026-03-24T04:06:21.728Z</time></trkpt><trkpt lat="-36.705393" lon="174.5869622"><ele>108.0</ele><time>2026-03-24T04:06:23.73Z</time></trkpt><trkpt lat="-36.7053718" lon="174.586886"><ele>108.0</ele><time>2026-03-24T04:06:25.728Z</time></trkpt><trkpt lat="-36.7053479" lon="174.5868092"><ele>108.0</ele><time>2026-03-24T04:06:27.728Z</time></trkpt><trkpt lat="-36.7052951" lon="174.5867331"><ele>108.0</ele><time>2026-03-24T04:06:30.728Z</time></trkpt><trkpt lat="-36.7052494" lon="174.5866299"><ele>108.0</ele><time>2026-03-24T04:06:33.729Z</time></trkpt><trkpt lat="-36.7052082" lon="174.5865306"><ele>108.0</ele><time>2026-03-24T04:06:36.728Z</time></trkpt><trkpt lat="-36.7051641" lon="174.5864497"><ele>108.0</ele><time>2026-03-24T04:06:38.728Z</time></trkpt><trkpt lat="-36.7051195" lon="174.5863795"><ele>107.83333333333333</ele><time>2026-03-24T04:06:40.728Z</time></trkpt><trkpt lat="-36.7050991" lon="174.5862863"><ele>107.66666666666666</ele><time>2026-03-24T04:06:42.729Z</time></trkpt><trkpt lat="-36.7050752" lon="174.5862024"><ele>107.5</ele><time>2026-03-24T04:06:44.728Z</time></trkpt><trkpt lat="-36.7050448" lon="174.586113"><ele>107.33333333333333</ele><time>2026-03-24T04:06:46.729Z</time></trkpt><trkpt lat="-36.7050342" lon="174.586021"><ele>107.16666666666666</ele><time>2026-03-24T04:07:01.728Z</time></trkpt><trkpt lat="-36.7051195" lon="174.5860332"><ele>107.0</ele><time>2026-03-24T04:07:05.728Z</time></trkpt><trkpt lat="-36.7051897" lon="174.5860435"><ele>105.99999999999999</ele><time>2026-03-24T04:07:09.729Z</time></trkpt><trkpt lat="-36.7052443" lon="174.5859986"><ele>105.0</ele><time>2026-03-24T04:07:20.727Z</time></trkpt><trkpt lat="-36.7053196" lon="174.5859885"><ele>104.0</ele><time>2026-03-24T04:07:35.727Z</time></trkpt><trkpt lat="-36.7053728" lon="174.5859386"><ele>103.0</ele><time>2026-03-24T04:07:38.729Z</time></trkpt><trkpt lat="-36.7054427" lon="174.585879"><ele>101.99999999999999</ele><time>2026-03-24T04:07:40.728Z</time></trkpt><trkpt lat="-36.7055344" lon="174.5858245"><ele>101.0</ele><time>2026-03-24T04:07:42.729Z</time></trkpt><trkpt lat="-36.7055914" lon="174.5857598"><ele>100.83333333333333</ele><time>2026-03-24T04:07:44.728Z</time></trkpt><trkpt lat="-36.7056279" lon="174.585684"><ele>100.66666666666666</ele><time>2026-03-24T04:07:46.728Z</time></trkpt><trkpt lat="-36.7056432" lon="174.5855966"><ele>100.5</ele><time>2026-03-24T04:07:48.728Z</time></trkpt><trkpt lat="-36.7056499" lon="174.5855062"><ele>100.33333333333334</ele><time>2026-03-24T04:07:50.728Z</time></trkpt><trkpt lat="-36.7057069" lon="174.5854141"><ele>100.16666666666667</ele><time>2026-03-24T04:07:53.728Z</time></trkpt><trkpt lat="-36.705786" lon="174.5853523"><ele>100.0</ele><time>2026-03-24T04:07:56.728Z</time></trkpt><trkpt lat="-36.7058374" lon="174.5853003"><ele>99.83333333333334</ele><time>2026-03-24T04:07:58.728Z</time></trkpt><trkpt lat="-36.7058938" lon="174.5852614"><ele>99.66666666666667</ele><time>2026-03-24T04:08:00.729Z</time></trkpt><trkpt lat="-36.7059603" lon="174.5852704"><ele>99.5</ele><time>2026-03-24T04:08:04.729Z</time></trkpt><trkpt lat="-36.7060158" lon="174.5853159"><ele>99.33333333333334</ele><time>2026-03-24T04:08:07.728Z</time></trkpt><trkpt lat="-36.7060886" lon="174.5852756"><ele>99.16666666666667</ele><time>2026-03-24T04:08:10.728Z</time></trkpt><trkpt lat="-36.7060965" lon="174.585161"><ele>99.0</ele><time>2026-03-24T04:08:13.73Z</time></trkpt><trkpt lat="-36.7061088" lon="174.5850469"><ele>99.0</ele><time>2026-03-24T04:08:16.728Z</time></trkpt><trkpt lat="-36.706134" lon="174.5849579"><ele>99.0</ele><time>2026-03-24T04:08:19.727Z</time></trkpt><trkpt lat="-36.7061692" lon="174.5848595"><ele>99.0</ele><time>2026-03-24T04:08:22.728Z</time></trkpt><trkpt lat="-36.706213" lon="174.5847991"><ele>99.0</ele><time>2026-03-24T04:08:24.728Z</time></trkpt><trkpt lat="-36.7062744" lon="174.5847731"><ele>99.0</ele><time>2026-03-24T04:08:26.728Z</time></trkpt><trkpt lat="-36.706349" lon="174.5847655"><ele>99.0</ele><time>2026-03-24T04:08:28.728Z</time></trkpt><trkpt lat="-36.7064137" lon="174.5847459"><ele>99.0</ele><time>2026-03-24T04:08:31.729Z</time></trkpt><trkpt lat="-36.7064643" lon="174.5846991"><ele>99.0</ele><time>2026-03-24T04:08:34.728Z</time></trkpt><trkpt lat="-36.7064832" lon="174.584606"><ele>99.0</ele><time>2026-03-24T04:08:38.729Z</time></trkpt><trkpt lat="-36.7064731" lon="174.5845222"><ele>99.0</ele><time>2026-03-24T04:08:41.728Z</time></trkpt><trkpt lat="-36.7063948" lon="174.5844721"><ele>99.0</ele><time>2026-03-24T04:08:44.727Z</time></trkpt><trkpt lat="-36.7063119" lon="174.5844634"><ele>99.0</ele><time>2026-03-24T04:08:46.728Z</time></trkpt><trkpt lat="-36.7062536" lon="174.5844297"><ele>99.0</ele><time>2026-03-24T04:08:48.728Z</time></trkpt><trkpt lat="-36.7061675" lon="174.5843931"><ele>97.71428571428572</ele><time>2026-03-24T04:08:51.73Z</time></trkpt><trkpt lat="-36.7061046" lon="174.584365"><ele>96.42857142857142</ele><time>2026-03-24T04:08:53.728Z</time></trkpt><trkpt lat="-36.7060314" lon="174.5843315"><ele>95.14285714285714</ele><time>2026-03-24T04:08:56.728Z</time></trkpt><trkpt lat="-36.7059491" lon="174.5842872"><ele>93.85714285714286</ele><time>2026-03-24T04:08:59.728Z</time></trkpt><trkpt lat="-36.7059311" lon="174.5841927"><ele>92.57142857142858</ele><time>2026-03-24T04:09:02.729Z</time></trkpt><trkpt lat="-36.7058906" lon="174.5841287"><ele>91.28571428571428</ele><time>2026-03-24T04:09:05.728Z</time></trkpt><trkpt lat="-36.7058392" lon="174.5840727"><ele>90.0</ele><time>2026-03-24T04:09:08.728Z</time></trkpt><trkpt lat="-36.7057755" lon="174.5840361"><ele>90.0</ele><time>2026-03-24T04:09:10.728Z</time></trkpt><trkpt lat="-36.7057153" lon="174.5839811"><ele>90.0</ele><time>2026-03-24T04:09:13.728Z</time></trkpt><trkpt lat="-36.7056934" lon="174.5838992"><ele>90.0</ele><time>2026-03-24T04:09:15.729Z</time></trkpt><trkpt lat="-36.7056461" lon="174.5838252"><ele>90.0</ele><time>2026-03-24T04:09:17.729Z</time></trkpt><trkpt lat="-36.70558" lon="174.583818"><ele>90.0</ele><time>2026-03-24T04:09:19.727Z</time></trkpt><trkpt lat="-36.7055163" lon="174.5838224"><ele>90.0</ele><time>2026-03-24T04:09:21.728Z</time></trkpt><trkpt lat="-36.7054352" lon="174.5837927"><ele>90.0</ele><time>2026-03-24T04:09:24.728Z</time></trkpt><trkpt lat="-36.7053989" lon="174.583717"><ele>89.66666666666667</ele><time>2026-03-24T04:09:26.728Z</time></trkpt><trkpt lat="-36.7053714" lon="174.5836236"><ele>89.33333333333333</ele><time>2026-03-24T04:09:28.729Z</time></trkpt><trkpt lat="-36.7053246" lon="174.5835361"><ele>89.0</ele><time>2026-03-24T04:09:30.728Z</time></trkpt><trkpt lat="-36.7052589" lon="174.5834944"><ele>88.66666666666666</ele><time>2026-03-24T04:09:32.729Z</time></trkpt><trkpt lat="-36.7052093" lon="174.5833998"><ele>88.33333333333333</ele><time>2026-03-24T04:09:35.727Z</time></trkpt><trkpt lat="-36.7051424" lon="174.5833355"><ele>88.0</ele><time>2026-03-24T04:09:38.729Z</time></trkpt><trkpt lat="-36.7050796" lon="174.5833523"><ele>88.0</ele><time>2026-03-24T04:09:40.728Z</time></trkpt><trkpt lat="-36.7049955" lon="174.5833447"><ele>88.0</ele><time>2026-03-24T04:09:43.727Z</time></trkpt><trkpt lat="-36.7049264" lon="174.5833028"><ele>88.0</ele><time>2026-03-24T04:09:45.728Z</time></trkpt><trkpt lat="-36.7048476" lon="174.5832931"><ele>88.0</ele><time>2026-03-24T04:09:47.728Z</time></trkpt><trkpt lat="-36.7047714" lon="174.5832795"><ele>88.0</ele><time>2026-03-24T04:09:49.728Z</time></trkpt><trkpt lat="-36.7047152" lon="174.583228"><ele>88.0</ele><time>2026-03-24T04:09:51.727Z</time></trkpt><trkpt lat="-36.7046319" lon="174.5831878"><ele>88.0</ele><time>2026-03-24T04:09:54.729Z</time></trkpt><trkpt lat="-36.7045671" lon="174.5832086"><ele>88.0</ele><time>2026-03-24T04:09:56.729Z</time></trkpt><trkpt lat="-36.7045028" lon="174.5832215"><ele>88.0</ele><time>2026-03-24T04:09:58.729Z</time></trkpt><trkpt lat="-36.704413" lon="174.583199"><ele>88.0</ele><time>2026-03-24T04:10:00.728Z</time></trkpt><trkpt lat="-36.7043419" lon="174.5831358"><ele>88.0</ele><time>2026-03-24T04:10:02.728Z</time></trkpt><trkpt lat="-36.70429" lon="174.5830861"><ele>88.0</ele><time>2026-03-24T04:10:04.728Z</time></trkpt><trkpt lat="-36.7042255" lon="174.5830585"><ele>88.0</ele><time>2026-03-24T04:10:06.729Z</time></trkpt><trkpt lat="-36.7041616" lon="174.5829765"><ele>87.5</ele><time>2026-03-24T04:10:09.727Z</time></trkpt><trkpt lat="-36.7041542" lon="174.5828655"><ele>87.0</ele><time>2026-03-24T04:10:12.728Z</time></trkpt><trkpt lat="-36.7041797" lon="174.5827688"><ele>86.5</ele><time>2026-03-24T04:10:15.729Z</time></trkpt><trkpt lat="-36.7041506" lon="174.5826715"><ele>86.0</ele><time>2026-03-24T04:10:18.728Z</time></trkpt><trkpt lat="-36.7041121" lon="174.5825621"><ele>85.5</ele><time>2026-03-24T04:10:20.729Z</time></trkpt><trkpt lat="-36.7040767" lon="174.5824912"><ele>85.0</ele><time>2026-03-24T04:10:22.729Z</time></trkpt><trkpt lat="-36.7040557" lon="174.5824083"><ele>85.0</ele><time>2026-03-24T04:10:24.729Z</time></trkpt><trkpt lat="-36.704045" lon="174.5823215"><ele>85.0</ele><time>2026-03-24T04:10:26.729Z</time></trkpt><trkpt lat="-36.7039969" lon="174.58225"><ele>85.0</ele><time>2026-03-24T04:10:29.728Z</time></trkpt><trkpt lat="-36.7039311" lon="174.5821922"><ele>85.0</ele><time>2026-03-24T04:10:32.728Z</time></trkpt><trkpt lat="-36.7039345" lon="174.5820822"><ele>85.0</ele><time>2026-03-24T04:10:35.728Z</time></trkpt><trkpt lat="-36.703886" lon="174.5819802"><ele>85.0</ele><time>2026-03-24T04:10:38.728Z</time></trkpt><trkpt lat="-36.7038293" lon="174.5819414"><ele>85.0</ele><time>2026-03-24T04:10:40.728Z</time></trkpt><trkpt lat="-36.7037677" lon="174.5819149"><ele>85.0</ele><time>2026-03-24T04:10:42.729Z</time></trkpt><trkpt lat="-36.7038006" lon="174.5818365"><ele>85.0</ele><time>2026-03-24T04:10:48.73Z</time></trkpt><trkpt lat="-36.7038538" lon="174.5817905"><ele>85.0</ele><time>2026-03-24T04:10:51.729Z</time></trkpt><trkpt lat="-36.7038705" lon="174.5816911"><ele>85.0</ele><time>2026-03-24T04:10:55.728Z</time></trkpt><trkpt lat="-36.7038664" lon="174.5815971"><ele>85.0</ele><time>2026-03-24T04:10:59.728Z</time></trkpt><trkpt lat="-36.7038305" lon="174.5815296"><ele>85.0</ele><time>2026-03-24T04:11:02.728Z</time></trkpt><trkpt lat="-36.7037786" lon="174.5814767"><ele>85.0</ele><time>2026-03-24T04:11:04.729Z</time></trkpt><trkpt lat="-36.7037152" lon="174.5813998"><ele>85.0</ele><time>2026-03-24T04:11:07.729Z</time></trkpt><trkpt lat="-36.703683" lon="174.5813305"><ele>85.0</ele><time>2026-03-24T04:11:09.727Z</time></trkpt><trkpt lat="-36.7036383" lon="174.5812623"><ele>85.0</ele><time>2026-03-24T04:11:11.728Z</time></trkpt><trkpt lat="-36.7035717" lon="174.5812004"><ele>85.0</ele><time>2026-03-24T04:11:14.727Z</time></trkpt><trkpt lat="-36.7034966" lon="174.581151"><ele>85.0</ele><time>2026-03-24T04:11:17.729Z</time></trkpt><trkpt lat="-36.7034295" lon="174.5811131"><ele>86.66666666666666</ele><time>2026-03-24T04:11:19.727Z</time></trkpt><trkpt lat="-36.7033694" lon="174.5810405"><ele>88.33333333333333</ele><time>2026-03-24T04:11:21.728Z</time></trkpt><trkpt lat="-36.7033058" lon="174.580954"><ele>90.0</ele><time>2026-03-24T04:11:23.727Z</time></trkpt><trkpt lat="-36.7032253" lon="174.5809018"><ele>91.66666666666667</ele><time>2026-03-24T04:11:25.729Z</time></trkpt><trkpt lat="-36.703144" lon="174.5808626"><ele>93.33333333333334</ele><time>2026-03-24T04:11:27.729Z</time></trkpt><trkpt lat="-36.7030632" lon="174.5808109"><ele>95.0</ele><time>2026-03-24T04:11:30.728Z</time></trkpt><trkpt lat="-36.7030353" lon="174.5807371"><ele>95.0</ele><time>2026-03-24T04:11:32.728Z</time></trkpt><trkpt lat="-36.7029813" lon="174.5806489"><ele>95.0</ele><time>2026-03-24T04:11:34.728Z</time></trkpt><trkpt lat="-36.7029265" lon="174.5805715"><ele>95.0</ele><time>2026-03-24T04:11:36.728Z</time></trkpt><trkpt lat="-36.702892" lon="174.5804982"><ele>95.0</ele><time>2026-03-24T04:11:38.728Z</time></trkpt><trkpt lat="-36.7028389" lon="174.5804075"><ele>95.0</ele><time>2026-03-24T04:11:40.728Z</time></trkpt><trkpt lat="-36.7027782" lon="174.5803452"><ele>95.0</ele><time>2026-03-24T04:11:42.729Z</time></trkpt><trkpt lat="-36.7027266" lon="174.5802501"><ele>94.0</ele><time>2026-03-24T04:11:45.73Z</time></trkpt><trkpt lat="-36.7026905" lon="174.5801841"><ele>93.0</ele><time>2026-03-24T04:11:47.728Z</time></trkpt><trkpt lat="-36.7026249" lon="174.5801149"><ele>92.0</ele><time>2026-03-24T04:11:50.729Z</time></trkpt><trkpt lat="-36.7025488" lon="174.5801265"><ele>91.0</ele><time>2026-03-24T04:11:53.728Z</time></trkpt><trkpt lat="-36.7024674" lon="174.5800662"><ele>90.0</ele><time>2026-03-24T04:11:56.727Z</time></trkpt><trkpt lat="-36.7024189" lon="174.5800109"><ele>89.0</ele><time>2026-03-24T04:11:58.728Z</time></trkpt><trkpt lat="-36.7023877" lon="174.5799152"><ele>89.0</ele><time>2026-03-24T04:12:00.729Z</time></trkpt><trkpt lat="-36.7023541" lon="174.5798289"><ele>89.0</ele><time>2026-03-24T04:12:02.728Z</time></trkpt><trkpt lat="-36.7023357" lon="174.5797493"><ele>89.0</ele><time>2026-03-24T04:12:04.728Z</time></trkpt><trkpt lat="-36.7022992" lon="174.5796732"><ele>89.0</ele><time>2026-03-24T04:12:06.728Z</time></trkpt><trkpt lat="-36.7022672" lon="174.5795958"><ele>89.0</ele><time>2026-03-24T04:12:08.727Z</time></trkpt><trkpt lat="-36.702216" lon="174.5794944"><ele>89.0</ele><time>2026-03-24T04:12:11.729Z</time></trkpt><trkpt lat="-36.7021614" lon="174.5794267"><ele>90.5</ele><time>2026-03-24T04:12:13.727Z</time></trkpt><trkpt lat="-36.702132" lon="174.5793285"><ele>92.0</ele><time>2026-03-24T04:12:15.728Z</time></trkpt><trkpt lat="-36.7021042" lon="174.5792437"><ele>93.5</ele><time>2026-03-24T04:12:17.729Z</time></trkpt><trkpt lat="-36.7020779" lon="174.5791721"><ele>95.0</ele><time>2026-03-24T04:12:19.729Z</time></trkpt><trkpt lat="-36.7020345" lon="174.5790924"><ele>96.49999999999999</ele><time>2026-03-24T04:12:22.728Z</time></trkpt><trkpt lat="-36.7020087" lon="174.5789784"><ele>98.0</ele><time>2026-03-24T04:12:25.729Z</time></trkpt><trkpt lat="-36.7019506" lon="174.5788892"><ele>97.99999999999999</ele><time>2026-03-24T04:12:27.727Z</time></trkpt><trkpt lat="-36.7019198" lon="174.5788122"><ele>98.0</ele><time>2026-03-24T04:12:29.728Z</time></trkpt><trkpt lat="-36.701916" lon="174.5787142"><ele>98.0</ele><time>2026-03-24T04:12:31.73Z</time></trkpt><trkpt lat="-36.7019181" lon="174.578635"><ele>98.0</ele><time>2026-03-24T04:12:33.728Z</time></trkpt><trkpt lat="-36.7018903" lon="174.5785468"><ele>97.99999999999999</ele><time>2026-03-24T04:12:36.728Z</time></trkpt><trkpt lat="-36.701848" lon="174.5784463"><ele>98.0</ele><time>2026-03-24T04:12:39.728Z</time></trkpt><trkpt lat="-36.7018032" lon="174.5783451"><ele>95.99999999999999</ele><time>2026-03-24T04:12:42.729Z</time></trkpt><trkpt lat="-36.7017555" lon="174.5782742"><ele>94.0</ele><time>2026-03-24T04:12:44.728Z</time></trkpt><trkpt lat="-36.7017059" lon="174.5782081"><ele>92.0</ele><time>2026-03-24T04:12:46.727Z</time></trkpt><trkpt lat="-36.701642" lon="174.5781557"><ele>90.0</ele><time>2026-03-24T04:12:47.729Z</time></trkpt><trkpt lat="-36.7015908" lon="174.5780682"><ele>88.0</ele><time>2026-03-24T04:12:50.728Z</time></trkpt><trkpt lat="-36.7015088" lon="174.5779996"><ele>86.0</ele><time>2026-03-24T04:12:52.728Z</time></trkpt><trkpt lat="-36.7014669" lon="174.5779258"><ele>87.66666666666667</ele><time>2026-03-24T04:12:55.728Z</time></trkpt><trkpt lat="-36.7014451" lon="174.577839"><ele>89.33333333333334</ele><time>2026-03-24T04:12:59.728Z</time></trkpt><trkpt lat="-36.7014816" lon="174.5777618"><ele>91.0</ele><time>2026-03-24T04:13:01.728Z</time></trkpt><trkpt lat="-36.701485" lon="174.5776566"><ele>92.66666666666667</ele><time>2026-03-24T04:13:04.729Z</time></trkpt><trkpt lat="-36.7014787" lon="174.5775752"><ele>94.33333333333333</ele><time>2026-03-24T04:13:06.729Z</time></trkpt><trkpt lat="-36.7014901" lon="174.5774664"><ele>96.0</ele><time>2026-03-24T04:13:08.729Z</time></trkpt><trkpt lat="-36.7014961" lon="174.5773595"><ele>96.0</ele><time>2026-03-24T04:13:10.727Z</time></trkpt><trkpt lat="-36.7015085" lon="174.577274"><ele>96.0</ele><time>2026-03-24T04:13:13.728Z</time></trkpt><trkpt lat="-36.7015687" lon="174.5773142"><ele>96.0</ele><time>2026-03-24T04:13:16.728Z</time></trkpt><trkpt lat="-36.7016454" lon="174.5773691"><ele>96.0</ele><time>2026-03-24T04:13:19.727Z</time></trkpt><trkpt lat="-36.7016879" lon="174.5774348"><ele>96.0</ele><time>2026-03-24T04:13:21.728Z</time></trkpt><trkpt lat="-36.7017624" lon="174.5774172"><ele>96.0</ele><time>2026-03-24T04:13:24.729Z</time></trkpt><trkpt lat="-36.7018097" lon="174.5773285"><ele>96.0</ele><time>2026-03-24T04:13:28.729Z</time></trkpt><trkpt lat="-36.7018505" lon="174.5772476"><ele>96.0</ele><time>2026-03-24T04:13:31.727Z</time></trkpt><trkpt lat="-36.7018834" lon="174.5771515"><ele>96.0</ele><time>2026-03-24T04:13:34.727Z</time></trkpt><trkpt lat="-36.7019152" lon="174.5770637"><ele>96.0</ele><time>2026-03-24T04:13:37.728Z</time></trkpt><trkpt lat="-36.7019247" lon="174.5769704"><ele>96.0</ele><time>2026-03-24T04:13:40.727Z</time></trkpt><trkpt lat="-36.7019362" lon="174.5768846"><ele>96.0</ele><time>2026-03-24T04:13:43.729Z</time></trkpt><trkpt lat="-36.7019579" lon="174.5767871"><ele>99.5</ele><time>2026-03-24T04:13:45.729Z</time></trkpt><trkpt lat="-36.7019735" lon="174.5766771"><ele>103.0</ele><time>2026-03-24T04:13:47.728Z</time></trkpt><trkpt lat="-36.7019843" lon="174.5765899"><ele>106.5</ele><time>2026-03-24T04:13:49.727Z</time></trkpt><trkpt lat="-36.7020055" lon="174.5765105"><ele>110.0</ele><time>2026-03-24T04:13:51.729Z</time></trkpt><trkpt lat="-36.7020395" lon="174.5764282"><ele>113.5</ele><time>2026-03-24T04:13:53.728Z</time></trkpt><trkpt lat="-36.7020858" lon="174.5763221"><ele>117.0</ele><time>2026-03-24T04:13:56.729Z</time></trkpt><trkpt lat="-36.7021408" lon="174.5762655"><ele>117.0</ele><time>2026-03-24T04:13:58.729Z</time></trkpt><trkpt lat="-36.7022059" lon="174.5762539"><ele>117.00000000000001</ele><time>2026-03-24T04:14:00.729Z</time></trkpt><trkpt lat="-36.7022423" lon="174.5763333"><ele>117.0</ele><time>2026-03-24T04:14:03.73Z</time></trkpt><trkpt lat="-36.7023033" lon="174.5763675"><ele>117.0</ele><time>2026-03-24T04:14:07.728Z</time></trkpt><trkpt lat="-36.702337" lon="174.5762985"><ele>117.00000000000001</ele><time>2026-03-24T04:14:10.728Z</time></trkpt><trkpt lat="-36.702383" lon="174.5762032"><ele>117.0</ele><time>2026-03-24T04:14:13.727Z</time></trkpt><trkpt lat="-36.7024466" lon="174.5761553"><ele>117.0</ele><time>2026-03-24T04:14:16.73Z</time></trkpt><trkpt lat="-36.7024544" lon="174.5762542"><ele>117.0</ele><time>2026-03-24T04:14:19.728Z</time></trkpt><trkpt lat="-36.7024342" lon="174.5763346"><ele>117.0</ele><time>2026-03-24T04:14:21.729Z</time></trkpt><trkpt lat="-36.7024247" lon="174.5764356"><ele>117.0</ele><time>2026-03-24T04:14:23.729Z</time></trkpt><trkpt lat="-36.7024388" lon="174.5765299"><ele>117.0</ele><time>2026-03-24T04:14:25.729Z</time></trkpt><trkpt lat="-36.7024786" lon="174.5766068"><ele>117.0</ele><time>2026-03-24T04:14:27.728Z</time></trkpt><trkpt lat="-36.7025122" lon="174.5766972"><ele>117.0</ele><time>2026-03-24T04:14:30.729Z</time></trkpt><trkpt lat="-36.7025633" lon="174.5767743"><ele>117.0</ele><time>2026-03-24T04:14:33.729Z</time></trkpt><trkpt lat="-36.7026058" lon="174.5768527"><ele>117.00000000000001</ele><time>2026-03-24T04:14:36.728Z</time></trkpt><trkpt lat="-36.7026457" lon="174.5769222"><ele>117.0</ele><time>2026-03-24T04:14:38.727Z</time></trkpt><trkpt lat="-36.7026813" lon="174.5769913"><ele>117.0</ele><time>2026-03-24T04:14:40.728Z</time></trkpt><trkpt lat="-36.7027028" lon="174.5770684"><ele>117.00000000000001</ele><time>2026-03-24T04:14:42.728Z</time></trkpt><trkpt lat="-36.7027663" lon="174.5771148"><ele>117.0</ele><time>2026-03-24T04:14:45.728Z</time></trkpt><trkpt lat="-36.702787" lon="174.5770106"><ele>117.0</ele><time>2026-03-24T04:14:49.728Z</time></trkpt><trkpt lat="-36.702791" lon="174.5769055"><ele>120.0</ele><time>2026-03-24T04:14:51.729Z</time></trkpt><trkpt lat="-36.7027956" lon="174.576803"><ele>123.00000000000001</ele><time>2026-03-24T04:14:53.729Z</time></trkpt><trkpt lat="-36.7028065" lon="174.576719"><ele>126.0</ele><time>2026-03-24T04:14:55.728Z</time></trkpt><trkpt lat="-36.7028304" lon="174.5766366"><ele>129.0</ele><time>2026-03-24T04:14:57.729Z</time></trkpt><trkpt lat="-36.7028876" lon="174.5765536"><ele>132.0</ele><time>2026-03-24T04:15:00.728Z</time></trkpt><trkpt lat="-36.7029499" lon="174.5765283"><ele>135.0</ele><time>2026-03-24T04:15:02.729Z</time></trkpt><trkpt lat="-36.7030167" lon="174.5765005"><ele>138.0</ele><time>2026-03-24T04:15:04.729Z</time></trkpt><trkpt lat="-36.7030983" lon="174.5764642"><ele>138.0</ele><time>2026-03-24T04:15:06.729Z</time></trkpt><trkpt lat="-36.7031662" lon="174.5764229"><ele>138.0</ele><time>2026-03-24T04:15:08.728Z</time></trkpt><trkpt lat="-36.7032282" lon="174.5763837"><ele>138.0</ele><time>2026-03-24T04:15:10.728Z</time></trkpt><trkpt lat="-36.7032857" lon="174.576326"><ele>138.0</ele><time>2026-03-24T04:15:12.729Z</time></trkpt><trkpt lat="-36.7033331" lon="174.5762735"><ele>138.0</ele><time>2026-03-24T04:15:14.728Z</time></trkpt><trkpt lat="-36.7033974" lon="174.5762897"><ele>138.0</ele><time>2026-03-24T04:15:18.728Z</time></trkpt><trkpt lat="-36.7033935" lon="174.5763872"><ele>138.0</ele><time>2026-03-24T04:15:21.73Z</time></trkpt><trkpt lat="-36.7034076" lon="174.5764684"><ele>138.0</ele><time>2026-03-24T04:15:23.73Z</time></trkpt><trkpt lat="-36.7034447" lon="174.5765687"><ele>138.0</ele><time>2026-03-24T04:15:26.729Z</time></trkpt><trkpt lat="-36.7035084" lon="174.5765845"><ele>138.0</ele><time>2026-03-24T04:15:29.729Z</time></trkpt><trkpt lat="-36.7035794" lon="174.5765349"><ele>138.0</ele><time>2026-03-24T04:15:32.729Z</time></trkpt><trkpt lat="-36.7036356" lon="174.5764875"><ele>138.0</ele><time>2026-03-24T04:15:34.727Z</time></trkpt><trkpt lat="-36.7037001" lon="174.5764122"><ele>138.0</ele><time>2026-03-24T04:15:37.729Z</time></trkpt><trkpt lat="-36.7037249" lon="174.576325"><ele>138.42857142857144</ele><time>2026-03-24T04:15:39.727Z</time></trkpt><trkpt lat="-36.703758" lon="174.5762483"><ele>138.85714285714286</ele><time>2026-03-24T04:15:41.729Z</time></trkpt><trkpt lat="-36.7038045" lon="174.5761867"><ele>139.28571428571428</ele><time>2026-03-24T04:15:43.728Z</time></trkpt><trkpt lat="-36.7038654" lon="174.5761341"><ele>139.71428571428572</ele><time>2026-03-24T04:15:45.728Z</time></trkpt><trkpt lat="-36.7039162" lon="174.5760772"><ele>140.14285714285714</ele><time>2026-03-24T04:15:47.73Z</time></trkpt><trkpt lat="-36.7039961" lon="174.5760155"><ele>140.57142857142858</ele><time>2026-03-24T04:15:50.729Z</time></trkpt><trkpt lat="-36.704052" lon="174.5760637"><ele>141.0</ele><time>2026-03-24T04:15:53.729Z</time></trkpt><trkpt lat="-36.7040895" lon="174.5761499"><ele>141.83333333333334</ele><time>2026-03-24T04:15:56.729Z</time></trkpt><trkpt lat="-36.7041572" lon="174.5762157"><ele>142.66666666666666</ele><time>2026-03-24T04:15:59.728Z</time></trkpt><trkpt lat="-36.7042341" lon="174.5762377"><ele>143.5</ele><time>2026-03-24T04:16:02.728Z</time></trkpt><trkpt lat="-36.7043143" lon="174.5762618"><ele>144.33333333333331</ele><time>2026-03-24T04:16:05.728Z</time></trkpt><trkpt lat="-36.7043642" lon="174.5763456"><ele>145.16666666666666</ele><time>2026-03-24T04:16:08.727Z</time></trkpt><trkpt lat="-36.7044008" lon="174.5764276"><ele>146.0</ele><time>2026-03-24T04:16:11.728Z</time></trkpt><trkpt lat="-36.7044532" lon="174.5765051"><ele>146.0</ele><time>2026-03-24T04:16:14.727Z</time></trkpt><trkpt lat="-36.7045149" lon="174.5765755"><ele>146.0</ele><time>2026-03-24T04:16:17.727Z</time></trkpt><trkpt lat="-36.7045372" lon="174.5766722"><ele>146.0</ele><time>2026-03-24T04:16:20.728Z</time></trkpt><trkpt lat="-36.7045284" lon="174.5767795"><ele>146.0</ele><time>2026-03-24T04:16:23.727Z</time></trkpt><trkpt lat="-36.7045568" lon="174.5768738"><ele>146.0</ele><time>2026-03-24T04:16:26.728Z</time></trkpt><trkpt lat="-36.7046323" lon="174.5768912"><ele>146.0</ele><time>2026-03-24T04:16:29.728Z</time></trkpt><trkpt lat="-36.7047163" lon="174.5768574"><ele>146.0</ele><time>2026-03-24T04:16:32.729Z</time></trkpt><trkpt lat="-36.7047784" lon="174.5768352"><ele>146.0</ele><time>2026-03-24T04:16:34.727Z</time></trkpt><trkpt lat="-36.7048553" lon="174.576823"><ele>146.0</ele><time>2026-03-24T04:16:37.728Z</time></trkpt><trkpt lat="-36.7049205" lon="174.5768047"><ele>146.0</ele><time>2026-03-24T04:16:40.728Z</time></trkpt><trkpt lat="-36.7048468" lon="174.576846"><ele>146.0</ele><time>2026-03-24T04:17:06.729Z</time></trkpt><trkpt lat="-36.704763" lon="174.5768693"><ele>146.0</ele><time>2026-03-24T04:17:09.728Z</time></trkpt><trkpt lat="-36.7046854" lon="174.5768879"><ele>146.0</ele><time>2026-03-24T04:17:12.728Z</time></trkpt><trkpt lat="-36.7046058" lon="174.5768952"><ele>146.0</ele><time>2026-03-24T04:17:15.729Z</time></trkpt><trkpt lat="-36.7045187" lon="174.5768995"><ele>146.0</ele><time>2026-03-24T04:17:18.728Z</time></trkpt><trkpt lat="-36.7044297" lon="174.5769193"><ele>146.0</ele><time>2026-03-24T04:17:21.728Z</time></trkpt><trkpt lat="-36.7043838" lon="174.5769925"><ele>146.0</ele><time>2026-03-24T04:17:25.729Z</time></trkpt><trkpt lat="-36.7043614" lon="174.5770887"><ele>146.0</ele><time>2026-03-24T04:17:28.729Z</time></trkpt><trkpt lat="-36.7043259" lon="174.5771648"><ele>145.85714285714286</ele><time>2026-03-24T04:17:30.729Z</time></trkpt><trkpt lat="-36.7042712" lon="174.577205"><ele>145.71428571428572</ele><time>2026-03-24T04:17:32.727Z</time></trkpt><trkpt lat="-36.7042117" lon="174.5772487"><ele>145.57142857142858</ele><time>2026-03-24T04:17:34.727Z</time></trkpt><trkpt lat="-36.7042237" lon="174.5773306"><ele>145.42857142857144</ele><time>2026-03-24T04:17:45.729Z</time></trkpt><trkpt lat="-36.7042907" lon="174.5773061"><ele>145.2857142857143</ele><time>2026-03-24T04:17:53.728Z</time></trkpt><trkpt lat="-36.7043365" lon="174.5773612"><ele>145.14285714285714</ele><time>2026-03-24T04:18:12.728Z</time></trkpt><trkpt lat="-36.7042825" lon="174.5773127"><ele>145.0</ele><time>2026-03-24T04:18:22.729Z</time></trkpt><trkpt lat="-36.7042179" lon="174.5772688"><ele>145.0</ele><time>2026-03-24T04:18:31.729Z</time></trkpt><trkpt lat="-36.7041644" lon="174.5773149"><ele>145.0</ele><time>2026-03-24T04:18:44.728Z</time></trkpt><trkpt lat="-36.7041007" lon="174.5773698"><ele>145.0</ele><time>2026-03-24T04:18:49.729Z</time></trkpt><trkpt lat="-36.7040644" lon="174.5774683"><ele>145.0</ele><time>2026-03-24T04:19:00.728Z</time></trkpt><trkpt lat="-36.7041146" lon="174.5775442"><ele>145.0</ele><time>2026-03-24T04:19:09.729Z</time></trkpt><trkpt lat="-36.7041271" lon="174.577622"><ele>145.0</ele><time>2026-03-24T04:19:12.727Z</time></trkpt><trkpt lat="-36.704097" lon="174.5777119"><ele>145.0</ele><time>2026-03-24T04:19:15.729Z</time></trkpt><trkpt lat="-36.7041006" lon="174.5778067"><ele>145.0</ele><time>2026-03-24T04:19:26.727Z</time></trkpt><trkpt lat="-36.7040763" lon="174.5778976"><ele>145.0</ele><time>2026-03-24T04:19:30.727Z</time></trkpt><trkpt lat="-36.7040309" lon="174.5779612"><ele>145.0</ele><time>2026-03-24T04:19:34.727Z</time></trkpt><trkpt lat="-36.7039598" lon="174.5780023"><ele>145.0</ele><time>2026-03-24T04:19:37.728Z</time></trkpt><trkpt lat="-36.7038812" lon="174.5780371"><ele>145.0</ele><time>2026-03-24T04:19:40.727Z</time></trkpt><trkpt lat="-36.7038151" lon="174.5780653"><ele>142.66666666666669</ele><time>2026-03-24T04:19:44.729Z</time></trkpt><trkpt lat="-36.7037675" lon="174.5781317"><ele>140.33333333333334</ele><time>2026-03-24T04:19:48.728Z</time></trkpt><trkpt lat="-36.703737" lon="174.5782128"><ele>138.0</ele><time>2026-03-24T04:19:52.728Z</time></trkpt><trkpt lat="-36.7037109" lon="174.5783148"><ele>135.66666666666666</ele><time>2026-03-24T04:19:55.728Z</time></trkpt><trkpt lat="-36.7037011" lon="174.5784127"><ele>133.33333333333331</ele><time>2026-03-24T04:19:58.728Z</time></trkpt><trkpt lat="-36.7036835" lon="174.5785135"><ele>131.0</ele><time>2026-03-24T04:20:01.727Z</time></trkpt><trkpt lat="-36.7036751" lon="174.5786179"><ele>127.99999999999999</ele><time>2026-03-24T04:20:04.727Z</time></trkpt><trkpt lat="-36.7036428" lon="174.5786899"><ele>125.0</ele><time>2026-03-24T04:20:07.728Z</time></trkpt><trkpt lat="-36.7036228" lon="174.578766"><ele>122.0</ele><time>2026-03-24T04:20:10.728Z</time></trkpt><trkpt lat="-36.703592" lon="174.5788645"><ele>119.0</ele><time>2026-03-24T04:20:14.728Z</time></trkpt><trkpt lat="-36.7035324" lon="174.578901"><ele>115.99999999999999</ele><time>2026-03-24T04:20:17.727Z</time></trkpt><trkpt lat="-36.7034713" lon="174.5789498"><ele>113.0</ele><time>2026-03-24T04:20:20.727Z</time></trkpt><trkpt lat="-36.703429" lon="174.5790587"><ele>112.28571428571429</ele><time>2026-03-24T04:20:23.728Z</time></trkpt><trkpt lat="-36.7033666" lon="174.5791182"><ele>111.57142857142857</ele><time>2026-03-24T04:20:26.729Z</time></trkpt><trkpt lat="-36.703298" lon="174.5791287"><ele>110.85714285714286</ele><time>2026-03-24T04:20:30.728Z</time></trkpt><trkpt lat="-36.7032485" lon="174.5791808"><ele>110.14285714285714</ele><time>2026-03-24T04:20:34.728Z</time></trkpt><trkpt lat="-36.7031945" lon="174.5792392"><ele>109.42857142857142</ele><time>2026-03-24T04:20:46.728Z</time></trkpt><trkpt lat="-36.7031529" lon="174.5793014"><ele>108.71428571428571</ele><time>2026-03-24T04:20:52.727Z</time></trkpt><trkpt lat="-36.7030953" lon="174.5793557"><ele>108.0</ele><time>2026-03-24T04:21:06.727Z</time></trkpt><trkpt lat="-36.7030314" lon="174.5794107"><ele>108.0</ele><time>2026-03-24T04:21:10.729Z</time></trkpt><trkpt lat="-36.7029921" lon="174.5794895"><ele>108.0</ele><time>2026-03-24T04:21:15.727Z</time></trkpt><trkpt lat="-36.7029726" lon="174.5795657"><ele>108.0</ele><time>2026-03-24T04:21:19.728Z</time></trkpt><trkpt lat="-36.7029255" lon="174.5796419"><ele>108.0</ele><time>2026-03-24T04:21:23.727Z</time></trkpt><trkpt lat="-36.70295" lon="174.5797265"><ele>108.0</ele><time>2026-03-24T04:21:26.727Z</time></trkpt><trkpt lat="-36.702927" lon="174.5798265"><ele>108.0</ele><time>2026-03-24T04:21:29.728Z</time></trkpt><trkpt lat="-36.7028908" lon="174.5798934"><ele>108.0</ele><time>2026-03-24T04:21:31.727Z</time></trkpt><trkpt lat="-36.7028323" lon="174.5799796"><ele>106.85714285714286</ele><time>2026-03-24T04:21:34.728Z</time></trkpt><trkpt lat="-36.7027819" lon="174.5800295"><ele>105.71428571428571</ele><time>2026-03-24T04:21:36.727Z</time></trkpt><trkpt lat="-36.7027333" lon="174.5800928"><ele>104.57142857142858</ele><time>2026-03-24T04:21:38.729Z</time></trkpt><trkpt lat="-36.7026647" lon="174.5801137"><ele>103.42857142857143</ele><time>2026-03-24T04:21:41.728Z</time></trkpt><trkpt lat="-36.7025933" lon="174.5800943"><ele>102.28571428571429</ele><time>2026-03-24T04:21:44.729Z</time></trkpt><trkpt lat="-36.7025156" lon="174.5801179"><ele>101.14285714285715</ele><time>2026-03-24T04:21:47.728Z</time></trkpt><trkpt lat="-36.7024622" lon="174.5800708"><ele>100.0</ele><time>2026-03-24T04:21:49.728Z</time></trkpt><trkpt lat="-36.7024358" lon="174.5799956"><ele>99.66666666666667</ele><time>2026-03-24T04:21:51.728Z</time></trkpt><trkpt lat="-36.7023982" lon="174.5799056"><ele>99.33333333333334</ele><time>2026-03-24T04:21:53.727Z</time></trkpt><trkpt lat="-36.7023494" lon="174.5798267"><ele>99.0</ele><time>2026-03-24T04:21:55.728Z</time></trkpt><trkpt lat="-36.7023189" lon="174.579758"><ele>98.66666666666666</ele><time>2026-03-24T04:21:57.728Z</time></trkpt><trkpt lat="-36.7022925" lon="174.5796425"><ele>98.33333333333333</ele><time>2026-03-24T04:22:00.727Z</time></trkpt><trkpt lat="-36.7022513" lon="174.5795415"><ele>98.0</ele><time>2026-03-24T04:22:03.727Z</time></trkpt><trkpt lat="-36.7021946" lon="174.5794429"><ele>97.99999999999999</ele><time>2026-03-24T04:22:06.727Z</time></trkpt><trkpt lat="-36.7021678" lon="174.5793689"><ele>98.0</ele><time>2026-03-24T04:22:08.728Z</time></trkpt><trkpt lat="-36.702118" lon="174.5792858"><ele>98.0</ele><time>2026-03-24T04:22:10.728Z</time></trkpt><trkpt lat="-36.702067" lon="174.5792069"><ele>98.0</ele><time>2026-03-24T04:22:12.727Z</time></trkpt><trkpt lat="-36.7020223" lon="174.5791435"><ele>97.99999999999999</ele><time>2026-03-24T04:22:14.727Z</time></trkpt><trkpt lat="-36.7020008" lon="174.5790537"><ele>98.0</ele><time>2026-03-24T04:22:16.728Z</time></trkpt><trkpt lat="-36.7019355" lon="174.5789366"><ele>95.99999999999999</ele><time>2026-03-24T04:22:18.727Z</time></trkpt><trkpt lat="-36.7018987" lon="174.5788391"><ele>94.0</ele><time>2026-03-24T04:22:20.728Z</time></trkpt><trkpt lat="-36.701896" lon="174.5787397"><ele>92.0</ele><time>2026-03-24T04:22:22.727Z</time></trkpt><trkpt lat="-36.7018835" lon="174.5786477"><ele>90.0</ele><time>2026-03-24T04:22:24.727Z</time></trkpt><trkpt lat="-36.7018827" lon="174.5785683"><ele>88.0</ele><time>2026-03-24T04:22:26.728Z</time></trkpt><trkpt lat="-36.7018779" lon="174.5784862"><ele>86.0</ele><time>2026-03-24T04:22:28.727Z</time></trkpt><trkpt lat="-36.7018195" lon="174.5784058"><ele>86.0</ele><time>2026-03-24T04:22:31.728Z</time></trkpt><trkpt lat="-36.7017691" lon="174.5783447"><ele>86.0</ele><time>2026-03-24T04:22:33.728Z</time></trkpt><trkpt lat="-36.7017243" lon="174.5782621"><ele>86.0</ele><time>2026-03-24T04:22:35.727Z</time></trkpt><trkpt lat="-36.7016703" lon="174.5781899"><ele>86.0</ele><time>2026-03-24T04:22:37.729Z</time></trkpt><trkpt lat="-36.7016187" lon="174.5781202"><ele>86.0</ele><time>2026-03-24T04:22:39.727Z</time></trkpt><trkpt lat="-36.7015735" lon="174.578043"><ele>86.0</ele><time>2026-03-24T04:22:41.727Z</time></trkpt><trkpt lat="-36.7015271" lon="174.5779588"><ele>86.0</ele><time>2026-03-24T04:22:43.727Z</time></trkpt><trkpt lat="-36.7014886" lon="174.5778831"><ele>86.0</ele><time>2026-03-24T04:22:45.727Z</time></trkpt><trkpt lat="-36.7014586" lon="174.5778021"><ele>86.0</ele><time>2026-03-24T04:22:48.727Z</time></trkpt><trkpt lat="-36.7014616" lon="174.5777201"><ele>86.0</ele><time>2026-03-24T04:22:51.727Z</time></trkpt><trkpt lat="-36.7014605" lon="174.5776115"><ele>86.0</ele><time>2026-03-24T04:22:54.727Z</time></trkpt><trkpt lat="-36.7014774" lon="174.5775196"><ele>86.0</ele><time>2026-03-24T04:22:56.727Z</time></trkpt><trkpt lat="-36.7014895" lon="174.5774239"><ele>87.66666666666667</ele><time>2026-03-24T04:22:58.727Z</time></trkpt><trkpt lat="-36.7014843" lon="174.5773447"><ele>89.33333333333334</ele><time>2026-03-24T04:23:00.727Z</time></trkpt><trkpt lat="-36.7014933" lon="174.5772545"><ele>91.0</ele><time>2026-03-24T04:23:03.729Z</time></trkpt><trkpt lat="-36.7015601" lon="174.5773165"><ele>92.66666666666667</ele><time>2026-03-24T04:23:06.727Z</time></trkpt><trkpt lat="-36.7016126" lon="174.5773867"><ele>94.33333333333333</ele><time>2026-03-24T04:23:08.729Z</time></trkpt><trkpt lat="-36.7016727" lon="174.5774576"><ele>96.0</ele><time>2026-03-24T04:23:11.727Z</time></trkpt><trkpt lat="-36.7017454" lon="174.5774537"><ele>96.0</ele><time>2026-03-24T04:23:15.728Z</time></trkpt><trkpt lat="-36.7017557" lon="174.577363"><ele>96.0</ele><time>2026-03-24T04:23:19.727Z</time></trkpt><trkpt lat="-36.70181" lon="174.577287"><ele>96.0</ele><time>2026-03-24T04:23:22.729Z</time></trkpt><trkpt lat="-36.7018551" lon="174.5772145"><ele>96.0</ele><time>2026-03-24T04:23:24.729Z</time></trkpt><trkpt lat="-36.7018813" lon="174.5771098"><ele>96.0</ele><time>2026-03-24T04:23:27.727Z</time></trkpt><trkpt lat="-36.7019349" lon="174.5770282"><ele>96.0</ele><time>2026-03-24T04:23:30.728Z</time></trkpt><trkpt lat="-36.7019607" lon="174.5769545"><ele>99.5</ele><time>2026-03-24T04:23:34.728Z</time></trkpt><trkpt lat="-36.701972" lon="174.5768757"><ele>103.0</ele><time>2026-03-24T04:23:39.729Z</time></trkpt><trkpt lat="-36.7019887" lon="174.5767983"><ele>106.5</ele><time>2026-03-24T04:23:42.728Z</time></trkpt><trkpt lat="-36.7019934" lon="174.5767196"><ele>110.0</ele><time>2026-03-24T04:23:45.73Z</time></trkpt><trkpt lat="-36.7020094" lon="174.5766099"><ele>113.5</ele><time>2026-03-24T04:23:49.727Z</time></trkpt><trkpt lat="-36.7020369" lon="174.576511"><ele>117.0</ele><time>2026-03-24T04:23:51.727Z</time></trkpt><trkpt lat="-36.7020701" lon="174.5764084"><ele>117.0</ele><time>2026-03-24T04:23:53.727Z</time></trkpt><trkpt lat="-36.7020991" lon="174.5763082"><ele>117.0</ele><time>2026-03-24T04:23:55.727Z</time></trkpt><trkpt lat="-36.702135" lon="174.5762329"><ele>117.0</ele><time>2026-03-24T04:23:57.728Z</time></trkpt><trkpt lat="-36.7021855" lon="174.5762813"><ele>117.0</ele><time>2026-03-24T04:24:00.728Z</time></trkpt><trkpt lat="-36.7022359" lon="174.5763766"><ele>117.0</ele><time>2026-03-24T04:24:03.727Z</time></trkpt><trkpt lat="-36.7023093" lon="174.5763221"><ele>117.0</ele><time>2026-03-24T04:24:06.727Z</time></trkpt><trkpt lat="-36.7023449" lon="174.5762373"><ele>117.0</ele><time>2026-03-24T04:24:08.727Z</time></trkpt><trkpt lat="-36.7023914" lon="174.5761652"><ele>117.0</ele><time>2026-03-24T04:24:11.729Z</time></trkpt><trkpt lat="-36.7024085" lon="174.5762841"><ele>117.0</ele><time>2026-03-24T04:24:15.728Z</time></trkpt><trkpt lat="-36.7024198" lon="174.5763867"><ele>117.0</ele><time>2026-03-24T04:24:17.727Z</time></trkpt><trkpt lat="-36.7024362" lon="174.5764804"><ele>117.0</ele><time>2026-03-24T04:24:19.728Z</time></trkpt><trkpt lat="-36.702459" lon="174.5765771"><ele>117.0</ele><time>2026-03-24T04:24:21.727Z</time></trkpt><trkpt lat="-36.7024883" lon="174.5766588"><ele>117.0</ele><time>2026-03-24T04:24:23.727Z</time></trkpt><trkpt lat="-36.7025048" lon="174.5767427"><ele>117.0</ele><time>2026-03-24T04:24:25.727Z</time></trkpt><trkpt lat="-36.7025548" lon="174.5768159"><ele>117.0</ele><time>2026-03-24T04:24:27.728Z</time></trkpt><trkpt lat="-36.7026205" lon="174.5768911"><ele>117.0</ele><time>2026-03-24T04:24:30.728Z</time></trkpt><trkpt lat="-36.7026607" lon="174.5769703"><ele>117.0</ele><time>2026-03-24T04:24:32.728Z</time></trkpt><trkpt lat="-36.7026851" lon="174.5770705"><ele>117.0</ele><time>2026-03-24T04:24:34.728Z</time></trkpt><trkpt lat="-36.7027157" lon="174.5771475"><ele>120.0</ele><time>2026-03-24T04:24:36.727Z</time></trkpt><trkpt lat="-36.7027624" lon="174.5770931"><ele>123.00000000000001</ele><time>2026-03-24T04:24:39.729Z</time></trkpt><trkpt lat="-36.7027714" lon="174.5769633"><ele>126.0</ele><time>2026-03-24T04:24:42.728Z</time></trkpt><trkpt lat="-36.7027685" lon="174.5768686"><ele>129.0</ele><time>2026-03-24T04:24:44.728Z</time></trkpt><trkpt lat="-36.7027687" lon="174.5767886"><ele>132.0</ele><time>2026-03-24T04:24:46.727Z</time></trkpt><trkpt lat="-36.7027785" lon="174.5767053"><ele>135.0</ele><time>2026-03-24T04:24:48.728Z</time></trkpt><trkpt lat="-36.7027932" lon="174.576626"><ele>138.0</ele><time>2026-03-24T04:24:50.728Z</time></trkpt><trkpt lat="-36.7028376" lon="174.5765369"><ele>138.0</ele><time>2026-03-24T04:24:53.729Z</time></trkpt><trkpt lat="-36.7029229" lon="174.576531"><ele>138.0</ele><time>2026-03-24T04:24:55.727Z</time></trkpt><trkpt lat="-36.7030052" lon="174.5765153"><ele>138.0</ele><time>2026-03-24T04:24:57.728Z</time></trkpt><trkpt lat="-36.703091" lon="174.5764757"><ele>138.0</ele><time>2026-03-24T04:24:59.727Z</time></trkpt><trkpt lat="-36.7031903" lon="174.5764361"><ele>138.0</ele><time>2026-03-24T04:25:02.728Z</time></trkpt><trkpt lat="-36.7032547" lon="174.5763914"><ele>138.0</ele><time>2026-03-24T04:25:04.728Z</time></trkpt><trkpt lat="-36.7032995" lon="174.5763277"><ele>138.0</ele><time>2026-03-24T04:25:06.729Z</time></trkpt><trkpt lat="-36.7033698" lon="174.5762773"><ele>138.0</ele><time>2026-03-24T04:25:09.727Z</time></trkpt><trkpt lat="-36.7033988" lon="174.5763584"><ele>138.0</ele><time>2026-03-24T04:25:13.727Z</time></trkpt><trkpt lat="-36.703412" lon="174.5764694"><ele>138.0</ele><time>2026-03-24T04:25:16.727Z</time></trkpt><trkpt lat="-36.7034485" lon="174.5765478"><ele>138.0</ele><time>2026-03-24T04:25:19.727Z</time></trkpt><trkpt lat="-36.7035081" lon="174.5765739"><ele>138.0</ele><time>2026-03-24T04:25:22.727Z</time></trkpt><trkpt lat="-36.703584" lon="174.5765328"><ele>138.5</ele><time>2026-03-24T04:25:25.727Z</time></trkpt><trkpt lat="-36.7036511" lon="174.5764865"><ele>139.0</ele><time>2026-03-24T04:25:28.728Z</time></trkpt><trkpt lat="-36.7037129" lon="174.5764105"><ele>139.5</ele><time>2026-03-24T04:25:31.728Z</time></trkpt><trkpt lat="-36.7037458" lon="174.5763335"><ele>140.0</ele><time>2026-03-24T04:25:33.727Z</time></trkpt><trkpt lat="-36.7037741" lon="174.5762365"><ele>140.5</ele><time>2026-03-24T04:25:36.728Z</time></trkpt><trkpt lat="-36.7038339" lon="174.5761532"><ele>141.0</ele><time>2026-03-24T04:25:39.728Z</time></trkpt><trkpt lat="-36.7038975" lon="174.5760757"><ele>141.0</ele><time>2026-03-24T04:25:42.729Z</time></trkpt><trkpt lat="-36.7039572" lon="174.5760293"><ele>141.0</ele><time>2026-03-24T04:25:44.729Z</time></trkpt><trkpt lat="-36.7040207" lon="174.5760418"><ele>141.0</ele><time>2026-03-24T04:25:46.728Z</time></trkpt><trkpt lat="-36.7040637" lon="174.5761323"><ele>141.0</ele><time>2026-03-24T04:25:49.728Z</time></trkpt><trkpt lat="-36.70414" lon="174.5761916"><ele>141.0</ele><time>2026-03-24T04:25:52.728Z</time></trkpt><trkpt lat="-36.7042265" lon="174.5762152"><ele>141.0</ele><time>2026-03-24T04:25:55.728Z</time></trkpt><trkpt lat="-36.7042915" lon="174.5762264"><ele>141.83333333333334</ele><time>2026-03-24T04:25:57.727Z</time></trkpt><trkpt lat="-36.7043481" lon="174.5762997"><ele>142.66666666666666</ele><time>2026-03-24T04:26:00.727Z</time></trkpt><trkpt lat="-36.7043898" lon="174.5764014"><ele>143.5</ele><time>2026-03-24T04:26:03.727Z</time></trkpt><trkpt lat="-36.7044437" lon="174.5764958"><ele>144.33333333333331</ele><time>2026-03-24T04:26:06.728Z</time></trkpt><trkpt lat="-36.704505" lon="174.5765713"><ele>145.16666666666666</ele><time>2026-03-24T04:26:09.727Z</time></trkpt><trkpt lat="-36.7045365" lon="174.5766658"><ele>146.0</ele><time>2026-03-24T04:26:12.728Z</time></trkpt><trkpt lat="-36.7045319" lon="174.5767661"><ele>146.0</ele><time>2026-03-24T04:26:15.727Z</time></trkpt><trkpt lat="-36.7045569" lon="174.5768711"><ele>146.0</ele><time>2026-03-24T04:26:18.728Z</time></trkpt><trkpt lat="-36.7046361" lon="174.5769099"><ele>146.0</ele><time>2026-03-24T04:26:21.728Z</time></trkpt><trkpt lat="-36.7047251" lon="174.5768739"><ele>146.0</ele><time>2026-03-24T04:26:24.729Z</time></trkpt><trkpt lat="-36.7047968" lon="174.5768537"><ele>146.0</ele><time>2026-03-24T04:26:26.727Z</time></trkpt><trkpt lat="-36.7048671" lon="174.5768244"><ele>146.0</ele><time>2026-03-24T04:26:28.727Z</time></trkpt><trkpt lat="-36.7049307" lon="174.5767813"><ele>146.0</ele><time>2026-03-24T04:26:30.727Z</time></trkpt><trkpt lat="-36.7049772" lon="174.5767175"><ele>146.0</ele><time>2026-03-24T04:26:32.727Z</time></trkpt><trkpt lat="-36.7050221" lon="174.5766358"><ele>146.0</ele><time>2026-03-24T04:26:34.728Z</time></trkpt><trkpt lat="-36.7050602" lon="174.5765531"><ele>146.0</ele><time>2026-03-24T04:26:36.727Z</time></trkpt><trkpt lat="-36.7051182" lon="174.5764864"><ele>146.0</ele><time>2026-03-24T04:26:38.727Z</time></trkpt><trkpt lat="-36.7051997" lon="174.5764264"><ele>146.0</ele><time>2026-03-24T04:26:40.727Z</time></trkpt><trkpt lat="-36.7053031" lon="174.5763659"><ele>145.33333333333331</ele><time>2026-03-24T04:26:42.727Z</time></trkpt><trkpt lat="-36.7054115" lon="174.5762895"><ele>144.66666666666666</ele><time>2026-03-24T04:26:44.727Z</time></trkpt><trkpt lat="-36.7054887" lon="174.5762482"><ele>144.0</ele><time>2026-03-24T04:26:45.727Z</time></trkpt><trkpt lat="-36.705548" lon="174.576199"><ele>143.33333333333334</ele><time>2026-03-24T04:26:46.728Z</time></trkpt><trkpt lat="-36.7056072" lon="174.576161"><ele>142.66666666666669</ele><time>2026-03-24T04:26:47.728Z</time></trkpt><trkpt lat="-36.7056826" lon="174.5761001"><ele>142.0</ele><time>2026-03-24T04:26:49.727Z</time></trkpt><trkpt lat="-36.7057542" lon="174.5760484"><ele>141.4</ele><time>2026-03-24T04:26:51.728Z</time></trkpt><trkpt lat="-36.7058329" lon="174.5759911"><ele>140.79999999999998</ele><time>2026-03-24T04:26:53.728Z</time></trkpt><trkpt lat="-36.7059199" lon="174.5759392"><ele>140.2</ele><time>2026-03-24T04:26:55.727Z</time></trkpt><trkpt lat="-36.7060261" lon="174.5759112"><ele>139.6</ele><time>2026-03-24T04:26:57.728Z</time></trkpt><trkpt lat="-36.7061213" lon="174.5758618"><ele>139.0</ele><time>2026-03-24T04:26:59.729Z</time></trkpt><trkpt lat="-36.7062162" lon="174.5758292"><ele>139.0</ele><time>2026-03-24T04:27:01.728Z</time></trkpt><trkpt lat="-36.7062939" lon="174.5757759"><ele>139.0</ele><time>2026-03-24T04:27:03.727Z</time></trkpt><trkpt lat="-36.706357" lon="174.5757029"><ele>139.0</ele><time>2026-03-24T04:27:05.728Z</time></trkpt><trkpt lat="-36.7063995" lon="174.5756103"><ele>139.0</ele><time>2026-03-24T04:27:07.727Z</time></trkpt><trkpt lat="-36.7064299" lon="174.5755101"><ele>139.0</ele><time>2026-03-24T04:27:09.728Z</time></trkpt><trkpt lat="-36.7064683" lon="174.5754132"><ele>139.0</ele><time>2026-03-24T04:27:11.728Z</time></trkpt><trkpt lat="-36.7065111" lon="174.575329"><ele>139.5</ele><time>2026-03-24T04:27:13.728Z</time></trkpt><trkpt lat="-36.7065793" lon="174.575277"><ele>140.0</ele><time>2026-03-24T04:27:15.727Z</time></trkpt><trkpt lat="-36.7066604" lon="174.5752239"><ele>140.5</ele><time>2026-03-24T04:27:18.727Z</time></trkpt><trkpt lat="-36.706729" lon="174.5751688"><ele>141.0</ele><time>2026-03-24T04:27:20.728Z</time></trkpt><trkpt lat="-36.7067819" lon="174.575106"><ele>141.5</ele><time>2026-03-24T04:27:21.729Z</time></trkpt><trkpt lat="-36.7068368" lon="174.5750323"><ele>142.0</ele><time>2026-03-24T04:27:23.727Z</time></trkpt><trkpt lat="-36.7069177" lon="174.5749687"><ele>139.6</ele><time>2026-03-24T04:27:26.728Z</time></trkpt><trkpt lat="-36.7069825" lon="174.5748545"><ele>137.2</ele><time>2026-03-24T04:27:28.727Z</time></trkpt><trkpt lat="-36.7070279" lon="174.5747291"><ele>134.8</ele><time>2026-03-24T04:27:30.728Z</time></trkpt><trkpt lat="-36.7070983" lon="174.574604"><ele>132.4</ele><time>2026-03-24T04:27:32.728Z</time></trkpt><trkpt lat="-36.7071467" lon="174.5745345"><ele>130.0</ele><time>2026-03-24T04:27:33.727Z</time></trkpt><trkpt lat="-36.7071916" lon="174.5744699"><ele>129.83333333333334</ele><time>2026-03-24T04:27:34.727Z</time></trkpt><trkpt lat="-36.7072831" lon="174.5743839"><ele>129.66666666666669</ele><time>2026-03-24T04:27:36.727Z</time></trkpt><trkpt lat="-36.7073289" lon="174.574314"><ele>129.5</ele><time>2026-03-24T04:27:37.727Z</time></trkpt><trkpt lat="-36.7073952" lon="174.5742776"><ele>129.33333333333334</ele><time>2026-03-24T04:27:38.729Z</time></trkpt><trkpt lat="-36.7074817" lon="174.5742218"><ele>129.16666666666666</ele><time>2026-03-24T04:27:40.729Z</time></trkpt><trkpt lat="-36.7075331" lon="174.5741669"><ele>129.0</ele><time>2026-03-24T04:27:42.727Z</time></trkpt><trkpt lat="-36.707625" lon="174.5741816"><ele>129.0</ele><time>2026-03-24T04:27:45.727Z</time></trkpt><trkpt lat="-36.7076486" lon="174.5742573"><ele>129.0</ele><time>2026-03-24T04:27:47.727Z</time></trkpt><trkpt lat="-36.7076842" lon="174.5743729"><ele>129.0</ele><time>2026-03-24T04:27:49.727Z</time></trkpt><trkpt lat="-36.7077608" lon="174.5744099"><ele>129.0</ele><time>2026-03-24T04:27:51.727Z</time></trkpt><trkpt lat="-36.707842" lon="174.5744191"><ele>129.0</ele><time>2026-03-24T04:27:54.727Z</time></trkpt><trkpt lat="-36.7079103" lon="174.5743688"><ele>129.0</ele><time>2026-03-24T04:27:56.727Z</time></trkpt><trkpt lat="-36.7079802" lon="174.5743339"><ele>127.80000000000001</ele><time>2026-03-24T04:27:58.727Z</time></trkpt><trkpt lat="-36.7080897" lon="174.5743516"><ele>126.60000000000001</ele><time>2026-03-24T04:28:00.727Z</time></trkpt><trkpt lat="-36.7081939" lon="174.5743252"><ele>125.4</ele><time>2026-03-24T04:28:02.727Z</time></trkpt><trkpt lat="-36.7082928" lon="174.5742944"><ele>124.2</ele><time>2026-03-24T04:28:04.727Z</time></trkpt><trkpt lat="-36.7083596" lon="174.5742674"><ele>123.0</ele><time>2026-03-24T04:28:05.728Z</time></trkpt><trkpt lat="-36.708438" lon="174.5742888"><ele>123.0</ele><time>2026-03-24T04:28:07.727Z</time></trkpt><trkpt lat="-36.7085006" lon="174.5743353"><ele>123.00000000000001</ele><time>2026-03-24T04:28:08.728Z</time></trkpt><trkpt lat="-36.7085777" lon="174.5743293"><ele>123.00000000000001</ele><time>2026-03-24T04:28:10.727Z</time></trkpt><trkpt lat="-36.7086681" lon="174.5742584"><ele>123.0</ele><time>2026-03-24T04:28:12.727Z</time></trkpt><trkpt lat="-36.7087877" lon="174.5741791"><ele>123.0</ele><time>2026-03-24T04:28:14.727Z</time></trkpt><trkpt lat="-36.7088496" lon="174.5741288"><ele>121.66666666666667</ele><time>2026-03-24T04:28:15.728Z</time></trkpt><trkpt lat="-36.7089158" lon="174.5740829"><ele>120.33333333333334</ele><time>2026-03-24T04:28:16.727Z</time></trkpt><trkpt lat="-36.7090046" lon="174.5741276"><ele>119.0</ele><time>2026-03-24T04:28:19.727Z</time></trkpt><trkpt lat="-36.7090736" lon="174.5741458"><ele>117.66666666666667</ele><time>2026-03-24T04:28:21.728Z</time></trkpt><trkpt lat="-36.709158" lon="174.5742072"><ele>116.33333333333334</ele><time>2026-03-24T04:28:24.728Z</time></trkpt><trkpt lat="-36.7092451" lon="174.5741702"><ele>115.0</ele><time>2026-03-24T04:28:26.729Z</time></trkpt><trkpt lat="-36.7093206" lon="174.5741424"><ele>115.0</ele><time>2026-03-24T04:28:28.727Z</time></trkpt><trkpt lat="-36.709406" lon="174.5741634"><ele>115.0</ele><time>2026-03-24T04:28:30.728Z</time></trkpt><trkpt lat="-36.7095047" lon="174.5742454"><ele>115.0</ele><time>2026-03-24T04:28:32.727Z</time></trkpt><trkpt lat="-36.7095604" lon="174.5742899"><ele>115.0</ele><time>2026-03-24T04:28:33.727Z</time></trkpt><trkpt lat="-36.709612" lon="174.574381"><ele>115.0</ele><time>2026-03-24T04:28:35.727Z</time></trkpt><trkpt lat="-36.7096809" lon="174.5744845"><ele>113.50000000000001</ele><time>2026-03-24T04:28:37.727Z</time></trkpt><trkpt lat="-36.7097271" lon="174.5746038"><ele>112.0</ele><time>2026-03-24T04:28:39.727Z</time></trkpt><trkpt lat="-36.7097873" lon="174.5747268"><ele>110.5</ele><time>2026-03-24T04:28:41.728Z</time></trkpt><trkpt lat="-36.709857" lon="174.5747679"><ele>109.0</ele><time>2026-03-24T04:28:43.728Z</time></trkpt><trkpt lat="-36.7099248" lon="174.5748108"><ele>107.50000000000001</ele><time>2026-03-24T04:28:45.729Z</time></trkpt><trkpt lat="-36.7099669" lon="174.5748701"><ele>106.0</ele><time>2026-03-24T04:28:47.728Z</time></trkpt><trkpt lat="-36.7100147" lon="174.574934"><ele>106.0</ele><time>2026-03-24T04:28:49.727Z</time></trkpt><trkpt lat="-36.7101004" lon="174.5749894"><ele>106.0</ele><time>2026-03-24T04:28:52.727Z</time></trkpt><trkpt lat="-36.7101826" lon="174.5749589"><ele>106.0</ele><time>2026-03-24T04:28:54.727Z</time></trkpt><trkpt lat="-36.7102432" lon="174.5749201"><ele>106.0</ele><time>2026-03-24T04:28:55.728Z</time></trkpt><trkpt lat="-36.7103659" lon="174.574861"><ele>106.0</ele><time>2026-03-24T04:28:57.727Z</time></trkpt><trkpt lat="-36.7104292" lon="174.5748282"><ele>104.19999999999999</ele><time>2026-03-24T04:28:58.727Z</time></trkpt><trkpt lat="-36.7105432" lon="174.5747678"><ele>102.39999999999999</ele><time>2026-03-24T04:29:00.727Z</time></trkpt><trkpt lat="-36.7106164" lon="174.5746987"><ele>100.6</ele><time>2026-03-24T04:29:02.728Z</time></trkpt><trkpt lat="-36.7106662" lon="174.5746058"><ele>98.8</ele><time>2026-03-24T04:29:04.729Z</time></trkpt><trkpt lat="-36.7106561" lon="174.5745129"><ele>97.0</ele><time>2026-03-24T04:29:06.727Z</time></trkpt><trkpt lat="-36.710628" lon="174.5744262"><ele>97.0</ele><time>2026-03-24T04:29:09.727Z</time></trkpt><trkpt lat="-36.7106494" lon="174.5743164"><ele>97.0</ele><time>2026-03-24T04:29:12.727Z</time></trkpt><trkpt lat="-36.71065" lon="174.5742288"><ele>97.0</ele><time>2026-03-24T04:29:15.727Z</time></trkpt><trkpt lat="-36.7106777" lon="174.5741467"><ele>97.0</ele><time>2026-03-24T04:29:17.728Z</time></trkpt><trkpt lat="-36.7106829" lon="174.5740596"><ele>97.0</ele><time>2026-03-24T04:29:19.727Z</time></trkpt><trkpt lat="-36.7106562" lon="174.573988"><ele>97.0</ele><time>2026-03-24T04:29:21.728Z</time></trkpt><trkpt lat="-36.7106384" lon="174.5739112"><ele>97.0</ele><time>2026-03-24T04:29:23.727Z</time></trkpt><trkpt lat="-36.7106148" lon="174.5738356"><ele>97.00000000000001</ele><time>2026-03-24T04:29:25.728Z</time></trkpt><trkpt lat="-36.7106018" lon="174.5737294"><ele>97.0</ele><time>2026-03-24T04:29:28.727Z</time></trkpt><trkpt lat="-36.7105861" lon="174.5736394"><ele>97.0</ele><time>2026-03-24T04:29:30.727Z</time></trkpt><trkpt lat="-36.7105663" lon="174.5735439"><ele>97.0</ele><time>2026-03-24T04:29:33.728Z</time></trkpt><trkpt lat="-36.7105687" lon="174.5734546"><ele>97.00000000000001</ele><time>2026-03-24T04:29:35.728Z</time></trkpt><trkpt lat="-36.7105679" lon="174.5733444"><ele>97.0</ele><time>2026-03-24T04:29:38.728Z</time></trkpt><trkpt lat="-36.710567" lon="174.5732455"><ele>96.50000000000001</ele><time>2026-03-24T04:29:41.729Z</time></trkpt><trkpt lat="-36.7105361" lon="174.5731462"><ele>96.0</ele><time>2026-03-24T04:29:44.728Z</time></trkpt><trkpt lat="-36.7105475" lon="174.573044"><ele>95.5</ele><time>2026-03-24T04:29:47.728Z</time></trkpt><trkpt lat="-36.7105359" lon="174.5729655"><ele>95.0</ele><time>2026-03-24T04:29:49.728Z</time></trkpt><trkpt lat="-36.7104911" lon="174.5729038"><ele>94.5</ele><time>2026-03-24T04:29:51.727Z</time></trkpt><trkpt lat="-36.7104158" lon="174.5728399"><ele>94.0</ele><time>2026-03-24T04:29:54.729Z</time></trkpt><trkpt lat="-36.710335" lon="174.5728016"><ele>92.28571428571428</ele><time>2026-03-24T04:29:57.727Z</time></trkpt><trkpt lat="-36.7102741" lon="174.5727657"><ele>90.57142857142857</ele><time>2026-03-24T04:29:59.728Z</time></trkpt><trkpt lat="-36.7102573" lon="174.5726784"><ele>88.85714285714286</ele><time>2026-03-24T04:30:01.728Z</time></trkpt><trkpt lat="-36.7103369" lon="174.5726493"><ele>87.14285714285714</ele><time>2026-03-24T04:30:05.727Z</time></trkpt><trkpt lat="-36.7104072" lon="174.5726323"><ele>85.42857142857143</ele><time>2026-03-24T04:30:07.727Z</time></trkpt><trkpt lat="-36.7104459" lon="174.5725569"><ele>83.71428571428571</ele><time>2026-03-24T04:30:10.727Z</time></trkpt><trkpt lat="-36.7103944" lon="174.5725058"><ele>82.0</ele><time>2026-03-24T04:30:12.728Z</time></trkpt><trkpt lat="-36.7103312" lon="174.5724942"><ele>82.0</ele><time>2026-03-24T04:30:13.727Z</time></trkpt><trkpt lat="-36.7102799" lon="174.5724018"><ele>82.0</ele><time>2026-03-24T04:30:16.728Z</time></trkpt><trkpt lat="-36.7103269" lon="174.5723407"><ele>82.0</ele><time>2026-03-24T04:30:18.727Z</time></trkpt><trkpt lat="-36.7104032" lon="174.5722709"><ele>82.0</ele><time>2026-03-24T04:30:21.727Z</time></trkpt><trkpt lat="-36.7104711" lon="174.572238"><ele>82.0</ele><time>2026-03-24T04:30:23.727Z</time></trkpt><trkpt lat="-36.7105264" lon="174.5721867"><ele>82.0</ele><time>2026-03-24T04:30:26.727Z</time></trkpt><trkpt lat="-36.7104518" lon="174.572186"><ele>81.99999999999999</ele><time>2026-03-24T04:30:28.727Z</time></trkpt><trkpt lat="-36.7103825" lon="174.5721354"><ele>82.0</ele><time>2026-03-24T04:30:30.728Z</time></trkpt><trkpt lat="-36.7103408" lon="174.5720678"><ele>82.0</ele><time>2026-03-24T04:30:32.729Z</time></trkpt><trkpt lat="-36.7103779" lon="174.5719983"><ele>82.0</ele><time>2026-03-24T04:30:44.727Z</time></trkpt><trkpt lat="-36.7104421" lon="174.5719877"><ele>82.0</ele><time>2026-03-24T04:30:50.728Z</time></trkpt><trkpt lat="-36.7104757" lon="174.5719111"><ele>81.99999999999999</ele><time>2026-03-24T04:31:01.727Z</time></trkpt><trkpt lat="-36.7105108" lon="174.5718236"><ele>82.0</ele><time>2026-03-24T04:31:05.727Z</time></trkpt><trkpt lat="-36.7104999" lon="174.5717321"><ele>81.14285714285714</ele><time>2026-03-24T04:31:12.729Z</time></trkpt><trkpt lat="-36.7105196" lon="174.5716409"><ele>80.28571428571428</ele><time>2026-03-24T04:31:16.727Z</time></trkpt><trkpt lat="-36.7105686" lon="174.5715833"><ele>79.42857142857142</ele><time>2026-03-24T04:31:19.728Z</time></trkpt><trkpt lat="-36.7105789" lon="174.571505"><ele>78.57142857142857</ele><time>2026-03-24T04:31:50.728Z</time></trkpt><trkpt lat="-36.7105716" lon="174.5714164"><ele>77.71428571428572</ele><time>2026-03-24T04:31:54.727Z</time></trkpt><trkpt lat="-36.7105891" lon="174.5713092"><ele>76.85714285714285</ele><time>2026-03-24T04:31:58.727Z</time></trkpt><trkpt lat="-36.7105968" lon="174.5712312"><ele>76.0</ele><time>2026-03-24T04:32:01.728Z</time></trkpt><trkpt lat="-36.7105873" lon="174.5711199"><ele>75.5</ele><time>2026-03-24T04:32:04.727Z</time></trkpt><trkpt lat="-36.7105748" lon="174.5710408"><ele>75.0</ele><time>2026-03-24T04:32:06.728Z</time></trkpt><trkpt lat="-36.7105721" lon="174.5709466"><ele>74.5</ele><time>2026-03-24T04:32:09.727Z</time></trkpt><trkpt lat="-36.7105439" lon="174.5708367"><ele>74.0</ele><time>2026-03-24T04:32:12.727Z</time></trkpt><trkpt lat="-36.7105119" lon="174.5707301"><ele>73.5</ele><time>2026-03-24T04:32:15.727Z</time></trkpt><trkpt lat="-36.7104476" lon="174.570646"><ele>73.0</ele><time>2026-03-24T04:32:18.728Z</time></trkpt><trkpt lat="-36.7104062" lon="174.5705831"><ele>73.0</ele><time>2026-03-24T04:32:20.728Z</time></trkpt><trkpt lat="-36.7103627" lon="174.5704769"><ele>73.0</ele><time>2026-03-24T04:32:23.728Z</time></trkpt><trkpt lat="-36.710331" lon="174.5703923"><ele>73.0</ele><time>2026-03-24T04:32:25.727Z</time></trkpt><trkpt lat="-36.7103054" lon="174.5702989"><ele>73.0</ele><time>2026-03-24T04:32:28.728Z</time></trkpt><trkpt lat="-36.7102479" lon="174.5702196"><ele>73.0</ele><time>2026-03-24T04:32:31.728Z</time></trkpt><trkpt lat="-36.710184" lon="174.5701392"><ele>73.0</ele><time>2026-03-24T04:32:34.727Z</time></trkpt><trkpt lat="-36.7101343" lon="174.5700526"><ele>75.66666666666666</ele><time>2026-03-24T04:32:37.727Z</time></trkpt><trkpt lat="-36.7100947" lon="174.5699902"><ele>78.33333333333333</ele><time>2026-03-24T04:32:39.727Z</time></trkpt><trkpt lat="-36.7100562" lon="174.5699211"><ele>81.0</ele><time>2026-03-24T04:32:41.727Z</time></trkpt><trkpt lat="-36.7099967" lon="174.5698259"><ele>83.66666666666667</ele><time>2026-03-24T04:32:44.728Z</time></trkpt><trkpt lat="-36.7099344" lon="174.5697922"><ele>86.33333333333334</ele><time>2026-03-24T04:32:51.727Z</time></trkpt><trkpt lat="-36.7098696" lon="174.5697281"><ele>89.0</ele><time>2026-03-24T04:32:55.728Z</time></trkpt><trkpt lat="-36.7098324" lon="174.5696371"><ele>88.99999999999999</ele><time>2026-03-24T04:32:59.727Z</time></trkpt><trkpt lat="-36.7098862" lon="174.5696839"><ele>89.0</ele><time>2026-03-24T04:33:28.728Z</time></trkpt><trkpt lat="-36.709959" lon="174.569732"><ele>89.0</ele><time>2026-03-24T04:33:31.727Z</time></trkpt><trkpt lat="-36.710015" lon="174.569786"><ele>89.0</ele><time>2026-03-24T04:33:33.727Z</time></trkpt><trkpt lat="-36.7100542" lon="174.5698514"><ele>89.0</ele><time>2026-03-24T04:33:35.728Z</time></trkpt><trkpt lat="-36.7101013" lon="174.5699169"><ele>88.99999999999999</ele><time>2026-03-24T04:33:37.727Z</time></trkpt><trkpt lat="-36.7101638" lon="174.5699987"><ele>89.0</ele><time>2026-03-24T04:33:40.727Z</time></trkpt><trkpt lat="-36.710203" lon="174.570064"><ele>86.71428571428571</ele><time>2026-03-24T04:33:42.728Z</time></trkpt><trkpt lat="-36.710244" lon="174.5701261"><ele>84.42857142857143</ele><time>2026-03-24T04:33:44.727Z</time></trkpt><trkpt lat="-36.7102857" lon="174.5701885"><ele>82.14285714285714</ele><time>2026-03-24T04:33:46.727Z</time></trkpt><trkpt lat="-36.7103104" lon="174.5702813"><ele>79.85714285714286</ele><time>2026-03-24T04:33:49.727Z</time></trkpt><trkpt lat="-36.7103482" lon="174.5703474"><ele>77.57142857142857</ele><time>2026-03-24T04:33:51.728Z</time></trkpt><trkpt lat="-36.7103871" lon="174.5704379"><ele>75.28571428571428</ele><time>2026-03-24T04:33:54.727Z</time></trkpt><trkpt lat="-36.7104331" lon="174.5705245"><ele>73.0</ele><time>2026-03-24T04:33:57.727Z</time></trkpt><trkpt lat="-36.7104918" lon="174.5706168"><ele>73.0</ele><time>2026-03-24T04:34:00.727Z</time></trkpt><trkpt lat="-36.7105256" lon="174.5707062"><ele>73.0</ele><time>2026-03-24T04:34:02.728Z</time></trkpt><trkpt lat="-36.7105562" lon="174.5707913"><ele>73.0</ele><time>2026-03-24T04:34:04.727Z</time></trkpt><trkpt lat="-36.7106174" lon="174.5708227"><ele>73.0</ele><time>2026-03-24T04:34:07.727Z</time></trkpt><trkpt lat="-36.710711" lon="174.5708228"><ele>73.0</ele><time>2026-03-24T04:34:09.728Z</time></trkpt><trkpt lat="-36.7107798" lon="174.5707871"><ele>73.0</ele><time>2026-03-24T04:34:11.728Z</time></trkpt><trkpt lat="-36.7108404" lon="174.5707273"><ele>73.0</ele><time>2026-03-24T04:34:13.727Z</time></trkpt><trkpt lat="-36.7109054" lon="174.5707172"><ele>73.0</ele><time>2026-03-24T04:34:15.729Z</time></trkpt><trkpt lat="-36.7109778" lon="174.5706539"><ele>73.0</ele><time>2026-03-24T04:34:18.727Z</time></trkpt><trkpt lat="-36.7110239" lon="174.57059"><ele>73.0</ele><time>2026-03-24T04:34:20.727Z</time></trkpt><trkpt lat="-36.7110078" lon="174.5704928"><ele>73.0</ele><time>2026-03-24T04:34:23.727Z</time></trkpt><trkpt lat="-36.7109767" lon="174.5704033"><ele>73.0</ele><time>2026-03-24T04:34:25.727Z</time></trkpt><trkpt lat="-36.7109586" lon="174.5702964"><ele>71.66666666666666</ele><time>2026-03-24T04:34:27.727Z</time></trkpt><trkpt lat="-36.7109386" lon="174.5701884"><ele>70.33333333333333</ele><time>2026-03-24T04:34:29.728Z</time></trkpt><trkpt lat="-36.7109173" lon="174.5700896"><ele>69.0</ele><time>2026-03-24T04:34:31.727Z</time></trkpt><trkpt lat="-36.7108749" lon="174.5699916"><ele>67.66666666666667</ele><time>2026-03-24T04:34:33.727Z</time></trkpt><trkpt lat="-36.7108358" lon="174.5698886"><ele>66.33333333333334</ele><time>2026-03-24T04:34:35.727Z</time></trkpt><trkpt lat="-36.710851" lon="174.5697688"><ele>65.0</ele><time>2026-03-24T04:34:37.728Z</time></trkpt><trkpt lat="-36.7108658" lon="174.5696391"><ele>64.4</ele><time>2026-03-24T04:34:39.727Z</time></trkpt><trkpt lat="-36.7108557" lon="174.5695125"><ele>63.8</ele><time>2026-03-24T04:34:41.727Z</time></trkpt><trkpt lat="-36.7108305" lon="174.5693944"><ele>63.2</ele><time>2026-03-24T04:34:43.728Z</time></trkpt><trkpt lat="-36.7107873" lon="174.5692856"><ele>62.6</ele><time>2026-03-24T04:34:45.727Z</time></trkpt><trkpt lat="-36.7107196" lon="174.569188"><ele>62.0</ele><time>2026-03-24T04:34:47.727Z</time></trkpt><trkpt lat="-36.7106415" lon="174.5690928"><ele>62.0</ele><time>2026-03-24T04:34:49.727Z</time></trkpt><trkpt lat="-36.710555" lon="174.5690148"><ele>62.0</ele><time>2026-03-24T04:34:51.726Z</time></trkpt><trkpt lat="-36.71047" lon="174.5689358"><ele>62.0</ele><time>2026-03-24T04:34:53.728Z</time></trkpt><trkpt lat="-36.7104168" lon="174.5688243"><ele>62.0</ele><time>2026-03-24T04:34:55.726Z</time></trkpt><trkpt lat="-36.7103822" lon="174.568693"><ele>62.0</ele><time>2026-03-24T04:34:57.727Z</time></trkpt><trkpt lat="-36.7103552" lon="174.568556"><ele>61.8</ele><time>2026-03-24T04:34:59.727Z</time></trkpt><trkpt lat="-36.7103212" lon="174.5684524"><ele>61.6</ele><time>2026-03-24T04:35:01.726Z</time></trkpt><trkpt lat="-36.7102753" lon="174.5683392"><ele>61.39999999999999</ele><time>2026-03-24T04:35:03.727Z</time></trkpt><trkpt lat="-36.7102334" lon="174.5682158"><ele>61.199999999999996</ele><time>2026-03-24T04:35:05.727Z</time></trkpt><trkpt lat="-36.7101793" lon="174.5680951"><ele>61.0</ele><time>2026-03-24T04:35:07.727Z</time></trkpt><trkpt lat="-36.7101457" lon="174.5679804"><ele>61.33333333333333</ele><time>2026-03-24T04:35:09.727Z</time></trkpt><trkpt lat="-36.7100875" lon="174.5678652"><ele>61.666666666666664</ele><time>2026-03-24T04:35:11.728Z</time></trkpt><trkpt lat="-36.7100571" lon="174.5677491"><ele>62.0</ele><time>2026-03-24T04:35:13.728Z</time></trkpt><trkpt lat="-36.7100428" lon="174.5676482"><ele>62.33333333333333</ele><time>2026-03-24T04:35:15.727Z</time></trkpt><trkpt lat="-36.7100511" lon="174.5675495"><ele>62.666666666666664</ele><time>2026-03-24T04:35:18.728Z</time></trkpt><trkpt lat="-36.7100223" lon="174.5674762"><ele>63.0</ele><time>2026-03-24T04:35:26.726Z</time></trkpt><trkpt lat="-36.7099667" lon="174.5674199"><ele>63.0</ele><time>2026-03-24T04:35:29.728Z</time></trkpt><trkpt lat="-36.7099283" lon="174.5673404"><ele>63.0</ele><time>2026-03-24T04:35:31.727Z</time></trkpt><trkpt lat="-36.7099191" lon="174.5672329"><ele>63.0</ele><time>2026-03-24T04:35:33.728Z</time></trkpt><trkpt lat="-36.7099324" lon="174.5671366"><ele>63.0</ele><time>2026-03-24T04:35:35.726Z</time></trkpt><trkpt lat="-36.7099325" lon="174.5670212"><ele>63.0</ele><time>2026-03-24T04:35:38.728Z</time></trkpt><trkpt lat="-36.7099143" lon="174.5669376"><ele>63.0</ele><time>2026-03-24T04:35:40.728Z</time></trkpt><trkpt lat="-36.7098894" lon="174.5668619"><ele>62.0</ele><time>2026-03-24T04:35:42.727Z</time></trkpt><trkpt lat="-36.7098589" lon="174.5667795"><ele>61.0</ele><time>2026-03-24T04:35:44.727Z</time></trkpt><trkpt lat="-36.7098323" lon="174.5666963"><ele>60.0</ele><time>2026-03-24T04:35:46.727Z</time></trkpt><trkpt lat="-36.7098025" lon="174.5665989"><ele>59.0</ele><time>2026-03-24T04:35:48.726Z</time></trkpt><trkpt lat="-36.7097425" lon="174.5665029"><ele>58.0</ele><time>2026-03-24T04:35:50.727Z</time></trkpt><trkpt lat="-36.7097162" lon="174.5664107"><ele>57.0</ele><time>2026-03-24T04:35:53.726Z</time></trkpt><trkpt lat="-36.7097967" lon="174.5663557"><ele>57.0</ele><time>2026-03-24T04:35:56.727Z</time></trkpt><trkpt lat="-36.7098587" lon="174.5662942"><ele>57.0</ele><time>2026-03-24T04:35:59.728Z</time></trkpt><trkpt lat="-36.7099396" lon="174.5662275"><ele>57.0</ele><time>2026-03-24T04:36:02.727Z</time></trkpt><trkpt lat="-36.7100188" lon="174.566222"><ele>57.0</ele><time>2026-03-24T04:36:04.727Z</time></trkpt><trkpt lat="-36.7101079" lon="174.5662364"><ele>57.0</ele><time>2026-03-24T04:36:06.727Z</time></trkpt><trkpt lat="-36.7101833" lon="174.5662417"><ele>57.0</ele><time>2026-03-24T04:36:08.727Z</time></trkpt><trkpt lat="-36.7102442" lon="174.5661804"><ele>57.0</ele><time>2026-03-24T04:36:10.726Z</time></trkpt><trkpt lat="-36.7102903" lon="174.5661005"><ele>57.0</ele><time>2026-03-24T04:36:12.728Z</time></trkpt><trkpt lat="-36.7103317" lon="174.5660103"><ele>57.0</ele><time>2026-03-24T04:36:14.728Z</time></trkpt><trkpt lat="-36.7103836" lon="174.5659177"><ele>57.0</ele><time>2026-03-24T04:36:16.726Z</time></trkpt><trkpt lat="-36.7104313" lon="174.5658221"><ele>57.0</ele><time>2026-03-24T04:36:18.727Z</time></trkpt><trkpt lat="-36.7104881" lon="174.5657608"><ele>57.0</ele><time>2026-03-24T04:36:20.728Z</time></trkpt><trkpt lat="-36.7105384" lon="174.5657088"><ele>57.0</ele><time>2026-03-24T04:36:22.727Z</time></trkpt><trkpt lat="-36.7106127" lon="174.565668"><ele>57.0</ele><time>2026-03-24T04:36:24.728Z</time></trkpt><trkpt lat="-36.7106995" lon="174.5656305"><ele>57.0</ele><time>2026-03-24T04:36:26.727Z</time></trkpt><trkpt lat="-36.7107812" lon="174.5655915"><ele>57.0</ele><time>2026-03-24T04:36:28.727Z</time></trkpt><trkpt lat="-36.7108624" lon="174.5655429"><ele>57.0</ele><time>2026-03-24T04:36:30.726Z</time></trkpt><trkpt lat="-36.7109411" lon="174.5655042"><ele>57.0</ele><time>2026-03-24T04:36:32.726Z</time></trkpt><trkpt lat="-36.7110154" lon="174.5654636"><ele>57.833333333333336</ele><time>2026-03-24T04:36:34.727Z</time></trkpt><trkpt lat="-36.7110921" lon="174.5654267"><ele>58.66666666666667</ele><time>2026-03-24T04:36:36.727Z</time></trkpt><trkpt lat="-36.711167" lon="174.5653754"><ele>59.5</ele><time>2026-03-24T04:36:38.728Z</time></trkpt><trkpt lat="-36.7112361" lon="174.5653197"><ele>60.333333333333336</ele><time>2026-03-24T04:36:40.728Z</time></trkpt><trkpt lat="-36.711308" lon="174.565285"><ele>61.16666666666667</ele><time>2026-03-24T04:36:42.728Z</time></trkpt><trkpt lat="-36.7113781" lon="174.5652543"><ele>62.0</ele><time>2026-03-24T04:36:44.727Z</time></trkpt><trkpt lat="-36.7114556" lon="174.5652179"><ele>63.0</ele><time>2026-03-24T04:36:46.728Z</time></trkpt><trkpt lat="-36.7115206" lon="174.5651872"><ele>64.0</ele><time>2026-03-24T04:36:48.728Z</time></trkpt><trkpt lat="-36.7115938" lon="174.5651609"><ele>65.0</ele><time>2026-03-24T04:36:50.728Z</time></trkpt><trkpt lat="-36.7116617" lon="174.5651381"><ele>66.0</ele><time>2026-03-24T04:36:52.726Z</time></trkpt><trkpt lat="-36.7117204" lon="174.5651024"><ele>67.0</ele><time>2026-03-24T04:36:54.727Z</time></trkpt><trkpt lat="-36.7117871" lon="174.5650674"><ele>68.0</ele><time>2026-03-24T04:36:56.727Z</time></trkpt><trkpt lat="-36.7118518" lon="174.5650368"><ele>69.0</ele><time>2026-03-24T04:36:58.727Z</time></trkpt><trkpt lat="-36.7119203" lon="174.5650129"><ele>69.2</ele><time>2026-03-24T04:37:00.728Z</time></trkpt><trkpt lat="-36.7120091" lon="174.5649767"><ele>69.4</ele><time>2026-03-24T04:37:02.727Z</time></trkpt><trkpt lat="-36.7120992" lon="174.5649369"><ele>69.6</ele><time>2026-03-24T04:37:04.728Z</time></trkpt><trkpt lat="-36.7121743" lon="174.5649106"><ele>69.8</ele><time>2026-03-24T04:37:06.727Z</time></trkpt><trkpt lat="-36.7122586" lon="174.5648789"><ele>70.0</ele><time>2026-03-24T04:37:08.726Z</time></trkpt><trkpt lat="-36.7123544" lon="174.5648419"><ele>70.0</ele><time>2026-03-24T04:37:10.727Z</time></trkpt><trkpt lat="-36.7124538" lon="174.5648113"><ele>70.0</ele><time>2026-03-24T04:37:12.726Z</time></trkpt><trkpt lat="-36.7125391" lon="174.5647724"><ele>70.0</ele><time>2026-03-24T04:37:14.727Z</time></trkpt><trkpt lat="-36.712628" lon="174.5647449"><ele>70.0</ele><time>2026-03-24T04:37:16.728Z</time></trkpt><trkpt lat="-36.7127094" lon="174.5647133"><ele>70.0</ele><time>2026-03-24T04:37:18.726Z</time></trkpt><trkpt lat="-36.712807" lon="174.5646852"><ele>70.16666666666666</ele><time>2026-03-24T04:37:20.727Z</time></trkpt><trkpt lat="-36.7128861" lon="174.5646468"><ele>70.33333333333333</ele><time>2026-03-24T04:37:22.727Z</time></trkpt><trkpt lat="-36.7129623" lon="174.5646191"><ele>70.5</ele><time>2026-03-24T04:37:24.726Z</time></trkpt><trkpt lat="-36.7130473" lon="174.564587"><ele>70.66666666666667</ele><time>2026-03-24T04:37:26.726Z</time></trkpt><trkpt lat="-36.7131197" lon="174.5645462"><ele>70.83333333333334</ele><time>2026-03-24T04:37:28.727Z</time></trkpt><trkpt lat="-36.7131939" lon="174.5645209"><ele>71.0</ele><time>2026-03-24T04:37:30.729Z</time></trkpt><trkpt lat="-36.7132642" lon="174.5644875"><ele>71.83333333333334</ele><time>2026-03-24T04:37:32.728Z</time></trkpt><trkpt lat="-36.7133446" lon="174.5644562"><ele>72.66666666666667</ele><time>2026-03-24T04:37:34.727Z</time></trkpt><trkpt lat="-36.7134212" lon="174.5644124"><ele>73.5</ele><time>2026-03-24T04:37:36.728Z</time></trkpt><trkpt lat="-36.7134822" lon="174.5643582"><ele>74.33333333333333</ele><time>2026-03-24T04:37:38.727Z</time></trkpt><trkpt lat="-36.7135176" lon="174.5642633"><ele>75.16666666666666</ele><time>2026-03-24T04:37:41.726Z</time></trkpt><trkpt lat="-36.7135098" lon="174.5641834"><ele>76.0</ele><time>2026-03-24T04:37:43.728Z</time></trkpt><trkpt lat="-36.7134746" lon="174.5640993"><ele>76.0</ele><time>2026-03-24T04:37:45.728Z</time></trkpt><trkpt lat="-36.7134025" lon="174.5639985"><ele>76.0</ele><time>2026-03-24T04:37:47.727Z</time></trkpt><trkpt lat="-36.7133338" lon="174.5638937"><ele>76.0</ele><time>2026-03-24T04:37:49.726Z</time></trkpt><trkpt lat="-36.7132794" lon="174.5638231"><ele>76.0</ele><time>2026-03-24T04:37:50.729Z</time></trkpt><trkpt lat="-36.7132411" lon="174.563742"><ele>76.0</ele><time>2026-03-24T04:37:51.727Z</time></trkpt><trkpt lat="-36.7131977" lon="174.5636647"><ele>76.0</ele><time>2026-03-24T04:37:52.728Z</time></trkpt><trkpt lat="-36.7131476" lon="174.563588"><ele>77.66666666666666</ele><time>2026-03-24T04:37:53.728Z</time></trkpt><trkpt lat="-36.7130956" lon="174.5635127"><ele>79.33333333333333</ele><time>2026-03-24T04:37:54.728Z</time></trkpt><trkpt lat="-36.7130443" lon="174.563431"><ele>81.0</ele><time>2026-03-24T04:37:55.727Z</time></trkpt><trkpt lat="-36.7129942" lon="174.5633553"><ele>82.66666666666667</ele><time>2026-03-24T04:37:56.728Z</time></trkpt><trkpt lat="-36.7129423" lon="174.5632718"><ele>84.33333333333334</ele><time>2026-03-24T04:37:57.728Z</time></trkpt><trkpt lat="-36.71289" lon="174.5632003"><ele>86.0</ele><time>2026-03-24T04:37:58.728Z</time></trkpt><trkpt lat="-36.7128397" lon="174.5631135"><ele>86.0</ele><time>2026-03-24T04:37:59.727Z</time></trkpt><trkpt lat="-36.7127893" lon="174.563036"><ele>86.0</ele><time>2026-03-24T04:38:00.728Z</time></trkpt><trkpt lat="-36.712736" lon="174.5629609"><ele>86.0</ele><time>2026-03-24T04:38:01.727Z</time></trkpt><trkpt lat="-36.7126849" lon="174.5628877"><ele>86.0</ele><time>2026-03-24T04:38:02.727Z</time></trkpt><trkpt lat="-36.7126349" lon="174.5628172"><ele>86.0</ele><time>2026-03-24T04:38:03.727Z</time></trkpt><trkpt lat="-36.7125704" lon="174.5627394"><ele>86.0</ele><time>2026-03-24T04:38:04.726Z</time></trkpt><trkpt lat="-36.7125228" lon="174.5626566"><ele>84.66666666666667</ele><time>2026-03-24T04:38:05.727Z</time></trkpt><trkpt lat="-36.7124723" lon="174.5625836"><ele>83.33333333333334</ele><time>2026-03-24T04:38:06.727Z</time></trkpt><trkpt lat="-36.7124249" lon="174.5625056"><ele>82.0</ele><time>2026-03-24T04:38:07.727Z</time></trkpt><trkpt lat="-36.7123651" lon="174.5624295"><ele>80.66666666666667</ele><time>2026-03-24T04:38:08.726Z</time></trkpt><trkpt lat="-36.7123212" lon="174.5623555"><ele>79.33333333333333</ele><time>2026-03-24T04:38:09.729Z</time></trkpt><trkpt lat="-36.7122779" lon="174.5622784"><ele>78.0</ele><time>2026-03-24T04:38:10.727Z</time></trkpt><trkpt lat="-36.7122374" lon="174.5622023"><ele>78.0</ele><time>2026-03-24T04:38:11.727Z</time></trkpt><trkpt lat="-36.7121886" lon="174.5621266"><ele>78.0</ele><time>2026-03-24T04:38:12.728Z</time></trkpt><trkpt lat="-36.7121461" lon="174.5620547"><ele>78.0</ele><time>2026-03-24T04:38:13.729Z</time></trkpt><trkpt lat="-36.7120975" lon="174.5619751"><ele>78.0</ele><time>2026-03-24T04:38:14.727Z</time></trkpt><trkpt lat="-36.7120506" lon="174.5619055"><ele>78.0</ele><time>2026-03-24T04:38:15.726Z</time></trkpt><trkpt lat="-36.7120051" lon="174.5618329"><ele>78.0</ele><time>2026-03-24T04:38:16.727Z</time></trkpt><trkpt lat="-36.7119567" lon="174.5617608"><ele>79.16666666666667</ele><time>2026-03-24T04:38:17.727Z</time></trkpt><trkpt lat="-36.7119101" lon="174.5616823"><ele>80.33333333333333</ele><time>2026-03-24T04:38:18.727Z</time></trkpt><trkpt lat="-36.7118668" lon="174.5616041"><ele>81.5</ele><time>2026-03-24T04:38:19.727Z</time></trkpt><trkpt lat="-36.7118195" lon="174.5615248"><ele>82.66666666666666</ele><time>2026-03-24T04:38:20.727Z</time></trkpt><trkpt lat="-36.7117782" lon="174.5614484"><ele>83.83333333333333</ele><time>2026-03-24T04:38:21.727Z</time></trkpt><trkpt lat="-36.7117297" lon="174.5613791"><ele>85.0</ele><time>2026-03-24T04:38:22.727Z</time></trkpt><trkpt lat="-36.7116883" lon="174.561307"><ele>83.5</ele><time>2026-03-24T04:38:23.727Z</time></trkpt><trkpt lat="-36.7116462" lon="174.5612258"><ele>82.0</ele><time>2026-03-24T04:38:24.727Z</time></trkpt><trkpt lat="-36.7116007" lon="174.561149"><ele>80.5</ele><time>2026-03-24T04:38:25.728Z</time></trkpt><trkpt lat="-36.7115591" lon="174.5610721"><ele>79.0</ele><time>2026-03-24T04:38:26.727Z</time></trkpt><trkpt lat="-36.7115111" lon="174.5610131"><ele>77.5</ele><time>2026-03-24T04:38:27.727Z</time></trkpt><trkpt lat="-36.7114693" lon="174.56093"><ele>76.0</ele><time>2026-03-24T04:38:28.726Z</time></trkpt><trkpt lat="-36.7114249" lon="174.5608534"><ele>76.0</ele><time>2026-03-24T04:38:29.727Z</time></trkpt><trkpt lat="-36.7113862" lon="174.5607707"><ele>76.0</ele><time>2026-03-24T04:38:30.728Z</time></trkpt><trkpt lat="-36.7113393" lon="174.5606861"><ele>76.0</ele><time>2026-03-24T04:38:31.727Z</time></trkpt><trkpt lat="-36.7112921" lon="174.5605996"><ele>76.0</ele><time>2026-03-24T04:38:32.727Z</time></trkpt><trkpt lat="-36.7112419" lon="174.5605079"><ele>76.0</ele><time>2026-03-24T04:38:33.726Z</time></trkpt><trkpt lat="-36.7111929" lon="174.5604242"><ele>76.0</ele><time>2026-03-24T04:38:34.728Z</time></trkpt><trkpt lat="-36.7111429" lon="174.5603282"><ele>76.5</ele><time>2026-03-24T04:38:35.727Z</time></trkpt><trkpt lat="-36.7110933" lon="174.5602473"><ele>77.0</ele><time>2026-03-24T04:38:36.727Z</time></trkpt><trkpt lat="-36.7110413" lon="174.5601582"><ele>77.5</ele><time>2026-03-24T04:38:37.727Z</time></trkpt><trkpt lat="-36.7109825" lon="174.5600706"><ele>78.0</ele><time>2026-03-24T04:38:38.727Z</time></trkpt><trkpt lat="-36.7109328" lon="174.5599845"><ele>78.5</ele><time>2026-03-24T04:38:39.727Z</time></trkpt><trkpt lat="-36.7108774" lon="174.5598814"><ele>79.0</ele><time>2026-03-24T04:38:40.726Z</time></trkpt><trkpt lat="-36.7108158" lon="174.5597856"><ele>78.60000000000001</ele><time>2026-03-24T04:38:41.728Z</time></trkpt><trkpt lat="-36.710772" lon="174.5596844"><ele>78.2</ele><time>2026-03-24T04:38:42.726Z</time></trkpt><trkpt lat="-36.7107181" lon="174.5595824"><ele>77.80000000000001</ele><time>2026-03-24T04:38:43.727Z</time></trkpt><trkpt lat="-36.7106546" lon="174.5594812"><ele>77.4</ele><time>2026-03-24T04:38:44.727Z</time></trkpt><trkpt lat="-36.7106051" lon="174.5593734"><ele>77.0</ele><time>2026-03-24T04:38:45.727Z</time></trkpt><trkpt lat="-36.7105541" lon="174.5592712"><ele>77.0</ele><time>2026-03-24T04:38:46.728Z</time></trkpt><trkpt lat="-36.7104979" lon="174.559171"><ele>77.0</ele><time>2026-03-24T04:38:47.727Z</time></trkpt><trkpt lat="-36.7104396" lon="174.5590643"><ele>77.0</ele><time>2026-03-24T04:38:48.728Z</time></trkpt><trkpt lat="-36.7103851" lon="174.5589755"><ele>77.0</ele><time>2026-03-24T04:38:49.727Z</time></trkpt><trkpt lat="-36.7103303" lon="174.5588759"><ele>77.0</ele><time>2026-03-24T04:38:50.729Z</time></trkpt><trkpt lat="-36.7102754" lon="174.5587808"><ele>74.33333333333334</ele><time>2026-03-24T04:38:51.727Z</time></trkpt><trkpt lat="-36.7102122" lon="174.5586912"><ele>71.66666666666667</ele><time>2026-03-24T04:38:52.727Z</time></trkpt><trkpt lat="-36.7101756" lon="174.5586131"><ele>69.0</ele><time>2026-03-24T04:38:53.728Z</time></trkpt><trkpt lat="-36.7101309" lon="174.5585138"><ele>66.33333333333333</ele><time>2026-03-24T04:38:54.727Z</time></trkpt><trkpt lat="-36.7100887" lon="174.5584518"><ele>63.666666666666664</ele><time>2026-03-24T04:38:55.727Z</time></trkpt><trkpt lat="-36.7100455" lon="174.5583762"><ele>61.0</ele><time>2026-03-24T04:38:56.727Z</time></trkpt><trkpt lat="-36.7100146" lon="174.5582773"><ele>60.99999999999999</ele><time>2026-03-24T04:38:57.727Z</time></trkpt><trkpt lat="-36.7099784" lon="174.5581591"><ele>61.0</ele><time>2026-03-24T04:38:58.727Z</time></trkpt><trkpt lat="-36.7099438" lon="174.5580487"><ele>61.0</ele><time>2026-03-24T04:38:59.727Z</time></trkpt><trkpt lat="-36.7099427" lon="174.5579453"><ele>61.0</ele><time>2026-03-24T04:39:00.727Z</time></trkpt><trkpt lat="-36.7099321" lon="174.5578367"><ele>60.99999999999999</ele><time>2026-03-24T04:39:01.727Z</time></trkpt><trkpt lat="-36.7099325" lon="174.5577394"><ele>61.0</ele><time>2026-03-24T04:39:02.728Z</time></trkpt><trkpt lat="-36.7099318" lon="174.5576388"><ele>59.99999999999999</ele><time>2026-03-24T04:39:03.726Z</time></trkpt><trkpt lat="-36.7099472" lon="174.557556"><ele>59.0</ele><time>2026-03-24T04:39:04.727Z</time></trkpt><trkpt lat="-36.7099545" lon="174.5574228"><ele>58.0</ele><time>2026-03-24T04:39:06.728Z</time></trkpt><trkpt lat="-36.7099528" lon="174.5573034"><ele>57.0</ele><time>2026-03-24T04:39:08.726Z</time></trkpt><trkpt lat="-36.7099323" lon="174.5572207"><ele>55.99999999999999</ele><time>2026-03-24T04:39:10.727Z</time></trkpt><trkpt lat="-36.7099703" lon="174.557153"><ele>55.0</ele><time>2026-03-24T04:39:24.726Z</time></trkpt><trkpt lat="-36.7099863" lon="174.5570427"><ele>55.0</ele><time>2026-03-24T04:39:29.728Z</time></trkpt><trkpt lat="-36.7100026" lon="174.5569545"><ele>45.0</ele><time>2026-03-24T04:39:31.728Z</time></trkpt><trkpt lat="-36.7100168" lon="174.556835"><ele>45.0</ele><time>2026-03-24T04:39:33.726Z</time></trkpt><trkpt lat="-36.7100263" lon="174.5567071"><ele>45.0</ele><time>2026-03-24T04:39:35.728Z</time></trkpt><trkpt lat="-36.7100394" lon="174.5565851"><ele>45.0</ele><time>2026-03-24T04:39:37.728Z</time></trkpt><trkpt lat="-36.710036" lon="174.5565026"><ele>45.0</ele><time>2026-03-24T04:39:39.727Z</time></trkpt></trkseg></trk></gpx>